<?xml version="1.0" encoding="UTF-8" standalone="no" ?>
<gpx xmlns="http://www.topografix.com/GPX/1/1" xmlns:xsi="http://www.w3.org/2001/XMLSchema-instance" xsi:schemaLocation="http://www.topografix.com/GPX/1/1 http://www.topografix.com/GPX/1/1/gpx.xsd" version="1.1" creator="VisuGPX - https://www.visugpx.com">
  <metadata>
    <name>regis lucile larko 1</name>
    <desc><![CDATA[rando autour chalet]]></desc>
  </metadata>
  <trk>
    <name><![CDATA[Sequence 1]]></name>
    <trkseg>
      <trkpt lat="48.21662" lon="6.92719">
        <ele>397</ele>
        <time>2015-09-02T12:48:35Z</time>
      </trkpt>
      <trkpt lat="48.21662" lon="6.92719">
        <ele>397</ele>
        <time>2015-09-02T12:48:38Z</time>
      </trkpt>
      <trkpt lat="48.21663" lon="6.9272">
        <ele>407</ele>
        <time>2015-09-02T12:48:45Z</time>
      </trkpt>
      <trkpt lat="48.21662" lon="6.9271">
        <ele>416</ele>
        <time>2015-09-02T12:48:54Z</time>
      </trkpt>
      <trkpt lat="48.21661" lon="6.92707">
        <ele>417</ele>
        <time>2015-09-02T12:48:56Z</time>
      </trkpt>
      <trkpt lat="48.21661" lon="6.92699">
        <ele>418</ele>
        <time>2015-09-02T12:49:02Z</time>
      </trkpt>
      <trkpt lat="48.21657" lon="6.92685">
        <ele>419</ele>
        <time>2015-09-02T12:49:08Z</time>
      </trkpt>
      <trkpt lat="48.21653" lon="6.92672">
        <ele>422</ele>
        <time>2015-09-02T12:49:14Z</time>
      </trkpt>
      <trkpt lat="48.21653" lon="6.92666">
        <ele>422</ele>
        <time>2015-09-02T12:49:20Z</time>
      </trkpt>
      <trkpt lat="48.21651" lon="6.9265">
        <ele>422</ele>
        <time>2015-09-02T12:49:29Z</time>
      </trkpt>
      <trkpt lat="48.21648" lon="6.92638">
        <ele>422</ele>
        <time>2015-09-02T12:49:36Z</time>
      </trkpt>
      <trkpt lat="48.21647" lon="6.92634">
        <ele>423</ele>
        <time>2015-09-02T12:49:38Z</time>
      </trkpt>
      <trkpt lat="48.21644" lon="6.92624">
        <ele>423</ele>
        <time>2015-09-02T12:49:44Z</time>
      </trkpt>
      <trkpt lat="48.21639" lon="6.92615">
        <ele>424</ele>
        <time>2015-09-02T12:49:50Z</time>
      </trkpt>
      <trkpt lat="48.21635" lon="6.92608">
        <ele>426</ele>
        <time>2015-09-02T12:49:56Z</time>
      </trkpt>
      <trkpt lat="48.21631" lon="6.92599">
        <ele>426</ele>
        <time>2015-09-02T12:50:02Z</time>
      </trkpt>
      <trkpt lat="48.21628" lon="6.92593">
        <ele>426</ele>
        <time>2015-09-02T12:50:08Z</time>
      </trkpt>
      <trkpt lat="48.21622" lon="6.92583">
        <ele>429</ele>
        <time>2015-09-02T12:50:14Z</time>
      </trkpt>
      <trkpt lat="48.21621" lon="6.92581">
        <ele>430</ele>
        <time>2015-09-02T12:50:25Z</time>
      </trkpt>
      <trkpt lat="48.2162" lon="6.92578">
        <ele>430</ele>
        <time>2015-09-02T12:50:27Z</time>
      </trkpt>
      <trkpt lat="48.21616" lon="6.92571">
        <ele>430</ele>
        <time>2015-09-02T12:50:32Z</time>
      </trkpt>
      <trkpt lat="48.21613" lon="6.92561">
        <ele>431</ele>
        <time>2015-09-02T12:50:38Z</time>
      </trkpt>
      <trkpt lat="48.21608" lon="6.9255">
        <ele>432</ele>
        <time>2015-09-02T12:50:44Z</time>
      </trkpt>
      <trkpt lat="48.21606" lon="6.9254">
        <ele>431</ele>
        <time>2015-09-02T12:50:50Z</time>
      </trkpt>
      <trkpt lat="48.21602" lon="6.92532">
        <ele>433</ele>
        <time>2015-09-02T12:50:56Z</time>
      </trkpt>
      <trkpt lat="48.21598" lon="6.92522">
        <ele>435</ele>
        <time>2015-09-02T12:51:02Z</time>
      </trkpt>
      <trkpt lat="48.21601" lon="6.92511">
        <ele>431</ele>
        <time>2015-09-02T12:51:08Z</time>
      </trkpt>
      <trkpt lat="48.21604" lon="6.92502">
        <ele>429</ele>
        <time>2015-09-02T12:51:14Z</time>
      </trkpt>
      <trkpt lat="48.21606" lon="6.92492">
        <ele>430</ele>
        <time>2015-09-02T12:51:20Z</time>
      </trkpt>
      <trkpt lat="48.21608" lon="6.92492">
        <ele>429</ele>
        <time>2015-09-02T12:51:26Z</time>
      </trkpt>
      <trkpt lat="48.21604" lon="6.92486">
        <ele>429</ele>
        <time>2015-09-02T12:51:32Z</time>
      </trkpt>
      <trkpt lat="48.216" lon="6.92477">
        <ele>430</ele>
        <time>2015-09-02T12:51:38Z</time>
      </trkpt>
      <trkpt lat="48.21598" lon="6.92466">
        <ele>430</ele>
        <time>2015-09-02T12:51:44Z</time>
      </trkpt>
      <trkpt lat="48.21596" lon="6.92455">
        <ele>429</ele>
        <time>2015-09-02T12:51:50Z</time>
      </trkpt>
      <trkpt lat="48.21593" lon="6.92446">
        <ele>429</ele>
        <time>2015-09-02T12:51:56Z</time>
      </trkpt>
      <trkpt lat="48.21591" lon="6.92435">
        <ele>430</ele>
        <time>2015-09-02T12:52:02Z</time>
      </trkpt>
      <trkpt lat="48.21589" lon="6.92421">
        <ele>432</ele>
        <time>2015-09-02T12:52:11Z</time>
      </trkpt>
      <trkpt lat="48.2159" lon="6.9241">
        <ele>432</ele>
        <time>2015-09-02T12:52:19Z</time>
      </trkpt>
      <trkpt lat="48.21587" lon="6.92402">
        <ele>432</ele>
        <time>2015-09-02T12:52:23Z</time>
      </trkpt>
      <trkpt lat="48.21588" lon="6.92398">
        <ele>431</ele>
        <time>2015-09-02T12:52:26Z</time>
      </trkpt>
      <trkpt lat="48.21585" lon="6.92386">
        <ele>432</ele>
        <time>2015-09-02T12:52:32Z</time>
      </trkpt>
      <trkpt lat="48.2158" lon="6.92376">
        <ele>435</ele>
        <time>2015-09-02T12:52:38Z</time>
      </trkpt>
      <trkpt lat="48.21575" lon="6.92359">
        <ele>434</ele>
        <time>2015-09-02T12:52:49Z</time>
      </trkpt>
      <trkpt lat="48.21574" lon="6.92357">
        <ele>434</ele>
        <time>2015-09-02T12:52:50Z</time>
      </trkpt>
      <trkpt lat="48.21571" lon="6.92348">
        <ele>435</ele>
        <time>2015-09-02T12:52:56Z</time>
      </trkpt>
      <trkpt lat="48.21571" lon="6.9234">
        <ele>434</ele>
        <time>2015-09-02T12:53:02Z</time>
      </trkpt>
      <trkpt lat="48.21569" lon="6.92332">
        <ele>431</ele>
        <time>2015-09-02T12:53:08Z</time>
      </trkpt>
      <trkpt lat="48.21567" lon="6.92323">
        <ele>430</ele>
        <time>2015-09-02T12:53:14Z</time>
      </trkpt>
      <trkpt lat="48.21564" lon="6.92315">
        <ele>430</ele>
        <time>2015-09-02T12:53:20Z</time>
      </trkpt>
      <trkpt lat="48.21561" lon="6.92307">
        <ele>433</ele>
        <time>2015-09-02T12:53:26Z</time>
      </trkpt>
      <trkpt lat="48.21558" lon="6.92296">
        <ele>431</ele>
        <time>2015-09-02T12:53:32Z</time>
      </trkpt>
      <trkpt lat="48.21555" lon="6.92287">
        <ele>432</ele>
        <time>2015-09-02T12:53:38Z</time>
      </trkpt>
      <trkpt lat="48.21552" lon="6.92276">
        <ele>433</ele>
        <time>2015-09-02T12:53:44Z</time>
      </trkpt>
      <trkpt lat="48.2155" lon="6.92268">
        <ele>432</ele>
        <time>2015-09-02T12:53:50Z</time>
      </trkpt>
      <trkpt lat="48.21548" lon="6.92257">
        <ele>432</ele>
        <time>2015-09-02T12:53:56Z</time>
      </trkpt>
      <trkpt lat="48.21546" lon="6.92248">
        <ele>431</ele>
        <time>2015-09-02T12:54:02Z</time>
      </trkpt>
      <trkpt lat="48.21545" lon="6.92242">
        <ele>431</ele>
        <time>2015-09-02T12:54:08Z</time>
      </trkpt>
      <trkpt lat="48.21545" lon="6.92232">
        <ele>429</ele>
        <time>2015-09-02T12:54:14Z</time>
      </trkpt>
      <trkpt lat="48.21543" lon="6.92222">
        <ele>429</ele>
        <time>2015-09-02T12:54:20Z</time>
      </trkpt>
      <trkpt lat="48.21542" lon="6.92213">
        <ele>430</ele>
        <time>2015-09-02T12:54:26Z</time>
      </trkpt>
      <trkpt lat="48.21541" lon="6.92201">
        <ele>428</ele>
        <time>2015-09-02T12:54:32Z</time>
      </trkpt>
      <trkpt lat="48.21542" lon="6.92197">
        <ele>429</ele>
        <time>2015-09-02T12:54:38Z</time>
      </trkpt>
      <trkpt lat="48.21544" lon="6.92188">
        <ele>427</ele>
        <time>2015-09-02T12:54:44Z</time>
      </trkpt>
      <trkpt lat="48.21543" lon="6.92177">
        <ele>427</ele>
        <time>2015-09-02T12:54:52Z</time>
      </trkpt>
      <trkpt lat="48.21542" lon="6.92171">
        <ele>426</ele>
        <time>2015-09-02T12:54:56Z</time>
      </trkpt>
      <trkpt lat="48.21537" lon="6.92153">
        <ele>425</ele>
        <time>2015-09-02T12:55:06Z</time>
      </trkpt>
      <trkpt lat="48.21535" lon="6.92142">
        <ele>426</ele>
        <time>2015-09-02T12:55:13Z</time>
      </trkpt>
      <trkpt lat="48.21535" lon="6.92133">
        <ele>431</ele>
        <time>2015-09-02T12:55:18Z</time>
      </trkpt>
      <trkpt lat="48.21536" lon="6.92113">
        <ele>434</ele>
        <time>2015-09-02T12:55:26Z</time>
      </trkpt>
      <trkpt lat="48.21535" lon="6.92114">
        <ele>432</ele>
        <time>2015-09-02T12:55:27Z</time>
      </trkpt>
      <trkpt lat="48.21537" lon="6.92107">
        <ele>431</ele>
        <time>2015-09-02T12:55:33Z</time>
      </trkpt>
      <trkpt lat="48.21539" lon="6.92096">
        <ele>431</ele>
        <time>2015-09-02T12:55:40Z</time>
      </trkpt>
      <trkpt lat="48.21541" lon="6.92092">
        <ele>431</ele>
        <time>2015-09-02T12:55:45Z</time>
      </trkpt>
      <trkpt lat="48.21543" lon="6.92087">
        <ele>431</ele>
        <time>2015-09-02T12:55:54Z</time>
      </trkpt>
      <trkpt lat="48.21543" lon="6.92085">
        <ele>431</ele>
        <time>2015-09-02T12:55:57Z</time>
      </trkpt>
      <trkpt lat="48.21548" lon="6.92076">
        <ele>430</ele>
        <time>2015-09-02T12:56:03Z</time>
      </trkpt>
      <trkpt lat="48.21548" lon="6.92074">
        <ele>431</ele>
        <time>2015-09-02T12:56:09Z</time>
      </trkpt>
      <trkpt lat="48.21552" lon="6.92054">
        <ele>433</ele>
        <time>2015-09-02T12:56:19Z</time>
      </trkpt>
      <trkpt lat="48.21553" lon="6.92048">
        <ele>431</ele>
        <time>2015-09-02T12:56:23Z</time>
      </trkpt>
      <trkpt lat="48.21554" lon="6.92043">
        <ele>432</ele>
        <time>2015-09-02T12:56:27Z</time>
      </trkpt>
      <trkpt lat="48.21555" lon="6.92039">
        <ele>431</ele>
        <time>2015-09-02T12:56:33Z</time>
      </trkpt>
      <trkpt lat="48.21558" lon="6.9203">
        <ele>431</ele>
        <time>2015-09-02T12:56:40Z</time>
      </trkpt>
      <trkpt lat="48.21558" lon="6.9202">
        <ele>431</ele>
        <time>2015-09-02T12:56:45Z</time>
      </trkpt>
      <trkpt lat="48.21556" lon="6.92009">
        <ele>431</ele>
        <time>2015-09-02T12:56:51Z</time>
      </trkpt>
      <trkpt lat="48.21556" lon="6.91999">
        <ele>429</ele>
        <time>2015-09-02T12:56:57Z</time>
      </trkpt>
      <trkpt lat="48.21552" lon="6.9198">
        <ele>432</ele>
        <time>2015-09-02T12:57:06Z</time>
      </trkpt>
      <trkpt lat="48.21551" lon="6.91975">
        <ele>434</ele>
        <time>2015-09-02T12:57:09Z</time>
      </trkpt>
      <trkpt lat="48.21548" lon="6.91962">
        <ele>436</ele>
        <time>2015-09-02T12:57:17Z</time>
      </trkpt>
      <trkpt lat="48.21546" lon="6.91955">
        <ele>435</ele>
        <time>2015-09-02T12:57:22Z</time>
      </trkpt>
      <trkpt lat="48.21543" lon="6.91946">
        <ele>437</ele>
        <time>2015-09-02T12:57:27Z</time>
      </trkpt>
      <trkpt lat="48.21541" lon="6.91934">
        <ele>436</ele>
        <time>2015-09-02T12:57:33Z</time>
      </trkpt>
      <trkpt lat="48.2154" lon="6.91924">
        <ele>436</ele>
        <time>2015-09-02T12:57:39Z</time>
      </trkpt>
      <trkpt lat="48.2154" lon="6.91913">
        <ele>435</ele>
        <time>2015-09-02T12:57:45Z</time>
      </trkpt>
      <trkpt lat="48.21543" lon="6.91905">
        <ele>432</ele>
        <time>2015-09-02T12:57:51Z</time>
      </trkpt>
      <trkpt lat="48.21546" lon="6.91894">
        <ele>431</ele>
        <time>2015-09-02T12:57:57Z</time>
      </trkpt>
      <trkpt lat="48.2155" lon="6.91888">
        <ele>432</ele>
        <time>2015-09-02T12:58:03Z</time>
      </trkpt>
      <trkpt lat="48.21552" lon="6.91887">
        <ele>433</ele>
        <time>2015-09-02T12:58:09Z</time>
      </trkpt>
      <trkpt lat="48.21552" lon="6.91886">
        <ele>431</ele>
        <time>2015-09-02T12:58:15Z</time>
      </trkpt>
      <trkpt lat="48.21556" lon="6.91882">
        <ele>430</ele>
        <time>2015-09-02T12:58:21Z</time>
      </trkpt>
      <trkpt lat="48.2156" lon="6.91879">
        <ele>429</ele>
        <time>2015-09-02T12:58:27Z</time>
      </trkpt>
      <trkpt lat="48.21565" lon="6.91874">
        <ele>431</ele>
        <time>2015-09-02T12:58:33Z</time>
      </trkpt>
      <trkpt lat="48.2157" lon="6.91873">
        <ele>430</ele>
        <time>2015-09-02T12:58:39Z</time>
      </trkpt>
      <trkpt lat="48.21574" lon="6.91869">
        <ele>430</ele>
        <time>2015-09-02T12:58:45Z</time>
      </trkpt>
      <trkpt lat="48.21579" lon="6.91865">
        <ele>432</ele>
        <time>2015-09-02T12:58:51Z</time>
      </trkpt>
      <trkpt lat="48.21583" lon="6.9186">
        <ele>432</ele>
        <time>2015-09-02T12:58:57Z</time>
      </trkpt>
      <trkpt lat="48.21586" lon="6.91855">
        <ele>436</ele>
        <time>2015-09-02T12:59:03Z</time>
      </trkpt>
      <trkpt lat="48.21592" lon="6.91846">
        <ele>437</ele>
        <time>2015-09-02T12:59:13Z</time>
      </trkpt>
      <trkpt lat="48.21595" lon="6.91845">
        <ele>437</ele>
        <time>2015-09-02T12:59:17Z</time>
      </trkpt>
      <trkpt lat="48.21597" lon="6.91843">
        <ele>439</ele>
        <time>2015-09-02T12:59:21Z</time>
      </trkpt>
      <trkpt lat="48.21601" lon="6.91841">
        <ele>438</ele>
        <time>2015-09-02T12:59:27Z</time>
      </trkpt>
      <trkpt lat="48.21605" lon="6.91841">
        <ele>439</ele>
        <time>2015-09-02T12:59:33Z</time>
      </trkpt>
      <trkpt lat="48.2161" lon="6.9184">
        <ele>442</ele>
        <time>2015-09-02T12:59:40Z</time>
      </trkpt>
      <trkpt lat="48.21613" lon="6.91839">
        <ele>442</ele>
        <time>2015-09-02T12:59:44Z</time>
      </trkpt>
      <trkpt lat="48.2162" lon="6.91838">
        <ele>440</ele>
        <time>2015-09-02T12:59:50Z</time>
      </trkpt>
      <trkpt lat="48.21629" lon="6.91835">
        <ele>430</ele>
        <time>2015-09-02T12:59:57Z</time>
      </trkpt>
      <trkpt lat="48.21635" lon="6.91831">
        <ele>434</ele>
        <time>2015-09-02T13:00:05Z</time>
      </trkpt>
      <trkpt lat="48.21637" lon="6.91831">
        <ele>435</ele>
        <time>2015-09-02T13:00:08Z</time>
      </trkpt>
      <trkpt lat="48.2164" lon="6.91823">
        <ele>438</ele>
        <time>2015-09-02T13:00:14Z</time>
      </trkpt>
      <trkpt lat="48.21644" lon="6.9182">
        <ele>435</ele>
        <time>2015-09-02T13:00:21Z</time>
      </trkpt>
      <trkpt lat="48.21648" lon="6.9181">
        <ele>437</ele>
        <time>2015-09-02T13:00:28Z</time>
      </trkpt>
      <trkpt lat="48.2165" lon="6.91808">
        <ele>439</ele>
        <time>2015-09-02T13:00:32Z</time>
      </trkpt>
      <trkpt lat="48.21652" lon="6.91807">
        <ele>440</ele>
        <time>2015-09-02T13:00:38Z</time>
      </trkpt>
      <trkpt lat="48.21661" lon="6.91796">
        <ele>445</ele>
        <time>2015-09-02T13:00:46Z</time>
      </trkpt>
      <trkpt lat="48.21663" lon="6.91794">
        <ele>447</ele>
        <time>2015-09-02T13:00:50Z</time>
      </trkpt>
      <trkpt lat="48.21665" lon="6.91786">
        <ele>446</ele>
        <time>2015-09-02T13:01:00Z</time>
      </trkpt>
      <trkpt lat="48.21666" lon="6.91785">
        <ele>447</ele>
        <time>2015-09-02T13:01:02Z</time>
      </trkpt>
      <trkpt lat="48.21666" lon="6.91776">
        <ele>448</ele>
        <time>2015-09-02T13:01:08Z</time>
      </trkpt>
      <trkpt lat="48.21669" lon="6.9177">
        <ele>448</ele>
        <time>2015-09-02T13:01:16Z</time>
      </trkpt>
      <trkpt lat="48.21672" lon="6.91761">
        <ele>452</ele>
        <time>2015-09-02T13:01:25Z</time>
      </trkpt>
      <trkpt lat="48.21672" lon="6.91761">
        <ele>452</ele>
        <time>2015-09-02T13:01:26Z</time>
      </trkpt>
      <trkpt lat="48.21673" lon="6.91758">
        <ele>453</ele>
        <time>2015-09-02T13:01:32Z</time>
      </trkpt>
      <trkpt lat="48.21674" lon="6.91757">
        <ele>454</ele>
        <time>2015-09-02T13:01:38Z</time>
      </trkpt>
      <trkpt lat="48.21674" lon="6.91754">
        <ele>445</ele>
        <time>2015-09-02T13:01:46Z</time>
      </trkpt>
      <trkpt lat="48.21674" lon="6.91754">
        <ele>451</ele>
        <time>2015-09-02T13:01:50Z</time>
      </trkpt>
      <trkpt lat="48.21675" lon="6.91747">
        <ele>453</ele>
        <time>2015-09-02T13:01:56Z</time>
      </trkpt>
      <trkpt lat="48.21676" lon="6.91736">
        <ele>458</ele>
        <time>2015-09-02T13:02:02Z</time>
      </trkpt>
      <trkpt lat="48.21676" lon="6.91735">
        <ele>459</ele>
        <time>2015-09-02T13:02:13Z</time>
      </trkpt>
      <trkpt lat="48.21677" lon="6.91732">
        <ele>458</ele>
        <time>2015-09-02T13:02:15Z</time>
      </trkpt>
      <trkpt lat="48.21677" lon="6.91726">
        <ele>457</ele>
        <time>2015-09-02T13:02:20Z</time>
      </trkpt>
      <trkpt lat="48.21679" lon="6.91716">
        <ele>457</ele>
        <time>2015-09-02T13:02:27Z</time>
      </trkpt>
      <trkpt lat="48.21679" lon="6.91708">
        <ele>460</ele>
        <time>2015-09-02T13:02:32Z</time>
      </trkpt>
      <trkpt lat="48.21679" lon="6.91697">
        <ele>459</ele>
        <time>2015-09-02T13:02:38Z</time>
      </trkpt>
      <trkpt lat="48.21679" lon="6.91686">
        <ele>459</ele>
        <time>2015-09-02T13:02:46Z</time>
      </trkpt>
      <trkpt lat="48.21678" lon="6.91678">
        <ele>461</ele>
        <time>2015-09-02T13:02:50Z</time>
      </trkpt>
      <trkpt lat="48.21677" lon="6.91666">
        <ele>461</ele>
        <time>2015-09-02T13:02:59Z</time>
      </trkpt>
      <trkpt lat="48.21679" lon="6.91661">
        <ele>463</ele>
        <time>2015-09-02T13:03:03Z</time>
      </trkpt>
      <trkpt lat="48.21681" lon="6.91656">
        <ele>461</ele>
        <time>2015-09-02T13:03:08Z</time>
      </trkpt>
      <trkpt lat="48.21682" lon="6.91651">
        <ele>459</ele>
        <time>2015-09-02T13:03:14Z</time>
      </trkpt>
      <trkpt lat="48.21683" lon="6.91639">
        <ele>461</ele>
        <time>2015-09-02T13:03:20Z</time>
      </trkpt>
      <trkpt lat="48.21685" lon="6.91633">
        <ele>460</ele>
        <time>2015-09-02T13:03:26Z</time>
      </trkpt>
      <trkpt lat="48.21687" lon="6.91625">
        <ele>457</ele>
        <time>2015-09-02T13:03:32Z</time>
      </trkpt>
      <trkpt lat="48.21689" lon="6.9162">
        <ele>458</ele>
        <time>2015-09-02T13:03:38Z</time>
      </trkpt>
      <trkpt lat="48.21693" lon="6.91613">
        <ele>457</ele>
        <time>2015-09-02T13:03:44Z</time>
      </trkpt>
      <trkpt lat="48.21698" lon="6.91604">
        <ele>457</ele>
        <time>2015-09-02T13:03:51Z</time>
      </trkpt>
      <trkpt lat="48.21699" lon="6.91595">
        <ele>457</ele>
        <time>2015-09-02T13:03:56Z</time>
      </trkpt>
      <trkpt lat="48.21703" lon="6.91585">
        <ele>456</ele>
        <time>2015-09-02T13:04:02Z</time>
      </trkpt>
      <trkpt lat="48.21706" lon="6.91577">
        <ele>454</ele>
        <time>2015-09-02T13:04:08Z</time>
      </trkpt>
      <trkpt lat="48.21707" lon="6.91555">
        <ele>459</ele>
        <time>2015-09-02T13:04:16Z</time>
      </trkpt>
      <trkpt lat="48.21708" lon="6.91547">
        <ele>461</ele>
        <time>2015-09-02T13:04:20Z</time>
      </trkpt>
      <trkpt lat="48.2171" lon="6.91537">
        <ele>460</ele>
        <time>2015-09-02T13:04:26Z</time>
      </trkpt>
      <trkpt lat="48.21714" lon="6.91526">
        <ele>463</ele>
        <time>2015-09-02T13:04:32Z</time>
      </trkpt>
      <trkpt lat="48.21719" lon="6.91524">
        <ele>461</ele>
        <time>2015-09-02T13:04:38Z</time>
      </trkpt>
      <trkpt lat="48.21722" lon="6.91517">
        <ele>461</ele>
        <time>2015-09-02T13:04:44Z</time>
      </trkpt>
      <trkpt lat="48.21725" lon="6.91512">
        <ele>461</ele>
        <time>2015-09-02T13:04:50Z</time>
      </trkpt>
      <trkpt lat="48.2173" lon="6.915">
        <ele>460</ele>
        <time>2015-09-02T13:04:57Z</time>
      </trkpt>
      <trkpt lat="48.21733" lon="6.91496">
        <ele>458</ele>
        <time>2015-09-02T13:05:02Z</time>
      </trkpt>
      <trkpt lat="48.21739" lon="6.9149">
        <ele>460</ele>
        <time>2015-09-02T13:05:08Z</time>
      </trkpt>
      <trkpt lat="48.21745" lon="6.9148">
        <ele>460</ele>
        <time>2015-09-02T13:05:14Z</time>
      </trkpt>
      <trkpt lat="48.21746" lon="6.91478">
        <ele>459</ele>
        <time>2015-09-02T13:05:22Z</time>
      </trkpt>
      <trkpt lat="48.21754" lon="6.91467">
        <ele>461</ele>
        <time>2015-09-02T13:05:28Z</time>
      </trkpt>
      <trkpt lat="48.21761" lon="6.91453">
        <ele>463</ele>
        <time>2015-09-02T13:05:37Z</time>
      </trkpt>
      <trkpt lat="48.21763" lon="6.91452">
        <ele>463</ele>
        <time>2015-09-02T13:05:38Z</time>
      </trkpt>
      <trkpt lat="48.21767" lon="6.91443">
        <ele>462</ele>
        <time>2015-09-02T13:05:45Z</time>
      </trkpt>
      <trkpt lat="48.2177" lon="6.91437">
        <ele>462</ele>
        <time>2015-09-02T13:05:50Z</time>
      </trkpt>
      <trkpt lat="48.21774" lon="6.91419">
        <ele>472</ele>
        <time>2015-09-02T13:06:00Z</time>
      </trkpt>
      <trkpt lat="48.21775" lon="6.91418">
        <ele>472</ele>
        <time>2015-09-02T13:06:02Z</time>
      </trkpt>
      <trkpt lat="48.21779" lon="6.91413">
        <ele>472</ele>
        <time>2015-09-02T13:06:09Z</time>
      </trkpt>
      <trkpt lat="48.2178" lon="6.91411">
        <ele>473</ele>
        <time>2015-09-02T13:06:14Z</time>
      </trkpt>
      <trkpt lat="48.21782" lon="6.91409">
        <ele>474</ele>
        <time>2015-09-02T13:06:20Z</time>
      </trkpt>
      <trkpt lat="48.21784" lon="6.91403">
        <ele>473</ele>
        <time>2015-09-02T13:06:26Z</time>
      </trkpt>
      <trkpt lat="48.21792" lon="6.91395">
        <ele>469</ele>
        <time>2015-09-02T13:06:32Z</time>
      </trkpt>
      <trkpt lat="48.218" lon="6.91389">
        <ele>467</ele>
        <time>2015-09-02T13:06:38Z</time>
      </trkpt>
      <trkpt lat="48.21805" lon="6.91384">
        <ele>468</ele>
        <time>2015-09-02T13:06:44Z</time>
      </trkpt>
      <trkpt lat="48.21811" lon="6.91381">
        <ele>465</ele>
        <time>2015-09-02T13:06:50Z</time>
      </trkpt>
      <trkpt lat="48.21814" lon="6.91377">
        <ele>465</ele>
        <time>2015-09-02T13:06:56Z</time>
      </trkpt>
      <trkpt lat="48.2182" lon="6.91373">
        <ele>465</ele>
        <time>2015-09-02T13:07:02Z</time>
      </trkpt>
      <trkpt lat="48.2183" lon="6.91365">
        <ele>467</ele>
        <time>2015-09-02T13:07:08Z</time>
      </trkpt>
      <trkpt lat="48.21833" lon="6.91365">
        <ele>466</ele>
        <time>2015-09-02T13:07:14Z</time>
      </trkpt>
      <trkpt lat="48.21838" lon="6.91362">
        <ele>467</ele>
        <time>2015-09-02T13:07:20Z</time>
      </trkpt>
      <trkpt lat="48.21844" lon="6.91361">
        <ele>466</ele>
        <time>2015-09-02T13:07:26Z</time>
      </trkpt>
      <trkpt lat="48.21848" lon="6.91359">
        <ele>465</ele>
        <time>2015-09-02T13:07:32Z</time>
      </trkpt>
      <trkpt lat="48.21856" lon="6.91356">
        <ele>466</ele>
        <time>2015-09-02T13:07:38Z</time>
      </trkpt>
      <trkpt lat="48.21861" lon="6.91358">
        <ele>464</ele>
        <time>2015-09-02T13:07:44Z</time>
      </trkpt>
      <trkpt lat="48.21867" lon="6.91355">
        <ele>463</ele>
        <time>2015-09-02T13:07:50Z</time>
      </trkpt>
      <trkpt lat="48.21869" lon="6.91354">
        <ele>464</ele>
        <time>2015-09-02T13:07:56Z</time>
      </trkpt>
      <trkpt lat="48.2187" lon="6.91354">
        <ele>464</ele>
        <time>2015-09-02T13:08:02Z</time>
      </trkpt>
      <trkpt lat="48.21878" lon="6.91354">
        <ele>465</ele>
        <time>2015-09-02T13:08:08Z</time>
      </trkpt>
      <trkpt lat="48.21884" lon="6.91352">
        <ele>463</ele>
        <time>2015-09-02T13:08:18Z</time>
      </trkpt>
      <trkpt lat="48.21885" lon="6.91352">
        <ele>466</ele>
        <time>2015-09-02T13:08:20Z</time>
      </trkpt>
      <trkpt lat="48.21888" lon="6.9135">
        <ele>467</ele>
        <time>2015-09-02T13:08:26Z</time>
      </trkpt>
      <trkpt lat="48.21896" lon="6.91343">
        <ele>468</ele>
        <time>2015-09-02T13:08:32Z</time>
      </trkpt>
      <trkpt lat="48.21902" lon="6.91341">
        <ele>468</ele>
        <time>2015-09-02T13:08:38Z</time>
      </trkpt>
      <trkpt lat="48.21906" lon="6.91339">
        <ele>469</ele>
        <time>2015-09-02T13:08:44Z</time>
      </trkpt>
      <trkpt lat="48.21912" lon="6.91335">
        <ele>447</ele>
        <time>2015-09-02T13:08:50Z</time>
      </trkpt>
      <trkpt lat="48.21918" lon="6.91328">
        <ele>464</ele>
        <time>2015-09-02T13:08:59Z</time>
      </trkpt>
      <trkpt lat="48.21919" lon="6.91326">
        <ele>465</ele>
        <time>2015-09-02T13:09:02Z</time>
      </trkpt>
      <trkpt lat="48.21924" lon="6.9132">
        <ele>466</ele>
        <time>2015-09-02T13:09:08Z</time>
      </trkpt>
      <trkpt lat="48.21927" lon="6.91323">
        <ele>465</ele>
        <time>2015-09-02T13:09:14Z</time>
      </trkpt>
      <trkpt lat="48.21928" lon="6.91324">
        <ele>464</ele>
        <time>2015-09-02T13:09:20Z</time>
      </trkpt>
      <trkpt lat="48.21932" lon="6.91316">
        <ele>462</ele>
        <time>2015-09-02T13:09:27Z</time>
      </trkpt>
      <trkpt lat="48.21935" lon="6.9131">
        <ele>464</ele>
        <time>2015-09-02T13:09:33Z</time>
      </trkpt>
      <trkpt lat="48.21936" lon="6.91302">
        <ele>467</ele>
        <time>2015-09-02T13:09:38Z</time>
      </trkpt>
      <trkpt lat="48.21933" lon="6.91287">
        <ele>472</ele>
        <time>2015-09-02T13:09:46Z</time>
      </trkpt>
      <trkpt lat="48.21935" lon="6.9128">
        <ele>472</ele>
        <time>2015-09-02T13:09:54Z</time>
      </trkpt>
      <trkpt lat="48.21939" lon="6.9128">
        <ele>471</ele>
        <time>2015-09-02T13:09:56Z</time>
      </trkpt>
      <trkpt lat="48.2194" lon="6.91274">
        <ele>471</ele>
        <time>2015-09-02T13:10:02Z</time>
      </trkpt>
      <trkpt lat="48.21941" lon="6.91265">
        <ele>470</ele>
        <time>2015-09-02T13:10:08Z</time>
      </trkpt>
      <trkpt lat="48.21942" lon="6.91251">
        <ele>475</ele>
        <time>2015-09-02T13:10:17Z</time>
      </trkpt>
      <trkpt lat="48.21943" lon="6.91242">
        <ele>474</ele>
        <time>2015-09-02T13:10:23Z</time>
      </trkpt>
      <trkpt lat="48.21947" lon="6.91239">
        <ele>474</ele>
        <time>2015-09-02T13:10:28Z</time>
      </trkpt>
      <trkpt lat="48.21951" lon="6.91234">
        <ele>475</ele>
        <time>2015-09-02T13:10:33Z</time>
      </trkpt>
      <trkpt lat="48.21957" lon="6.91224">
        <ele>479</ele>
        <time>2015-09-02T13:10:41Z</time>
      </trkpt>
      <trkpt lat="48.21958" lon="6.91218">
        <ele>479</ele>
        <time>2015-09-02T13:10:46Z</time>
      </trkpt>
      <trkpt lat="48.21959" lon="6.91216">
        <ele>479</ele>
        <time>2015-09-02T13:10:50Z</time>
      </trkpt>
      <trkpt lat="48.21962" lon="6.9121">
        <ele>480</ele>
        <time>2015-09-02T13:10:56Z</time>
      </trkpt>
      <trkpt lat="48.21967" lon="6.91207">
        <ele>481</ele>
        <time>2015-09-02T13:11:07Z</time>
      </trkpt>
      <trkpt lat="48.21967" lon="6.91207">
        <ele>481</ele>
        <time>2015-09-02T13:11:08Z</time>
      </trkpt>
      <trkpt lat="48.21976" lon="6.91198">
        <ele>480</ele>
        <time>2015-09-02T13:11:17Z</time>
      </trkpt>
      <trkpt lat="48.21979" lon="6.91194">
        <ele>481</ele>
        <time>2015-09-02T13:11:20Z</time>
      </trkpt>
      <trkpt lat="48.21981" lon="6.91191">
        <ele>483</ele>
        <time>2015-09-02T13:11:26Z</time>
      </trkpt>
      <trkpt lat="48.21984" lon="6.91183">
        <ele>483</ele>
        <time>2015-09-02T13:11:32Z</time>
      </trkpt>
      <trkpt lat="48.2199" lon="6.91173">
        <ele>483</ele>
        <time>2015-09-02T13:11:40Z</time>
      </trkpt>
      <trkpt lat="48.21993" lon="6.91168">
        <ele>483</ele>
        <time>2015-09-02T13:11:44Z</time>
      </trkpt>
      <trkpt lat="48.21995" lon="6.91159">
        <ele>485</ele>
        <time>2015-09-02T13:11:50Z</time>
      </trkpt>
      <trkpt lat="48.21997" lon="6.9114">
        <ele>489</ele>
        <time>2015-09-02T13:12:01Z</time>
      </trkpt>
      <trkpt lat="48.21997" lon="6.91139">
        <ele>489</ele>
        <time>2015-09-02T13:12:03Z</time>
      </trkpt>
      <trkpt lat="48.21997" lon="6.91125">
        <ele>493</ele>
        <time>2015-09-02T13:12:09Z</time>
      </trkpt>
      <trkpt lat="48.21999" lon="6.9112">
        <ele>494</ele>
        <time>2015-09-02T13:12:17Z</time>
      </trkpt>
      <trkpt lat="48.22003" lon="6.91117">
        <ele>497</ele>
        <time>2015-09-02T13:12:21Z</time>
      </trkpt>
      <trkpt lat="48.22004" lon="6.91112">
        <ele>496</ele>
        <time>2015-09-02T13:12:26Z</time>
      </trkpt>
      <trkpt lat="48.22006" lon="6.9111">
        <ele>493</ele>
        <time>2015-09-02T13:12:32Z</time>
      </trkpt>
      <trkpt lat="48.22006" lon="6.91098">
        <ele>493</ele>
        <time>2015-09-02T13:12:39Z</time>
      </trkpt>
      <trkpt lat="48.22007" lon="6.91079">
        <ele>496</ele>
        <time>2015-09-02T13:12:46Z</time>
      </trkpt>
      <trkpt lat="48.22013" lon="6.91075">
        <ele>495</ele>
        <time>2015-09-02T13:12:54Z</time>
      </trkpt>
      <trkpt lat="48.22017" lon="6.91079">
        <ele>492</ele>
        <time>2015-09-02T13:12:56Z</time>
      </trkpt>
      <trkpt lat="48.22021" lon="6.91094">
        <ele>489</ele>
        <time>2015-09-02T13:13:05Z</time>
      </trkpt>
      <trkpt lat="48.22021" lon="6.91097">
        <ele>488</ele>
        <time>2015-09-02T13:13:08Z</time>
      </trkpt>
      <trkpt lat="48.22023" lon="6.91107">
        <ele>487</ele>
        <time>2015-09-02T13:13:14Z</time>
      </trkpt>
      <trkpt lat="48.22023" lon="6.91124">
        <ele>488</ele>
        <time>2015-09-02T13:13:24Z</time>
      </trkpt>
      <trkpt lat="48.22024" lon="6.91124">
        <ele>488</ele>
        <time>2015-09-02T13:13:26Z</time>
      </trkpt>
      <trkpt lat="48.22028" lon="6.91138">
        <ele>493</ele>
        <time>2015-09-02T13:13:32Z</time>
      </trkpt>
      <trkpt lat="48.22028" lon="6.91144">
        <ele>494</ele>
        <time>2015-09-02T13:13:38Z</time>
      </trkpt>
      <trkpt lat="48.22029" lon="6.91146">
        <ele>495</ele>
        <time>2015-09-02T13:13:46Z</time>
      </trkpt>
      <trkpt lat="48.22028" lon="6.91152">
        <ele>494</ele>
        <time>2015-09-02T13:13:53Z</time>
      </trkpt>
      <trkpt lat="48.2203" lon="6.91156">
        <ele>494</ele>
        <time>2015-09-02T13:13:57Z</time>
      </trkpt>
      <trkpt lat="48.22031" lon="6.91158">
        <ele>495</ele>
        <time>2015-09-02T13:14:03Z</time>
      </trkpt>
      <trkpt lat="48.22033" lon="6.91161">
        <ele>493</ele>
        <time>2015-09-02T13:14:11Z</time>
      </trkpt>
      <trkpt lat="48.22033" lon="6.91163">
        <ele>493</ele>
        <time>2015-09-02T13:14:14Z</time>
      </trkpt>
      <trkpt lat="48.2204" lon="6.9118">
        <ele>493</ele>
        <time>2015-09-02T13:14:24Z</time>
      </trkpt>
      <trkpt lat="48.22042" lon="6.91183">
        <ele>493</ele>
        <time>2015-09-02T13:14:26Z</time>
      </trkpt>
      <trkpt lat="48.22048" lon="6.91194">
        <ele>493</ele>
        <time>2015-09-02T13:14:35Z</time>
      </trkpt>
      <trkpt lat="48.2205" lon="6.91195">
        <ele>489</ele>
        <time>2015-09-02T13:14:39Z</time>
      </trkpt>
      <trkpt lat="48.22052" lon="6.91204">
        <ele>490</ele>
        <time>2015-09-02T13:14:44Z</time>
      </trkpt>
      <trkpt lat="48.22054" lon="6.91207">
        <ele>492</ele>
        <time>2015-09-02T13:14:50Z</time>
      </trkpt>
      <trkpt lat="48.22057" lon="6.91206">
        <ele>489</ele>
        <time>2015-09-02T13:14:57Z</time>
      </trkpt>
      <trkpt lat="48.22057" lon="6.91212">
        <ele>488</ele>
        <time>2015-09-02T13:15:02Z</time>
      </trkpt>
      <trkpt lat="48.22058" lon="6.91215">
        <ele>485</ele>
        <time>2015-09-02T13:15:08Z</time>
      </trkpt>
      <trkpt lat="48.22063" lon="6.91224">
        <ele>486</ele>
        <time>2015-09-02T13:15:17Z</time>
      </trkpt>
      <trkpt lat="48.22069" lon="6.91231">
        <ele>487</ele>
        <time>2015-09-02T13:15:25Z</time>
      </trkpt>
      <trkpt lat="48.2207" lon="6.91234">
        <ele>487</ele>
        <time>2015-09-02T13:15:27Z</time>
      </trkpt>
      <trkpt lat="48.22073" lon="6.91239">
        <ele>485</ele>
        <time>2015-09-02T13:15:32Z</time>
      </trkpt>
      <trkpt lat="48.22076" lon="6.91249">
        <ele>486</ele>
        <time>2015-09-02T13:15:39Z</time>
      </trkpt>
      <trkpt lat="48.22079" lon="6.91253">
        <ele>487</ele>
        <time>2015-09-02T13:15:44Z</time>
      </trkpt>
      <trkpt lat="48.22082" lon="6.9126">
        <ele>489</ele>
        <time>2015-09-02T13:15:50Z</time>
      </trkpt>
      <trkpt lat="48.22087" lon="6.91267">
        <ele>493</ele>
        <time>2015-09-02T13:15:56Z</time>
      </trkpt>
      <trkpt lat="48.2209" lon="6.91272">
        <ele>491</ele>
        <time>2015-09-02T13:16:02Z</time>
      </trkpt>
      <trkpt lat="48.22091" lon="6.91274">
        <ele>491</ele>
        <time>2015-09-02T13:16:08Z</time>
      </trkpt>
      <trkpt lat="48.22095" lon="6.9128">
        <ele>492</ele>
        <time>2015-09-02T13:16:18Z</time>
      </trkpt>
      <trkpt lat="48.22097" lon="6.91282">
        <ele>492</ele>
        <time>2015-09-02T13:16:21Z</time>
      </trkpt>
      <trkpt lat="48.22099" lon="6.91287">
        <ele>493</ele>
        <time>2015-09-02T13:16:26Z</time>
      </trkpt>
      <trkpt lat="48.22104" lon="6.91293">
        <ele>490</ele>
        <time>2015-09-02T13:16:32Z</time>
      </trkpt>
      <trkpt lat="48.22109" lon="6.91303">
        <ele>490</ele>
        <time>2015-09-02T13:16:39Z</time>
      </trkpt>
      <trkpt lat="48.22116" lon="6.91315">
        <ele>487</ele>
        <time>2015-09-02T13:16:45Z</time>
      </trkpt>
      <trkpt lat="48.22119" lon="6.9132">
        <ele>485</ele>
        <time>2015-09-02T13:16:50Z</time>
      </trkpt>
      <trkpt lat="48.22121" lon="6.91339">
        <ele>484</ele>
        <time>2015-09-02T13:17:00Z</time>
      </trkpt>
      <trkpt lat="48.22123" lon="6.91343">
        <ele>486</ele>
        <time>2015-09-02T13:17:02Z</time>
      </trkpt>
      <trkpt lat="48.22124" lon="6.91352">
        <ele>483</ele>
        <time>2015-09-02T13:17:08Z</time>
      </trkpt>
      <trkpt lat="48.22126" lon="6.91364">
        <ele>483</ele>
        <time>2015-09-02T13:17:14Z</time>
      </trkpt>
      <trkpt lat="48.22124" lon="6.91368">
        <ele>481</ele>
        <time>2015-09-02T13:17:20Z</time>
      </trkpt>
      <trkpt lat="48.22127" lon="6.91371">
        <ele>481</ele>
        <time>2015-09-02T13:17:26Z</time>
      </trkpt>
      <trkpt lat="48.22132" lon="6.91373">
        <ele>477</ele>
        <time>2015-09-02T13:17:32Z</time>
      </trkpt>
      <trkpt lat="48.22135" lon="6.91374">
        <ele>477</ele>
        <time>2015-09-02T13:17:42Z</time>
      </trkpt>
      <trkpt lat="48.22135" lon="6.91374">
        <ele>478</ele>
        <time>2015-09-02T13:17:44Z</time>
      </trkpt>
      <trkpt lat="48.22136" lon="6.91374">
        <ele>478</ele>
        <time>2015-09-02T13:17:50Z</time>
      </trkpt>
      <trkpt lat="48.22141" lon="6.91376">
        <ele>475</ele>
        <time>2015-09-02T13:17:56Z</time>
      </trkpt>
      <trkpt lat="48.22154" lon="6.91377">
        <ele>475</ele>
        <time>2015-09-02T13:18:05Z</time>
      </trkpt>
      <trkpt lat="48.22157" lon="6.91376">
        <ele>474</ele>
        <time>2015-09-02T13:18:08Z</time>
      </trkpt>
      <trkpt lat="48.2216" lon="6.91378">
        <ele>473</ele>
        <time>2015-09-02T13:18:14Z</time>
      </trkpt>
      <trkpt lat="48.22161" lon="6.91378">
        <ele>471</ele>
        <time>2015-09-02T13:18:21Z</time>
      </trkpt>
      <trkpt lat="48.22163" lon="6.91377">
        <ele>472</ele>
        <time>2015-09-02T13:18:26Z</time>
      </trkpt>
      <trkpt lat="48.22164" lon="6.91377">
        <ele>473</ele>
        <time>2015-09-02T13:18:32Z</time>
      </trkpt>
      <trkpt lat="48.22165" lon="6.91375">
        <ele>472</ele>
        <time>2015-09-02T13:18:38Z</time>
      </trkpt>
      <trkpt lat="48.22166" lon="6.91371">
        <ele>471</ele>
        <time>2015-09-02T13:18:44Z</time>
      </trkpt>
      <trkpt lat="48.22167" lon="6.91366">
        <ele>472</ele>
        <time>2015-09-02T13:18:50Z</time>
      </trkpt>
      <trkpt lat="48.22169" lon="6.91351">
        <ele>470</ele>
        <time>2015-09-02T13:18:58Z</time>
      </trkpt>
      <trkpt lat="48.22169" lon="6.91335">
        <ele>470</ele>
        <time>2015-09-02T13:19:07Z</time>
      </trkpt>
      <trkpt lat="48.22169" lon="6.91336">
        <ele>471</ele>
        <time>2015-09-02T13:19:08Z</time>
      </trkpt>
      <trkpt lat="48.22172" lon="6.91333">
        <ele>466</ele>
        <time>2015-09-02T13:19:14Z</time>
      </trkpt>
      <trkpt lat="48.22171" lon="6.91328">
        <ele>468</ele>
        <time>2015-09-02T13:19:20Z</time>
      </trkpt>
      <trkpt lat="48.22171" lon="6.91324">
        <ele>467</ele>
        <time>2015-09-02T13:19:26Z</time>
      </trkpt>
      <trkpt lat="48.2217" lon="6.91319">
        <ele>469</ele>
        <time>2015-09-02T13:19:32Z</time>
      </trkpt>
      <trkpt lat="48.22169" lon="6.91312">
        <ele>469</ele>
        <time>2015-09-02T13:19:38Z</time>
      </trkpt>
      <trkpt lat="48.22169" lon="6.9131">
        <ele>470</ele>
        <time>2015-09-02T13:19:44Z</time>
      </trkpt>
      <trkpt lat="48.22169" lon="6.91307">
        <ele>469</ele>
        <time>2015-09-02T13:19:50Z</time>
      </trkpt>
      <trkpt lat="48.22168" lon="6.91301">
        <ele>470</ele>
        <time>2015-09-02T13:20:01Z</time>
      </trkpt>
      <trkpt lat="48.22168" lon="6.91301">
        <ele>470</ele>
        <time>2015-09-02T13:20:02Z</time>
      </trkpt>
      <trkpt lat="48.22168" lon="6.91301">
        <ele>469</ele>
        <time>2015-09-02T13:20:08Z</time>
      </trkpt>
      <trkpt lat="48.22169" lon="6.91299">
        <ele>468</ele>
        <time>2015-09-02T13:20:16Z</time>
      </trkpt>
      <trkpt lat="48.22168" lon="6.91294">
        <ele>469</ele>
        <time>2015-09-02T13:20:20Z</time>
      </trkpt>
      <trkpt lat="48.22169" lon="6.91289">
        <ele>470</ele>
        <time>2015-09-02T13:20:26Z</time>
      </trkpt>
      <trkpt lat="48.22168" lon="6.91285">
        <ele>470</ele>
        <time>2015-09-02T13:20:32Z</time>
      </trkpt>
      <trkpt lat="48.22168" lon="6.91284">
        <ele>471</ele>
        <time>2015-09-02T13:20:38Z</time>
      </trkpt>
      <trkpt lat="48.22168" lon="6.91275">
        <ele>470</ele>
        <time>2015-09-02T13:20:44Z</time>
      </trkpt>
      <trkpt lat="48.22167" lon="6.91259">
        <ele>468</ele>
        <time>2015-09-02T13:20:52Z</time>
      </trkpt>
      <trkpt lat="48.2217" lon="6.91259">
        <ele>465</ele>
        <time>2015-09-02T13:20:56Z</time>
      </trkpt>
      <trkpt lat="48.22169" lon="6.91253">
        <ele>464</ele>
        <time>2015-09-02T13:21:02Z</time>
      </trkpt>
      <trkpt lat="48.22169" lon="6.91248">
        <ele>465</ele>
        <time>2015-09-02T13:21:08Z</time>
      </trkpt>
      <trkpt lat="48.22169" lon="6.91246">
        <ele>466</ele>
        <time>2015-09-02T13:21:14Z</time>
      </trkpt>
      <trkpt lat="48.22169" lon="6.91245">
        <ele>467</ele>
        <time>2015-09-02T13:21:20Z</time>
      </trkpt>
      <trkpt lat="48.22169" lon="6.91245">
        <ele>467</ele>
        <time>2015-09-02T13:21:26Z</time>
      </trkpt>
      <trkpt lat="48.22169" lon="6.91245">
        <ele>467</ele>
        <time>2015-09-02T13:21:32Z</time>
      </trkpt>
      <trkpt lat="48.22169" lon="6.91245">
        <ele>467</ele>
        <time>2015-09-02T13:21:38Z</time>
      </trkpt>
      <trkpt lat="48.2217" lon="6.91243">
        <ele>465</ele>
        <time>2015-09-02T13:21:44Z</time>
      </trkpt>
      <trkpt lat="48.22172" lon="6.91229">
        <ele>464</ele>
        <time>2015-09-02T13:21:54Z</time>
      </trkpt>
      <trkpt lat="48.22173" lon="6.91229">
        <ele>462</ele>
        <time>2015-09-02T13:21:56Z</time>
      </trkpt>
      <trkpt lat="48.22175" lon="6.91227">
        <ele>460</ele>
        <time>2015-09-02T13:22:02Z</time>
      </trkpt>
      <trkpt lat="48.22177" lon="6.91218">
        <ele>458</ele>
        <time>2015-09-02T13:22:13Z</time>
      </trkpt>
      <trkpt lat="48.22178" lon="6.91217">
        <ele>458</ele>
        <time>2015-09-02T13:22:16Z</time>
      </trkpt>
      <trkpt lat="48.22179" lon="6.91214">
        <ele>457</ele>
        <time>2015-09-02T13:22:20Z</time>
      </trkpt>
      <trkpt lat="48.22179" lon="6.91213">
        <ele>458</ele>
        <time>2015-09-02T13:22:27Z</time>
      </trkpt>
      <trkpt lat="48.22179" lon="6.91213">
        <ele>458</ele>
        <time>2015-09-02T13:22:32Z</time>
      </trkpt>
      <trkpt lat="48.22179" lon="6.91213">
        <ele>458</ele>
        <time>2015-09-02T13:22:39Z</time>
      </trkpt>
      <trkpt lat="48.22179" lon="6.91212">
        <ele>458</ele>
        <time>2015-09-02T13:22:48Z</time>
      </trkpt>
      <trkpt lat="48.22181" lon="6.91202">
        <ele>460</ele>
        <time>2015-09-02T13:22:55Z</time>
      </trkpt>
      <trkpt lat="48.22181" lon="6.91201">
        <ele>460</ele>
        <time>2015-09-02T13:22:56Z</time>
      </trkpt>
      <trkpt lat="48.2218" lon="6.91192">
        <ele>451</ele>
        <time>2015-09-02T13:23:02Z</time>
      </trkpt>
      <trkpt lat="48.22179" lon="6.91188">
        <ele>446</ele>
        <time>2015-09-02T13:23:08Z</time>
      </trkpt>
      <trkpt lat="48.2218" lon="6.91184">
        <ele>445</ele>
        <time>2015-09-02T13:23:15Z</time>
      </trkpt>
      <trkpt lat="48.2218" lon="6.91181">
        <ele>447</ele>
        <time>2015-09-02T13:23:20Z</time>
      </trkpt>
      <trkpt lat="48.22178" lon="6.91171">
        <ele>442</ele>
        <time>2015-09-02T13:23:26Z</time>
      </trkpt>
      <trkpt lat="48.22181" lon="6.91166">
        <ele>432</ele>
        <time>2015-09-02T13:23:32Z</time>
      </trkpt>
      <trkpt lat="48.22184" lon="6.91157">
        <ele>428</ele>
        <time>2015-09-02T13:23:38Z</time>
      </trkpt>
      <trkpt lat="48.22186" lon="6.91138">
        <ele>429</ele>
        <time>2015-09-02T13:23:46Z</time>
      </trkpt>
      <trkpt lat="48.22189" lon="6.91134">
        <ele>429</ele>
        <time>2015-09-02T13:23:50Z</time>
      </trkpt>
      <trkpt lat="48.22192" lon="6.91123">
        <ele>431</ele>
        <time>2015-09-02T13:23:56Z</time>
      </trkpt>
      <trkpt lat="48.22195" lon="6.91118">
        <ele>429</ele>
        <time>2015-09-02T13:24:02Z</time>
      </trkpt>
      <trkpt lat="48.22196" lon="6.91113">
        <ele>436</ele>
        <time>2015-09-02T13:24:10Z</time>
      </trkpt>
      <trkpt lat="48.22201" lon="6.91116">
        <ele>433</ele>
        <time>2015-09-02T13:24:17Z</time>
      </trkpt>
      <trkpt lat="48.22203" lon="6.91115">
        <ele>433</ele>
        <time>2015-09-02T13:24:22Z</time>
      </trkpt>
      <trkpt lat="48.22204" lon="6.91114">
        <ele>433</ele>
        <time>2015-09-02T13:24:26Z</time>
      </trkpt>
      <trkpt lat="48.22204" lon="6.91114">
        <ele>434</ele>
        <time>2015-09-02T13:24:32Z</time>
      </trkpt>
      <trkpt lat="48.22204" lon="6.91114">
        <ele>434</ele>
        <time>2015-09-02T13:24:38Z</time>
      </trkpt>
      <trkpt lat="48.22203" lon="6.91113">
        <ele>434</ele>
        <time>2015-09-02T13:24:44Z</time>
      </trkpt>
      <trkpt lat="48.22204" lon="6.91113">
        <ele>434</ele>
        <time>2015-09-02T13:24:50Z</time>
      </trkpt>
      <trkpt lat="48.22212" lon="6.91105">
        <ele>425</ele>
        <time>2015-09-02T13:24:56Z</time>
      </trkpt>
      <trkpt lat="48.22222" lon="6.91098">
        <ele>419</ele>
        <time>2015-09-02T13:25:02Z</time>
      </trkpt>
      <trkpt lat="48.22235" lon="6.91092">
        <ele>419</ele>
        <time>2015-09-02T13:25:09Z</time>
      </trkpt>
      <trkpt lat="48.22249" lon="6.91083">
        <ele>425</ele>
        <time>2015-09-02T13:25:17Z</time>
      </trkpt>
      <trkpt lat="48.22253" lon="6.9108">
        <ele>429</ele>
        <time>2015-09-02T13:25:21Z</time>
      </trkpt>
      <trkpt lat="48.22257" lon="6.91076">
        <ele>431</ele>
        <time>2015-09-02T13:25:26Z</time>
      </trkpt>
      <trkpt lat="48.2226" lon="6.91073">
        <ele>433</ele>
        <time>2015-09-02T13:25:32Z</time>
      </trkpt>
      <trkpt lat="48.22264" lon="6.9107">
        <ele>429</ele>
        <time>2015-09-02T13:25:38Z</time>
      </trkpt>
      <trkpt lat="48.22267" lon="6.91069">
        <ele>428</ele>
        <time>2015-09-02T13:25:44Z</time>
      </trkpt>
      <trkpt lat="48.22269" lon="6.91069">
        <ele>429</ele>
        <time>2015-09-02T13:25:50Z</time>
      </trkpt>
      <trkpt lat="48.22269" lon="6.91069">
        <ele>429</ele>
        <time>2015-09-02T13:25:56Z</time>
      </trkpt>
      <trkpt lat="48.2227" lon="6.91068">
        <ele>429</ele>
        <time>2015-09-02T13:26:02Z</time>
      </trkpt>
      <trkpt lat="48.22279" lon="6.91066">
        <ele>428</ele>
        <time>2015-09-02T13:26:08Z</time>
      </trkpt>
      <trkpt lat="48.22286" lon="6.91067">
        <ele>427</ele>
        <time>2015-09-02T13:26:17Z</time>
      </trkpt>
      <trkpt lat="48.22289" lon="6.91064">
        <ele>425</ele>
        <time>2015-09-02T13:26:22Z</time>
      </trkpt>
      <trkpt lat="48.22297" lon="6.91066">
        <ele>424</ele>
        <time>2015-09-02T13:26:26Z</time>
      </trkpt>
      <trkpt lat="48.22306" lon="6.91066">
        <ele>421</ele>
        <time>2015-09-02T13:26:33Z</time>
      </trkpt>
      <trkpt lat="48.22312" lon="6.91062">
        <ele>423</ele>
        <time>2015-09-02T13:26:40Z</time>
      </trkpt>
      <trkpt lat="48.22314" lon="6.91062">
        <ele>424</ele>
        <time>2015-09-02T13:26:44Z</time>
      </trkpt>
      <trkpt lat="48.22317" lon="6.91061">
        <ele>425</ele>
        <time>2015-09-02T13:26:50Z</time>
      </trkpt>
      <trkpt lat="48.22327" lon="6.91062">
        <ele>421</ele>
        <time>2015-09-02T13:26:56Z</time>
      </trkpt>
      <trkpt lat="48.22334" lon="6.91061">
        <ele>422</ele>
        <time>2015-09-02T13:27:03Z</time>
      </trkpt>
      <trkpt lat="48.22337" lon="6.9106">
        <ele>424</ele>
        <time>2015-09-02T13:27:08Z</time>
      </trkpt>
      <trkpt lat="48.22339" lon="6.9106">
        <ele>425</ele>
        <time>2015-09-02T13:27:14Z</time>
      </trkpt>
      <trkpt lat="48.22345" lon="6.91063">
        <ele>421</ele>
        <time>2015-09-02T13:27:20Z</time>
      </trkpt>
      <trkpt lat="48.22357" lon="6.91062">
        <ele>418</ele>
        <time>2015-09-02T13:27:28Z</time>
      </trkpt>
      <trkpt lat="48.2236" lon="6.91057">
        <ele>420</ele>
        <time>2015-09-02T13:27:32Z</time>
      </trkpt>
      <trkpt lat="48.22363" lon="6.91055">
        <ele>420</ele>
        <time>2015-09-02T13:27:39Z</time>
      </trkpt>
      <trkpt lat="48.22373" lon="6.91053">
        <ele>423</ele>
        <time>2015-09-02T13:27:49Z</time>
      </trkpt>
      <trkpt lat="48.22373" lon="6.91054">
        <ele>422</ele>
        <time>2015-09-02T13:27:50Z</time>
      </trkpt>
      <trkpt lat="48.22378" lon="6.91051">
        <ele>424</ele>
        <time>2015-09-02T13:27:56Z</time>
      </trkpt>
      <trkpt lat="48.2239" lon="6.91053">
        <ele>422</ele>
        <time>2015-09-02T13:28:03Z</time>
      </trkpt>
      <trkpt lat="48.22404" lon="6.91057">
        <ele>420</ele>
        <time>2015-09-02T13:28:11Z</time>
      </trkpt>
      <trkpt lat="48.2241" lon="6.91056">
        <ele>420</ele>
        <time>2015-09-02T13:28:15Z</time>
      </trkpt>
      <trkpt lat="48.22411" lon="6.91056">
        <ele>419</ele>
        <time>2015-09-02T13:28:20Z</time>
      </trkpt>
      <trkpt lat="48.22415" lon="6.91062">
        <ele>414</ele>
        <time>2015-09-02T13:28:26Z</time>
      </trkpt>
      <trkpt lat="48.22426" lon="6.91063">
        <ele>412</ele>
        <time>2015-09-02T13:28:32Z</time>
      </trkpt>
      <trkpt lat="48.22444" lon="6.91059">
        <ele>410</ele>
        <time>2015-09-02T13:28:42Z</time>
      </trkpt>
      <trkpt lat="48.22446" lon="6.91053">
        <ele>413</ele>
        <time>2015-09-02T13:28:44Z</time>
      </trkpt>
      <trkpt lat="48.22452" lon="6.91043">
        <ele>418</ele>
        <time>2015-09-02T13:28:53Z</time>
      </trkpt>
      <trkpt lat="48.22453" lon="6.91039">
        <ele>418</ele>
        <time>2015-09-02T13:28:56Z</time>
      </trkpt>
      <trkpt lat="48.22455" lon="6.91032">
        <ele>417</ele>
        <time>2015-09-02T13:29:02Z</time>
      </trkpt>
      <trkpt lat="48.22459" lon="6.91028">
        <ele>415</ele>
        <time>2015-09-02T13:29:08Z</time>
      </trkpt>
      <trkpt lat="48.22464" lon="6.91026">
        <ele>416</ele>
        <time>2015-09-02T13:29:14Z</time>
      </trkpt>
      <trkpt lat="48.22469" lon="6.91025">
        <ele>416</ele>
        <time>2015-09-02T13:29:24Z</time>
      </trkpt>
      <trkpt lat="48.2247" lon="6.91025">
        <ele>415</ele>
        <time>2015-09-02T13:29:29Z</time>
      </trkpt>
      <trkpt lat="48.22472" lon="6.91025">
        <ele>416</ele>
        <time>2015-09-02T13:29:32Z</time>
      </trkpt>
      <trkpt lat="48.22486" lon="6.91024">
        <ele>417</ele>
        <time>2015-09-02T13:29:40Z</time>
      </trkpt>
      <trkpt lat="48.22491" lon="6.91024">
        <ele>416</ele>
        <time>2015-09-02T13:29:44Z</time>
      </trkpt>
      <trkpt lat="48.225" lon="6.91026">
        <ele>413</ele>
        <time>2015-09-02T13:29:51Z</time>
      </trkpt>
      <trkpt lat="48.22505" lon="6.91025">
        <ele>411</ele>
        <time>2015-09-02T13:29:56Z</time>
      </trkpt>
      <trkpt lat="48.22511" lon="6.91021">
        <ele>412</ele>
        <time>2015-09-02T13:30:02Z</time>
      </trkpt>
      <trkpt lat="48.22521" lon="6.91016">
        <ele>413</ele>
        <time>2015-09-02T13:30:13Z</time>
      </trkpt>
      <trkpt lat="48.22523" lon="6.91015">
        <ele>413</ele>
        <time>2015-09-02T13:30:14Z</time>
      </trkpt>
      <trkpt lat="48.22527" lon="6.91014">
        <ele>412</ele>
        <time>2015-09-02T13:30:20Z</time>
      </trkpt>
      <trkpt lat="48.22533" lon="6.91012">
        <ele>409</ele>
        <time>2015-09-02T13:30:26Z</time>
      </trkpt>
      <trkpt lat="48.22544" lon="6.9101">
        <ele>411</ele>
        <time>2015-09-02T13:30:34Z</time>
      </trkpt>
      <trkpt lat="48.22546" lon="6.91007">
        <ele>411</ele>
        <time>2015-09-02T13:30:38Z</time>
      </trkpt>
      <trkpt lat="48.2255" lon="6.91">
        <ele>415</ele>
        <time>2015-09-02T13:30:44Z</time>
      </trkpt>
      <trkpt lat="48.22554" lon="6.90998">
        <ele>415</ele>
        <time>2015-09-02T13:30:52Z</time>
      </trkpt>
      <trkpt lat="48.22556" lon="6.90998">
        <ele>416</ele>
        <time>2015-09-02T13:30:56Z</time>
      </trkpt>
      <trkpt lat="48.22561" lon="6.90992">
        <ele>411</ele>
        <time>2015-09-02T13:31:02Z</time>
      </trkpt>
      <trkpt lat="48.22567" lon="6.90985">
        <ele>408</ele>
        <time>2015-09-02T13:31:10Z</time>
      </trkpt>
      <trkpt lat="48.22572" lon="6.90983">
        <ele>405</ele>
        <time>2015-09-02T13:31:14Z</time>
      </trkpt>
      <trkpt lat="48.22577" lon="6.90978">
        <ele>405</ele>
        <time>2015-09-02T13:31:21Z</time>
      </trkpt>
      <trkpt lat="48.22584" lon="6.90968">
        <ele>409</ele>
        <time>2015-09-02T13:31:30Z</time>
      </trkpt>
      <trkpt lat="48.22587" lon="6.90967">
        <ele>408</ele>
        <time>2015-09-02T13:31:32Z</time>
      </trkpt>
      <trkpt lat="48.22593" lon="6.90961">
        <ele>411</ele>
        <time>2015-09-02T13:31:40Z</time>
      </trkpt>
      <trkpt lat="48.22596" lon="6.90961">
        <ele>411</ele>
        <time>2015-09-02T13:31:44Z</time>
      </trkpt>
      <trkpt lat="48.22603" lon="6.90956">
        <ele>413</ele>
        <time>2015-09-02T13:31:52Z</time>
      </trkpt>
      <trkpt lat="48.22608" lon="6.90951">
        <ele>412</ele>
        <time>2015-09-02T13:31:56Z</time>
      </trkpt>
      <trkpt lat="48.22614" lon="6.90944">
        <ele>411</ele>
        <time>2015-09-02T13:32:02Z</time>
      </trkpt>
      <trkpt lat="48.22619" lon="6.90938">
        <ele>412</ele>
        <time>2015-09-02T13:32:09Z</time>
      </trkpt>
      <trkpt lat="48.22621" lon="6.90935">
        <ele>414</ele>
        <time>2015-09-02T13:32:14Z</time>
      </trkpt>
      <trkpt lat="48.22627" lon="6.90927">
        <ele>416</ele>
        <time>2015-09-02T13:32:24Z</time>
      </trkpt>
      <trkpt lat="48.22628" lon="6.90926">
        <ele>418</ele>
        <time>2015-09-02T13:32:27Z</time>
      </trkpt>
      <trkpt lat="48.22629" lon="6.90925">
        <ele>419</ele>
        <time>2015-09-02T13:32:33Z</time>
      </trkpt>
      <trkpt lat="48.22634" lon="6.90922">
        <ele>417</ele>
        <time>2015-09-02T13:32:38Z</time>
      </trkpt>
      <trkpt lat="48.22647" lon="6.90912">
        <ele>415</ele>
        <time>2015-09-02T13:32:49Z</time>
      </trkpt>
      <trkpt lat="48.2265" lon="6.90911">
        <ele>415</ele>
        <time>2015-09-02T13:32:50Z</time>
      </trkpt>
      <trkpt lat="48.22654" lon="6.90905">
        <ele>417</ele>
        <time>2015-09-02T13:32:56Z</time>
      </trkpt>
      <trkpt lat="48.22662" lon="6.90895">
        <ele>416</ele>
        <time>2015-09-02T13:33:07Z</time>
      </trkpt>
      <trkpt lat="48.22663" lon="6.90892">
        <ele>417</ele>
        <time>2015-09-02T13:33:11Z</time>
      </trkpt>
      <trkpt lat="48.22664" lon="6.90891">
        <ele>417</ele>
        <time>2015-09-02T13:33:14Z</time>
      </trkpt>
      <trkpt lat="48.22664" lon="6.90889">
        <ele>419</ele>
        <time>2015-09-02T13:33:20Z</time>
      </trkpt>
      <trkpt lat="48.22665" lon="6.90889">
        <ele>419</ele>
        <time>2015-09-02T13:33:27Z</time>
      </trkpt>
      <trkpt lat="48.22666" lon="6.90887">
        <ele>419</ele>
        <time>2015-09-02T13:33:32Z</time>
      </trkpt>
      <trkpt lat="48.22673" lon="6.90881">
        <ele>413</ele>
        <time>2015-09-02T13:33:38Z</time>
      </trkpt>
      <trkpt lat="48.22682" lon="6.90874">
        <ele>410</ele>
        <time>2015-09-02T13:33:44Z</time>
      </trkpt>
      <trkpt lat="48.2269" lon="6.9087">
        <ele>410</ele>
        <time>2015-09-02T13:33:50Z</time>
      </trkpt>
      <trkpt lat="48.22694" lon="6.90866">
        <ele>410</ele>
        <time>2015-09-02T13:33:56Z</time>
      </trkpt>
      <trkpt lat="48.22702" lon="6.90859">
        <ele>413</ele>
        <time>2015-09-02T13:34:07Z</time>
      </trkpt>
      <trkpt lat="48.22702" lon="6.90859">
        <ele>414</ele>
        <time>2015-09-02T13:34:08Z</time>
      </trkpt>
      <trkpt lat="48.22705" lon="6.90858">
        <ele>415</ele>
        <time>2015-09-02T13:34:14Z</time>
      </trkpt>
      <trkpt lat="48.2271" lon="6.90856">
        <ele>413</ele>
        <time>2015-09-02T13:34:20Z</time>
      </trkpt>
      <trkpt lat="48.22714" lon="6.90851">
        <ele>409</ele>
        <time>2015-09-02T13:34:26Z</time>
      </trkpt>
      <trkpt lat="48.22724" lon="6.90848">
        <ele>408</ele>
        <time>2015-09-02T13:34:32Z</time>
      </trkpt>
      <trkpt lat="48.22736" lon="6.90844">
        <ele>408</ele>
        <time>2015-09-02T13:34:39Z</time>
      </trkpt>
      <trkpt lat="48.22742" lon="6.90842">
        <ele>407</ele>
        <time>2015-09-02T13:34:44Z</time>
      </trkpt>
      <trkpt lat="48.22748" lon="6.90838">
        <ele>405</ele>
        <time>2015-09-02T13:34:50Z</time>
      </trkpt>
      <trkpt lat="48.22751" lon="6.90836">
        <ele>405</ele>
        <time>2015-09-02T13:34:58Z</time>
      </trkpt>
      <trkpt lat="48.22752" lon="6.90835">
        <ele>406</ele>
        <time>2015-09-02T13:35:02Z</time>
      </trkpt>
      <trkpt lat="48.22752" lon="6.90835">
        <ele>406</ele>
        <time>2015-09-02T13:35:08Z</time>
      </trkpt>
      <trkpt lat="48.22763" lon="6.90834">
        <ele>404</ele>
        <time>2015-09-02T13:35:14Z</time>
      </trkpt>
      <trkpt lat="48.22777" lon="6.90834">
        <ele>402</ele>
        <time>2015-09-02T13:35:24Z</time>
      </trkpt>
      <trkpt lat="48.22778" lon="6.90832">
        <ele>401</ele>
        <time>2015-09-02T13:35:26Z</time>
      </trkpt>
      <trkpt lat="48.22792" lon="6.90826">
        <ele>404</ele>
        <time>2015-09-02T13:35:36Z</time>
      </trkpt>
      <trkpt lat="48.22796" lon="6.90824">
        <ele>404</ele>
        <time>2015-09-02T13:35:38Z</time>
      </trkpt>
      <trkpt lat="48.22804" lon="6.9082">
        <ele>403</ele>
        <time>2015-09-02T13:35:44Z</time>
      </trkpt>
      <trkpt lat="48.22818" lon="6.90818">
        <ele>406</ele>
        <time>2015-09-02T13:35:55Z</time>
      </trkpt>
      <trkpt lat="48.22818" lon="6.90818">
        <ele>405</ele>
        <time>2015-09-02T13:35:56Z</time>
      </trkpt>
      <trkpt lat="48.22823" lon="6.90816">
        <ele>406</ele>
        <time>2015-09-02T13:36:02Z</time>
      </trkpt>
      <trkpt lat="48.22829" lon="6.90816">
        <ele>409</ele>
        <time>2015-09-02T13:36:08Z</time>
      </trkpt>
      <trkpt lat="48.22838" lon="6.90811">
        <ele>411</ele>
        <time>2015-09-02T13:36:16Z</time>
      </trkpt>
      <trkpt lat="48.22846" lon="6.90814">
        <ele>411</ele>
        <time>2015-09-02T13:36:22Z</time>
      </trkpt>
      <trkpt lat="48.22854" lon="6.90813">
        <ele>413</ele>
        <time>2015-09-02T13:36:29Z</time>
      </trkpt>
      <trkpt lat="48.22856" lon="6.90813">
        <ele>413</ele>
        <time>2015-09-02T13:36:32Z</time>
      </trkpt>
      <trkpt lat="48.22859" lon="6.90813">
        <ele>415</ele>
        <time>2015-09-02T13:36:39Z</time>
      </trkpt>
      <trkpt lat="48.22859" lon="6.90813">
        <ele>415</ele>
        <time>2015-09-02T13:36:44Z</time>
      </trkpt>
      <trkpt lat="48.22873" lon="6.90817">
        <ele>414</ele>
        <time>2015-09-02T13:36:50Z</time>
      </trkpt>
      <trkpt lat="48.22877" lon="6.90817">
        <ele>411</ele>
        <time>2015-09-02T13:37:00Z</time>
      </trkpt>
      <trkpt lat="48.22879" lon="6.90819">
        <ele>411</ele>
        <time>2015-09-02T13:37:02Z</time>
      </trkpt>
      <trkpt lat="48.22886" lon="6.90824">
        <ele>407</ele>
        <time>2015-09-02T13:37:08Z</time>
      </trkpt>
      <trkpt lat="48.22891" lon="6.90827">
        <ele>406</ele>
        <time>2015-09-02T13:37:14Z</time>
      </trkpt>
      <trkpt lat="48.22894" lon="6.90829">
        <ele>407</ele>
        <time>2015-09-02T13:37:20Z</time>
      </trkpt>
      <trkpt lat="48.22895" lon="6.9083">
        <ele>408</ele>
        <time>2015-09-02T13:37:26Z</time>
      </trkpt>
      <trkpt lat="48.22894" lon="6.9083">
        <ele>408</ele>
        <time>2015-09-02T13:37:32Z</time>
      </trkpt>
      <trkpt lat="48.22903" lon="6.90852">
        <ele>404</ele>
        <time>2015-09-02T13:37:43Z</time>
      </trkpt>
      <trkpt lat="48.22903" lon="6.90854">
        <ele>403</ele>
        <time>2015-09-02T13:37:44Z</time>
      </trkpt>
      <trkpt lat="48.22903" lon="6.90861">
        <ele>405</ele>
        <time>2015-09-02T13:37:50Z</time>
      </trkpt>
      <trkpt lat="48.22907" lon="6.90868">
        <ele>404</ele>
        <time>2015-09-02T13:37:56Z</time>
      </trkpt>
      <trkpt lat="48.2291" lon="6.90874">
        <ele>402</ele>
        <time>2015-09-02T13:38:02Z</time>
      </trkpt>
      <trkpt lat="48.22915" lon="6.90879">
        <ele>402</ele>
        <time>2015-09-02T13:38:08Z</time>
      </trkpt>
      <trkpt lat="48.22918" lon="6.90884">
        <ele>401</ele>
        <time>2015-09-02T13:38:14Z</time>
      </trkpt>
      <trkpt lat="48.22919" lon="6.90891">
        <ele>402</ele>
        <time>2015-09-02T13:38:20Z</time>
      </trkpt>
      <trkpt lat="48.22921" lon="6.90897">
        <ele>403</ele>
        <time>2015-09-02T13:38:26Z</time>
      </trkpt>
      <trkpt lat="48.22924" lon="6.90909">
        <ele>402</ele>
        <time>2015-09-02T13:38:33Z</time>
      </trkpt>
      <trkpt lat="48.22929" lon="6.90918">
        <ele>405</ele>
        <time>2015-09-02T13:38:38Z</time>
      </trkpt>
      <trkpt lat="48.2293" lon="6.90929">
        <ele>408</ele>
        <time>2015-09-02T13:38:45Z</time>
      </trkpt>
      <trkpt lat="48.22933" lon="6.90932">
        <ele>408</ele>
        <time>2015-09-02T13:38:50Z</time>
      </trkpt>
      <trkpt lat="48.22932" lon="6.90941">
        <ele>408</ele>
        <time>2015-09-02T13:38:56Z</time>
      </trkpt>
      <trkpt lat="48.22938" lon="6.90949">
        <ele>409</ele>
        <time>2015-09-02T13:39:06Z</time>
      </trkpt>
      <trkpt lat="48.22937" lon="6.90947">
        <ele>405</ele>
        <time>2015-09-02T13:39:11Z</time>
      </trkpt>
      <trkpt lat="48.22939" lon="6.90946">
        <ele>405</ele>
        <time>2015-09-02T13:39:14Z</time>
      </trkpt>
      <trkpt lat="48.22939" lon="6.90946">
        <ele>404</ele>
        <time>2015-09-02T13:39:20Z</time>
      </trkpt>
      <trkpt lat="48.2294" lon="6.90945">
        <ele>404</ele>
        <time>2015-09-02T13:39:26Z</time>
      </trkpt>
      <trkpt lat="48.2294" lon="6.90945">
        <ele>404</ele>
        <time>2015-09-02T13:39:32Z</time>
      </trkpt>
      <trkpt lat="48.2294" lon="6.90945">
        <ele>404</ele>
        <time>2015-09-02T13:39:40Z</time>
      </trkpt>
      <trkpt lat="48.22943" lon="6.90955">
        <ele>400</ele>
        <time>2015-09-02T13:39:44Z</time>
      </trkpt>
      <trkpt lat="48.22941" lon="6.90972">
        <ele>398</ele>
        <time>2015-09-02T13:39:51Z</time>
      </trkpt>
      <trkpt lat="48.22945" lon="6.90986">
        <ele>395</ele>
        <time>2015-09-02T13:39:58Z</time>
      </trkpt>
      <trkpt lat="48.22942" lon="6.90991">
        <ele>389</ele>
        <time>2015-09-02T13:40:03Z</time>
      </trkpt>
      <trkpt lat="48.22946" lon="6.90998">
        <ele>387</ele>
        <time>2015-09-02T13:40:08Z</time>
      </trkpt>
      <trkpt lat="48.22949" lon="6.91011">
        <ele>385</ele>
        <time>2015-09-02T13:40:14Z</time>
      </trkpt>
      <trkpt lat="48.22953" lon="6.91023">
        <ele>387</ele>
        <time>2015-09-02T13:40:21Z</time>
      </trkpt>
      <trkpt lat="48.22957" lon="6.91035">
        <ele>387</ele>
        <time>2015-09-02T13:40:26Z</time>
      </trkpt>
      <trkpt lat="48.22962" lon="6.91051">
        <ele>386</ele>
        <time>2015-09-02T13:40:32Z</time>
      </trkpt>
      <trkpt lat="48.22966" lon="6.91065">
        <ele>388</ele>
        <time>2015-09-02T13:40:43Z</time>
      </trkpt>
      <trkpt lat="48.22968" lon="6.91067">
        <ele>389</ele>
        <time>2015-09-02T13:40:44Z</time>
      </trkpt>
      <trkpt lat="48.22966" lon="6.91072">
        <ele>393</ele>
        <time>2015-09-02T13:40:50Z</time>
      </trkpt>
      <trkpt lat="48.22966" lon="6.91077">
        <ele>392</ele>
        <time>2015-09-02T13:40:56Z</time>
      </trkpt>
      <trkpt lat="48.22964" lon="6.91082">
        <ele>393</ele>
        <time>2015-09-02T13:41:03Z</time>
      </trkpt>
      <trkpt lat="48.22963" lon="6.91084">
        <ele>394</ele>
        <time>2015-09-02T13:41:08Z</time>
      </trkpt>
      <trkpt lat="48.22963" lon="6.91086">
        <ele>395</ele>
        <time>2015-09-02T13:41:14Z</time>
      </trkpt>
      <trkpt lat="48.22959" lon="6.91092">
        <ele>399</ele>
        <time>2015-09-02T13:41:21Z</time>
      </trkpt>
      <trkpt lat="48.22959" lon="6.91106">
        <ele>399</ele>
        <time>2015-09-02T13:41:26Z</time>
      </trkpt>
      <trkpt lat="48.22953" lon="6.91128">
        <ele>408</ele>
        <time>2015-09-02T13:41:36Z</time>
      </trkpt>
      <trkpt lat="48.22952" lon="6.91133">
        <ele>408</ele>
        <time>2015-09-02T13:41:39Z</time>
      </trkpt>
      <trkpt lat="48.22953" lon="6.91138">
        <ele>404</ele>
        <time>2015-09-02T13:41:44Z</time>
      </trkpt>
      <trkpt lat="48.22948" lon="6.9115">
        <ele>402</ele>
        <time>2015-09-02T13:41:52Z</time>
      </trkpt>
      <trkpt lat="48.22947" lon="6.91154">
        <ele>405</ele>
        <time>2015-09-02T13:42:00Z</time>
      </trkpt>
      <trkpt lat="48.22946" lon="6.91155">
        <ele>407</ele>
        <time>2015-09-02T13:42:02Z</time>
      </trkpt>
      <trkpt lat="48.22945" lon="6.91158">
        <ele>409</ele>
        <time>2015-09-02T13:42:09Z</time>
      </trkpt>
      <trkpt lat="48.22945" lon="6.91159">
        <ele>410</ele>
        <time>2015-09-02T13:42:14Z</time>
      </trkpt>
      <trkpt lat="48.22946" lon="6.91178">
        <ele>401</ele>
        <time>2015-09-02T13:42:24Z</time>
      </trkpt>
      <trkpt lat="48.22939" lon="6.91193">
        <ele>402</ele>
        <time>2015-09-02T13:42:31Z</time>
      </trkpt>
      <trkpt lat="48.22933" lon="6.91203">
        <ele>403</ele>
        <time>2015-09-02T13:42:36Z</time>
      </trkpt>
      <trkpt lat="48.22928" lon="6.91209">
        <ele>403</ele>
        <time>2015-09-02T13:42:41Z</time>
      </trkpt>
      <trkpt lat="48.22926" lon="6.91219">
        <ele>403</ele>
        <time>2015-09-02T13:42:49Z</time>
      </trkpt>
      <trkpt lat="48.22926" lon="6.9122">
        <ele>402</ele>
        <time>2015-09-02T13:42:50Z</time>
      </trkpt>
      <trkpt lat="48.22927" lon="6.91222">
        <ele>403</ele>
        <time>2015-09-02T13:42:56Z</time>
      </trkpt>
      <trkpt lat="48.22925" lon="6.91222">
        <ele>404</ele>
        <time>2015-09-02T13:43:04Z</time>
      </trkpt>
      <trkpt lat="48.22925" lon="6.91222">
        <ele>404</ele>
        <time>2015-09-02T13:43:08Z</time>
      </trkpt>
      <trkpt lat="48.22925" lon="6.91222">
        <ele>404</ele>
        <time>2015-09-02T13:43:14Z</time>
      </trkpt>
      <trkpt lat="48.22925" lon="6.91222">
        <ele>404</ele>
        <time>2015-09-02T13:43:20Z</time>
      </trkpt>
      <trkpt lat="48.22922" lon="6.91225">
        <ele>401</ele>
        <time>2015-09-02T13:43:26Z</time>
      </trkpt>
      <trkpt lat="48.22917" lon="6.91248">
        <ele>401</ele>
        <time>2015-09-02T13:43:35Z</time>
      </trkpt>
      <trkpt lat="48.22917" lon="6.91251">
        <ele>403</ele>
        <time>2015-09-02T13:43:38Z</time>
      </trkpt>
      <trkpt lat="48.22916" lon="6.91253">
        <ele>405</ele>
        <time>2015-09-02T13:43:46Z</time>
      </trkpt>
      <trkpt lat="48.22915" lon="6.91261">
        <ele>403</ele>
        <time>2015-09-02T13:43:50Z</time>
      </trkpt>
      <trkpt lat="48.22913" lon="6.91268">
        <ele>404</ele>
        <time>2015-09-02T13:43:56Z</time>
      </trkpt>
      <trkpt lat="48.2291" lon="6.91277">
        <ele>405</ele>
        <time>2015-09-02T13:44:02Z</time>
      </trkpt>
      <trkpt lat="48.22907" lon="6.91285">
        <ele>402</ele>
        <time>2015-09-02T13:44:08Z</time>
      </trkpt>
      <trkpt lat="48.22906" lon="6.91299">
        <ele>407</ele>
        <time>2015-09-02T13:44:18Z</time>
      </trkpt>
      <trkpt lat="48.22904" lon="6.91313">
        <ele>406</ele>
        <time>2015-09-02T13:44:25Z</time>
      </trkpt>
      <trkpt lat="48.22901" lon="6.91317">
        <ele>405</ele>
        <time>2015-09-02T13:44:27Z</time>
      </trkpt>
      <trkpt lat="48.22902" lon="6.91326">
        <ele>406</ele>
        <time>2015-09-02T13:44:32Z</time>
      </trkpt>
      <trkpt lat="48.22902" lon="6.91338">
        <ele>407</ele>
        <time>2015-09-02T13:44:38Z</time>
      </trkpt>
      <trkpt lat="48.22902" lon="6.91355">
        <ele>408</ele>
        <time>2015-09-02T13:44:46Z</time>
      </trkpt>
      <trkpt lat="48.22901" lon="6.91358">
        <ele>407</ele>
        <time>2015-09-02T13:44:50Z</time>
      </trkpt>
      <trkpt lat="48.22899" lon="6.9137">
        <ele>406</ele>
        <time>2015-09-02T13:44:58Z</time>
      </trkpt>
      <trkpt lat="48.22896" lon="6.91378">
        <ele>409</ele>
        <time>2015-09-02T13:45:06Z</time>
      </trkpt>
      <trkpt lat="48.22897" lon="6.91378">
        <ele>410</ele>
        <time>2015-09-02T13:45:08Z</time>
      </trkpt>
      <trkpt lat="48.22897" lon="6.91377">
        <ele>410</ele>
        <time>2015-09-02T13:45:17Z</time>
      </trkpt>
      <trkpt lat="48.22897" lon="6.91377">
        <ele>410</ele>
        <time>2015-09-02T13:45:20Z</time>
      </trkpt>
      <trkpt lat="48.22897" lon="6.91377">
        <ele>410</ele>
        <time>2015-09-02T13:45:30Z</time>
      </trkpt>
      <trkpt lat="48.22897" lon="6.91377">
        <ele>410</ele>
        <time>2015-09-02T13:45:33Z</time>
      </trkpt>
      <trkpt lat="48.22897" lon="6.91376">
        <ele>410</ele>
        <time>2015-09-02T13:45:38Z</time>
      </trkpt>
      <trkpt lat="48.22897" lon="6.91377">
        <ele>410</ele>
        <time>2015-09-02T13:45:49Z</time>
      </trkpt>
      <trkpt lat="48.22897" lon="6.91377">
        <ele>410</ele>
        <time>2015-09-02T13:45:53Z</time>
      </trkpt>
      <trkpt lat="48.22897" lon="6.91377">
        <ele>410</ele>
        <time>2015-09-02T13:45:58Z</time>
      </trkpt>
      <trkpt lat="48.22897" lon="6.91377">
        <ele>410</ele>
        <time>2015-09-02T13:46:02Z</time>
      </trkpt>
      <trkpt lat="48.22897" lon="6.91377">
        <ele>410</ele>
        <time>2015-09-02T13:46:08Z</time>
      </trkpt>
      <trkpt lat="48.22896" lon="6.91386">
        <ele>412</ele>
        <time>2015-09-02T13:46:14Z</time>
      </trkpt>
      <trkpt lat="48.229" lon="6.91406">
        <ele>412</ele>
        <time>2015-09-02T13:46:24Z</time>
      </trkpt>
      <trkpt lat="48.22902" lon="6.91408">
        <ele>411</ele>
        <time>2015-09-02T13:46:26Z</time>
      </trkpt>
      <trkpt lat="48.22907" lon="6.91418">
        <ele>414</ele>
        <time>2015-09-02T13:46:32Z</time>
      </trkpt>
      <trkpt lat="48.22908" lon="6.91423">
        <ele>415</ele>
        <time>2015-09-02T13:46:39Z</time>
      </trkpt>
      <trkpt lat="48.22909" lon="6.91426">
        <ele>417</ele>
        <time>2015-09-02T13:46:46Z</time>
      </trkpt>
      <trkpt lat="48.22909" lon="6.91426">
        <ele>417</ele>
        <time>2015-09-02T13:46:50Z</time>
      </trkpt>
      <trkpt lat="48.22915" lon="6.91431">
        <ele>417</ele>
        <time>2015-09-02T13:46:56Z</time>
      </trkpt>
      <trkpt lat="48.22915" lon="6.91436">
        <ele>417</ele>
        <time>2015-09-02T13:47:02Z</time>
      </trkpt>
      <trkpt lat="48.22915" lon="6.91445">
        <ele>416</ele>
        <time>2015-09-02T13:47:08Z</time>
      </trkpt>
      <trkpt lat="48.22914" lon="6.91453">
        <ele>415</ele>
        <time>2015-09-02T13:47:18Z</time>
      </trkpt>
      <trkpt lat="48.22915" lon="6.91453">
        <ele>417</ele>
        <time>2015-09-02T13:47:20Z</time>
      </trkpt>
      <trkpt lat="48.22923" lon="6.91461">
        <ele>418</ele>
        <time>2015-09-02T13:47:26Z</time>
      </trkpt>
      <trkpt lat="48.22931" lon="6.91463">
        <ele>425</ele>
        <time>2015-09-02T13:47:37Z</time>
      </trkpt>
      <trkpt lat="48.22932" lon="6.91463">
        <ele>425</ele>
        <time>2015-09-02T13:47:38Z</time>
      </trkpt>
      <trkpt lat="48.22935" lon="6.91464">
        <ele>427</ele>
        <time>2015-09-02T13:47:44Z</time>
      </trkpt>
      <trkpt lat="48.22937" lon="6.91467">
        <ele>424</ele>
        <time>2015-09-02T13:47:50Z</time>
      </trkpt>
      <trkpt lat="48.22939" lon="6.91469">
        <ele>431</ele>
        <time>2015-09-02T13:47:56Z</time>
      </trkpt>
      <trkpt lat="48.2294" lon="6.91469">
        <ele>431</ele>
        <time>2015-09-02T13:48:02Z</time>
      </trkpt>
      <trkpt lat="48.2294" lon="6.91469">
        <ele>431</ele>
        <time>2015-09-02T13:48:09Z</time>
      </trkpt>
      <trkpt lat="48.2294" lon="6.91469">
        <ele>431</ele>
        <time>2015-09-02T13:48:16Z</time>
      </trkpt>
      <trkpt lat="48.2294" lon="6.91469">
        <ele>431</ele>
        <time>2015-09-02T13:48:21Z</time>
      </trkpt>
      <trkpt lat="48.2294" lon="6.91469">
        <ele>431</ele>
        <time>2015-09-02T13:48:26Z</time>
      </trkpt>
      <trkpt lat="48.2294" lon="6.91469">
        <ele>431</ele>
        <time>2015-09-02T13:48:33Z</time>
      </trkpt>
      <trkpt lat="48.22949" lon="6.91473">
        <ele>428</ele>
        <time>2015-09-02T13:48:38Z</time>
      </trkpt>
      <trkpt lat="48.22958" lon="6.91482">
        <ele>424</ele>
        <time>2015-09-02T13:48:44Z</time>
      </trkpt>
      <trkpt lat="48.22971" lon="6.91483">
        <ele>424</ele>
        <time>2015-09-02T13:48:50Z</time>
      </trkpt>
      <trkpt lat="48.22978" lon="6.91483">
        <ele>423</ele>
        <time>2015-09-02T13:48:57Z</time>
      </trkpt>
      <trkpt lat="48.22983" lon="6.91486">
        <ele>422</ele>
        <time>2015-09-02T13:49:02Z</time>
      </trkpt>
      <trkpt lat="48.22995" lon="6.91486">
        <ele>420</ele>
        <time>2015-09-02T13:49:09Z</time>
      </trkpt>
      <trkpt lat="48.23" lon="6.91491">
        <ele>425</ele>
        <time>2015-09-02T13:49:14Z</time>
      </trkpt>
      <trkpt lat="48.23005" lon="6.91508">
        <ele>425</ele>
        <time>2015-09-02T13:49:24Z</time>
      </trkpt>
      <trkpt lat="48.23002" lon="6.91518">
        <ele>426</ele>
        <time>2015-09-02T13:49:31Z</time>
      </trkpt>
      <trkpt lat="48.23002" lon="6.9152">
        <ele>426</ele>
        <time>2015-09-02T13:49:32Z</time>
      </trkpt>
      <trkpt lat="48.2301" lon="6.91535">
        <ele>430</ele>
        <time>2015-09-02T13:49:41Z</time>
      </trkpt>
      <trkpt lat="48.2301" lon="6.91537">
        <ele>435</ele>
        <time>2015-09-02T13:49:44Z</time>
      </trkpt>
      <trkpt lat="48.23019" lon="6.91535">
        <ele>435</ele>
        <time>2015-09-02T13:49:53Z</time>
      </trkpt>
      <trkpt lat="48.23017" lon="6.9154">
        <ele>435</ele>
        <time>2015-09-02T13:49:56Z</time>
      </trkpt>
      <trkpt lat="48.23019" lon="6.9155">
        <ele>435</ele>
        <time>2015-09-02T13:50:02Z</time>
      </trkpt>
      <trkpt lat="48.23024" lon="6.91551">
        <ele>436</ele>
        <time>2015-09-02T13:50:08Z</time>
      </trkpt>
      <trkpt lat="48.23032" lon="6.91557">
        <ele>436</ele>
        <time>2015-09-02T13:50:14Z</time>
      </trkpt>
      <trkpt lat="48.23034" lon="6.91557">
        <ele>435</ele>
        <time>2015-09-02T13:50:24Z</time>
      </trkpt>
      <trkpt lat="48.23038" lon="6.91557">
        <ele>433</ele>
        <time>2015-09-02T13:50:29Z</time>
      </trkpt>
      <trkpt lat="48.23041" lon="6.91561">
        <ele>433</ele>
        <time>2015-09-02T13:50:36Z</time>
      </trkpt>
      <trkpt lat="48.23041" lon="6.91566">
        <ele>436</ele>
        <time>2015-09-02T13:50:40Z</time>
      </trkpt>
      <trkpt lat="48.23043" lon="6.91572">
        <ele>440</ele>
        <time>2015-09-02T13:50:47Z</time>
      </trkpt>
      <trkpt lat="48.23044" lon="6.91573">
        <ele>442</ele>
        <time>2015-09-02T13:50:50Z</time>
      </trkpt>
      <trkpt lat="48.23044" lon="6.91574">
        <ele>444</ele>
        <time>2015-09-02T13:50:56Z</time>
      </trkpt>
      <trkpt lat="48.23049" lon="6.91574">
        <ele>443</ele>
        <time>2015-09-02T13:51:02Z</time>
      </trkpt>
      <trkpt lat="48.23052" lon="6.91578">
        <ele>442</ele>
        <time>2015-09-02T13:51:08Z</time>
      </trkpt>
      <trkpt lat="48.23054" lon="6.91581">
        <ele>441</ele>
        <time>2015-09-02T13:51:17Z</time>
      </trkpt>
      <trkpt lat="48.23054" lon="6.91583">
        <ele>443</ele>
        <time>2015-09-02T13:51:20Z</time>
      </trkpt>
      <trkpt lat="48.23062" lon="6.9159">
        <ele>439</ele>
        <time>2015-09-02T13:51:27Z</time>
      </trkpt>
      <trkpt lat="48.23069" lon="6.91594">
        <ele>442</ele>
        <time>2015-09-02T13:51:32Z</time>
      </trkpt>
      <trkpt lat="48.23076" lon="6.91599">
        <ele>445</ele>
        <time>2015-09-02T13:51:38Z</time>
      </trkpt>
      <trkpt lat="48.23077" lon="6.91605">
        <ele>452</ele>
        <time>2015-09-02T13:51:44Z</time>
      </trkpt>
      <trkpt lat="48.23078" lon="6.91605">
        <ele>451</ele>
        <time>2015-09-02T13:51:50Z</time>
      </trkpt>
      <trkpt lat="48.23078" lon="6.91606">
        <ele>451</ele>
        <time>2015-09-02T13:51:56Z</time>
      </trkpt>
      <trkpt lat="48.23083" lon="6.91614">
        <ele>447</ele>
        <time>2015-09-02T13:52:02Z</time>
      </trkpt>
      <trkpt lat="48.23096" lon="6.91618">
        <ele>451</ele>
        <time>2015-09-02T13:52:13Z</time>
      </trkpt>
      <trkpt lat="48.23095" lon="6.91618">
        <ele>451</ele>
        <time>2015-09-02T13:52:14Z</time>
      </trkpt>
      <trkpt lat="48.23096" lon="6.91622">
        <ele>450</ele>
        <time>2015-09-02T13:52:23Z</time>
      </trkpt>
      <trkpt lat="48.23097" lon="6.91622">
        <ele>451</ele>
        <time>2015-09-02T13:52:28Z</time>
      </trkpt>
      <trkpt lat="48.23098" lon="6.91622">
        <ele>452</ele>
        <time>2015-09-02T13:52:32Z</time>
      </trkpt>
      <trkpt lat="48.231" lon="6.91626">
        <ele>450</ele>
        <time>2015-09-02T13:52:40Z</time>
      </trkpt>
      <trkpt lat="48.23103" lon="6.91637">
        <ele>452</ele>
        <time>2015-09-02T13:52:44Z</time>
      </trkpt>
      <trkpt lat="48.23105" lon="6.91651">
        <ele>456</ele>
        <time>2015-09-02T13:52:50Z</time>
      </trkpt>
      <trkpt lat="48.23112" lon="6.91657">
        <ele>458</ele>
        <time>2015-09-02T13:53:00Z</time>
      </trkpt>
      <trkpt lat="48.23112" lon="6.9166">
        <ele>455</ele>
        <time>2015-09-02T13:53:02Z</time>
      </trkpt>
      <trkpt lat="48.23124" lon="6.91666">
        <ele>458</ele>
        <time>2015-09-02T13:53:13Z</time>
      </trkpt>
      <trkpt lat="48.23124" lon="6.91667">
        <ele>458</ele>
        <time>2015-09-02T13:53:15Z</time>
      </trkpt>
      <trkpt lat="48.23127" lon="6.91673">
        <ele>455</ele>
        <time>2015-09-02T13:53:23Z</time>
      </trkpt>
      <trkpt lat="48.2313" lon="6.91675">
        <ele>453</ele>
        <time>2015-09-02T13:53:27Z</time>
      </trkpt>
      <trkpt lat="48.23135" lon="6.91675">
        <ele>452</ele>
        <time>2015-09-02T13:53:32Z</time>
      </trkpt>
      <trkpt lat="48.23138" lon="6.91677">
        <ele>454</ele>
        <time>2015-09-02T13:53:38Z</time>
      </trkpt>
      <trkpt lat="48.23141" lon="6.91685">
        <ele>456</ele>
        <time>2015-09-02T13:53:44Z</time>
      </trkpt>
      <trkpt lat="48.23147" lon="6.91699">
        <ele>460</ele>
        <time>2015-09-02T13:53:55Z</time>
      </trkpt>
      <trkpt lat="48.23147" lon="6.917">
        <ele>460</ele>
        <time>2015-09-02T13:53:56Z</time>
      </trkpt>
      <trkpt lat="48.23152" lon="6.91705">
        <ele>463</ele>
        <time>2015-09-02T13:54:02Z</time>
      </trkpt>
      <trkpt lat="48.23155" lon="6.91707">
        <ele>465</ele>
        <time>2015-09-02T13:54:12Z</time>
      </trkpt>
      <trkpt lat="48.23154" lon="6.91709">
        <ele>466</ele>
        <time>2015-09-02T13:54:14Z</time>
      </trkpt>
      <trkpt lat="48.23157" lon="6.91711">
        <ele>467</ele>
        <time>2015-09-02T13:54:25Z</time>
      </trkpt>
      <trkpt lat="48.23156" lon="6.91715">
        <ele>467</ele>
        <time>2015-09-02T13:54:26Z</time>
      </trkpt>
      <trkpt lat="48.2316" lon="6.91726">
        <ele>467</ele>
        <time>2015-09-02T13:54:33Z</time>
      </trkpt>
      <trkpt lat="48.23164" lon="6.91729">
        <ele>464</ele>
        <time>2015-09-02T13:54:39Z</time>
      </trkpt>
      <trkpt lat="48.23164" lon="6.91735">
        <ele>462</ele>
        <time>2015-09-02T13:54:49Z</time>
      </trkpt>
      <trkpt lat="48.23164" lon="6.91734">
        <ele>461</ele>
        <time>2015-09-02T13:54:50Z</time>
      </trkpt>
      <trkpt lat="48.23165" lon="6.9174">
        <ele>462</ele>
        <time>2015-09-02T13:54:56Z</time>
      </trkpt>
      <trkpt lat="48.23172" lon="6.91746">
        <ele>461</ele>
        <time>2015-09-02T13:55:07Z</time>
      </trkpt>
      <trkpt lat="48.23172" lon="6.91746">
        <ele>461</ele>
        <time>2015-09-02T13:55:08Z</time>
      </trkpt>
      <trkpt lat="48.23176" lon="6.91751">
        <ele>467</ele>
        <time>2015-09-02T13:55:17Z</time>
      </trkpt>
      <trkpt lat="48.23177" lon="6.91754">
        <ele>467</ele>
        <time>2015-09-02T13:55:23Z</time>
      </trkpt>
      <trkpt lat="48.23177" lon="6.91755">
        <ele>468</ele>
        <time>2015-09-02T13:55:28Z</time>
      </trkpt>
      <trkpt lat="48.23183" lon="6.91759">
        <ele>466</ele>
        <time>2015-09-02T13:55:35Z</time>
      </trkpt>
      <trkpt lat="48.23186" lon="6.91759">
        <ele>466</ele>
        <time>2015-09-02T13:55:38Z</time>
      </trkpt>
      <trkpt lat="48.23191" lon="6.91761">
        <ele>462</ele>
        <time>2015-09-02T13:55:47Z</time>
      </trkpt>
      <trkpt lat="48.23192" lon="6.91766">
        <ele>461</ele>
        <time>2015-09-02T13:55:53Z</time>
      </trkpt>
      <trkpt lat="48.23194" lon="6.91767">
        <ele>460</ele>
        <time>2015-09-02T13:55:56Z</time>
      </trkpt>
      <trkpt lat="48.23194" lon="6.91765">
        <ele>457</ele>
        <time>2015-09-02T13:56:02Z</time>
      </trkpt>
      <trkpt lat="48.23198" lon="6.9177">
        <ele>458</ele>
        <time>2015-09-02T13:56:09Z</time>
      </trkpt>
      <trkpt lat="48.23199" lon="6.9177">
        <ele>454</ele>
        <time>2015-09-02T13:56:19Z</time>
      </trkpt>
      <trkpt lat="48.232" lon="6.91772">
        <ele>453</ele>
        <time>2015-09-02T13:56:20Z</time>
      </trkpt>
      <trkpt lat="48.23204" lon="6.91791">
        <ele>454</ele>
        <time>2015-09-02T13:56:31Z</time>
      </trkpt>
      <trkpt lat="48.23205" lon="6.91793">
        <ele>454</ele>
        <time>2015-09-02T13:56:32Z</time>
      </trkpt>
      <trkpt lat="48.23213" lon="6.918">
        <ele>450</ele>
        <time>2015-09-02T13:56:43Z</time>
      </trkpt>
      <trkpt lat="48.23218" lon="6.91805">
        <ele>453</ele>
        <time>2015-09-02T13:56:48Z</time>
      </trkpt>
      <trkpt lat="48.23218" lon="6.91806">
        <ele>454</ele>
        <time>2015-09-02T13:56:50Z</time>
      </trkpt>
      <trkpt lat="48.23222" lon="6.91814">
        <ele>456</ele>
        <time>2015-09-02T13:57:01Z</time>
      </trkpt>
      <trkpt lat="48.23223" lon="6.91814">
        <ele>456</ele>
        <time>2015-09-02T13:57:02Z</time>
      </trkpt>
      <trkpt lat="48.23224" lon="6.91817">
        <ele>455</ele>
        <time>2015-09-02T13:57:08Z</time>
      </trkpt>
      <trkpt lat="48.23226" lon="6.91822">
        <ele>458</ele>
        <time>2015-09-02T13:57:17Z</time>
      </trkpt>
      <trkpt lat="48.23228" lon="6.91822">
        <ele>459</ele>
        <time>2015-09-02T13:57:20Z</time>
      </trkpt>
      <trkpt lat="48.23231" lon="6.91828">
        <ele>463</ele>
        <time>2015-09-02T13:57:26Z</time>
      </trkpt>
      <trkpt lat="48.23233" lon="6.91834">
        <ele>467</ele>
        <time>2015-09-02T13:57:32Z</time>
      </trkpt>
      <trkpt lat="48.23238" lon="6.91841">
        <ele>470</ele>
        <time>2015-09-02T13:57:40Z</time>
      </trkpt>
      <trkpt lat="48.2324" lon="6.91845">
        <ele>475</ele>
        <time>2015-09-02T13:57:48Z</time>
      </trkpt>
      <trkpt lat="48.23239" lon="6.91846">
        <ele>474</ele>
        <time>2015-09-02T13:57:52Z</time>
      </trkpt>
      <trkpt lat="48.23244" lon="6.91849">
        <ele>476</ele>
        <time>2015-09-02T13:57:56Z</time>
      </trkpt>
      <trkpt lat="48.23249" lon="6.91861">
        <ele>478</ele>
        <time>2015-09-02T13:58:04Z</time>
      </trkpt>
      <trkpt lat="48.23245" lon="6.91866">
        <ele>474</ele>
        <time>2015-09-02T13:58:08Z</time>
      </trkpt>
      <trkpt lat="48.23247" lon="6.91875">
        <ele>475</ele>
        <time>2015-09-02T13:58:18Z</time>
      </trkpt>
      <trkpt lat="48.23244" lon="6.91881">
        <ele>473</ele>
        <time>2015-09-02T13:58:24Z</time>
      </trkpt>
      <trkpt lat="48.23244" lon="6.91881">
        <ele>473</ele>
        <time>2015-09-02T13:58:26Z</time>
      </trkpt>
      <trkpt lat="48.23243" lon="6.91882">
        <ele>472</ele>
        <time>2015-09-02T13:58:32Z</time>
      </trkpt>
      <trkpt lat="48.23244" lon="6.91882">
        <ele>474</ele>
        <time>2015-09-02T13:58:40Z</time>
      </trkpt>
      <trkpt lat="48.23244" lon="6.91882">
        <ele>474</ele>
        <time>2015-09-02T13:58:44Z</time>
      </trkpt>
      <trkpt lat="48.23244" lon="6.91882">
        <ele>474</ele>
        <time>2015-09-02T13:58:50Z</time>
      </trkpt>
      <trkpt lat="48.23244" lon="6.91882">
        <ele>474</ele>
        <time>2015-09-02T13:59:01Z</time>
      </trkpt>
      <trkpt lat="48.23244" lon="6.91882">
        <ele>474</ele>
        <time>2015-09-02T13:59:02Z</time>
      </trkpt>
      <trkpt lat="48.23246" lon="6.91892">
        <ele>473</ele>
        <time>2015-09-02T13:59:08Z</time>
      </trkpt>
      <trkpt lat="48.23248" lon="6.91909">
        <ele>469</ele>
        <time>2015-09-02T13:59:18Z</time>
      </trkpt>
      <trkpt lat="48.23247" lon="6.9191">
        <ele>470</ele>
        <time>2015-09-02T13:59:20Z</time>
      </trkpt>
      <trkpt lat="48.23248" lon="6.91911">
        <ele>470</ele>
        <time>2015-09-02T13:59:27Z</time>
      </trkpt>
      <trkpt lat="48.23248" lon="6.91912">
        <ele>470</ele>
        <time>2015-09-02T13:59:36Z</time>
      </trkpt>
      <trkpt lat="48.23248" lon="6.91912">
        <ele>470</ele>
        <time>2015-09-02T13:59:38Z</time>
      </trkpt>
      <trkpt lat="48.23249" lon="6.91915">
        <ele>469</ele>
        <time>2015-09-02T13:59:48Z</time>
      </trkpt>
      <trkpt lat="48.23251" lon="6.91923">
        <ele>465</ele>
        <time>2015-09-02T13:59:55Z</time>
      </trkpt>
      <trkpt lat="48.23251" lon="6.91926">
        <ele>465</ele>
        <time>2015-09-02T13:59:56Z</time>
      </trkpt>
      <trkpt lat="48.23254" lon="6.91934">
        <ele>465</ele>
        <time>2015-09-02T14:00:02Z</time>
      </trkpt>
      <trkpt lat="48.23251" lon="6.91938">
        <ele>463</ele>
        <time>2015-09-02T14:00:08Z</time>
      </trkpt>
      <trkpt lat="48.23253" lon="6.91943">
        <ele>468</ele>
        <time>2015-09-02T14:00:14Z</time>
      </trkpt>
      <trkpt lat="48.23253" lon="6.91944">
        <ele>442</ele>
        <time>2015-09-02T14:00:22Z</time>
      </trkpt>
      <trkpt lat="48.23253" lon="6.91945">
        <ele>462</ele>
        <time>2015-09-02T14:00:27Z</time>
      </trkpt>
      <trkpt lat="48.23252" lon="6.91955">
        <ele>466</ele>
        <time>2015-09-02T14:00:32Z</time>
      </trkpt>
      <trkpt lat="48.2325" lon="6.91962">
        <ele>471</ele>
        <time>2015-09-02T14:00:39Z</time>
      </trkpt>
      <trkpt lat="48.23248" lon="6.91967">
        <ele>473</ele>
        <time>2015-09-02T14:00:44Z</time>
      </trkpt>
      <trkpt lat="48.23247" lon="6.91969">
        <ele>473</ele>
        <time>2015-09-02T14:00:50Z</time>
      </trkpt>
      <trkpt lat="48.23246" lon="6.91976">
        <ele>477</ele>
        <time>2015-09-02T14:00:59Z</time>
      </trkpt>
      <trkpt lat="48.23246" lon="6.91981">
        <ele>478</ele>
        <time>2015-09-02T14:01:05Z</time>
      </trkpt>
      <trkpt lat="48.23245" lon="6.91983">
        <ele>478</ele>
        <time>2015-09-02T14:01:08Z</time>
      </trkpt>
      <trkpt lat="48.23239" lon="6.91988">
        <ele>474</ele>
        <time>2015-09-02T14:01:14Z</time>
      </trkpt>
      <trkpt lat="48.23237" lon="6.91991">
        <ele>473</ele>
        <time>2015-09-02T14:01:20Z</time>
      </trkpt>
      <trkpt lat="48.23235" lon="6.9199">
        <ele>477</ele>
        <time>2015-09-02T14:01:29Z</time>
      </trkpt>
      <trkpt lat="48.23235" lon="6.91992">
        <ele>477</ele>
        <time>2015-09-02T14:01:33Z</time>
      </trkpt>
      <trkpt lat="48.23231" lon="6.92001">
        <ele>477</ele>
        <time>2015-09-02T14:01:38Z</time>
      </trkpt>
      <trkpt lat="48.23229" lon="6.92007">
        <ele>478</ele>
        <time>2015-09-02T14:01:44Z</time>
      </trkpt>
      <trkpt lat="48.23226" lon="6.9201">
        <ele>477</ele>
        <time>2015-09-02T14:01:50Z</time>
      </trkpt>
      <trkpt lat="48.23227" lon="6.92008">
        <ele>449</ele>
        <time>2015-09-02T14:02:00Z</time>
      </trkpt>
      <trkpt lat="48.23229" lon="6.92007">
        <ele>462</ele>
        <time>2015-09-02T14:02:02Z</time>
      </trkpt>
      <trkpt lat="48.2323" lon="6.92003">
        <ele>471</ele>
        <time>2015-09-02T14:02:08Z</time>
      </trkpt>
      <trkpt lat="48.23231" lon="6.92002">
        <ele>474</ele>
        <time>2015-09-02T14:02:14Z</time>
      </trkpt>
      <trkpt lat="48.23231" lon="6.92001">
        <ele>474</ele>
        <time>2015-09-02T14:02:20Z</time>
      </trkpt>
      <trkpt lat="48.2323" lon="6.91994">
        <ele>474</ele>
        <time>2015-09-02T14:02:26Z</time>
      </trkpt>
      <trkpt lat="48.23222" lon="6.91984">
        <ele>477</ele>
        <time>2015-09-02T14:02:32Z</time>
      </trkpt>
      <trkpt lat="48.23216" lon="6.91972">
        <ele>475</ele>
        <time>2015-09-02T14:02:41Z</time>
      </trkpt>
      <trkpt lat="48.23213" lon="6.9197">
        <ele>477</ele>
        <time>2015-09-02T14:02:44Z</time>
      </trkpt>
      <trkpt lat="48.23211" lon="6.91969">
        <ele>479</ele>
        <time>2015-09-02T14:02:50Z</time>
      </trkpt>
      <trkpt lat="48.23207" lon="6.91967">
        <ele>476</ele>
        <time>2015-09-02T14:02:56Z</time>
      </trkpt>
      <trkpt lat="48.23202" lon="6.91965">
        <ele>475</ele>
        <time>2015-09-02T14:03:02Z</time>
      </trkpt>
      <trkpt lat="48.23198" lon="6.91956">
        <ele>477</ele>
        <time>2015-09-02T14:03:08Z</time>
      </trkpt>
      <trkpt lat="48.23194" lon="6.91952">
        <ele>475</ele>
        <time>2015-09-02T14:03:14Z</time>
      </trkpt>
      <trkpt lat="48.23189" lon="6.91947">
        <ele>478</ele>
        <time>2015-09-02T14:03:20Z</time>
      </trkpt>
      <trkpt lat="48.23187" lon="6.91942">
        <ele>476</ele>
        <time>2015-09-02T14:03:26Z</time>
      </trkpt>
      <trkpt lat="48.23184" lon="6.91935">
        <ele>477</ele>
        <time>2015-09-02T14:03:32Z</time>
      </trkpt>
      <trkpt lat="48.2318" lon="6.91929">
        <ele>479</ele>
        <time>2015-09-02T14:03:38Z</time>
      </trkpt>
      <trkpt lat="48.23175" lon="6.91922">
        <ele>481</ele>
        <time>2015-09-02T14:03:45Z</time>
      </trkpt>
      <trkpt lat="48.2317" lon="6.91913">
        <ele>486</ele>
        <time>2015-09-02T14:03:51Z</time>
      </trkpt>
      <trkpt lat="48.23165" lon="6.91907">
        <ele>488</ele>
        <time>2015-09-02T14:03:56Z</time>
      </trkpt>
      <trkpt lat="48.23159" lon="6.91901">
        <ele>488</ele>
        <time>2015-09-02T14:04:02Z</time>
      </trkpt>
      <trkpt lat="48.23153" lon="6.91893">
        <ele>490</ele>
        <time>2015-09-02T14:04:09Z</time>
      </trkpt>
      <trkpt lat="48.23148" lon="6.91888">
        <ele>491</ele>
        <time>2015-09-02T14:04:14Z</time>
      </trkpt>
      <trkpt lat="48.23143" lon="6.91886">
        <ele>490</ele>
        <time>2015-09-02T14:04:20Z</time>
      </trkpt>
      <trkpt lat="48.23131" lon="6.9188">
        <ele>494</ele>
        <time>2015-09-02T14:04:30Z</time>
      </trkpt>
      <trkpt lat="48.23131" lon="6.91878">
        <ele>494</ele>
        <time>2015-09-02T14:04:32Z</time>
      </trkpt>
      <trkpt lat="48.23125" lon="6.91874">
        <ele>494</ele>
        <time>2015-09-02T14:04:38Z</time>
      </trkpt>
      <trkpt lat="48.23119" lon="6.91871">
        <ele>494</ele>
        <time>2015-09-02T14:04:44Z</time>
      </trkpt>
      <trkpt lat="48.23115" lon="6.91865">
        <ele>492</ele>
        <time>2015-09-02T14:04:50Z</time>
      </trkpt>
      <trkpt lat="48.23113" lon="6.91862">
        <ele>489</ele>
        <time>2015-09-02T14:04:56Z</time>
      </trkpt>
      <trkpt lat="48.23106" lon="6.91858">
        <ele>488</ele>
        <time>2015-09-02T14:05:02Z</time>
      </trkpt>
      <trkpt lat="48.23102" lon="6.91855">
        <ele>487</ele>
        <time>2015-09-02T14:05:08Z</time>
      </trkpt>
      <trkpt lat="48.23097" lon="6.91848">
        <ele>484</ele>
        <time>2015-09-02T14:05:14Z</time>
      </trkpt>
      <trkpt lat="48.23094" lon="6.91843">
        <ele>485</ele>
        <time>2015-09-02T14:05:20Z</time>
      </trkpt>
      <trkpt lat="48.2309" lon="6.91832">
        <ele>487</ele>
        <time>2015-09-02T14:05:31Z</time>
      </trkpt>
      <trkpt lat="48.23089" lon="6.91827">
        <ele>488</ele>
        <time>2015-09-02T14:05:36Z</time>
      </trkpt>
      <trkpt lat="48.23087" lon="6.91825">
        <ele>488</ele>
        <time>2015-09-02T14:05:38Z</time>
      </trkpt>
      <trkpt lat="48.23081" lon="6.91815">
        <ele>490</ele>
        <time>2015-09-02T14:05:46Z</time>
      </trkpt>
      <trkpt lat="48.23077" lon="6.91811">
        <ele>491</ele>
        <time>2015-09-02T14:05:51Z</time>
      </trkpt>
      <trkpt lat="48.23073" lon="6.91806">
        <ele>493</ele>
        <time>2015-09-02T14:05:56Z</time>
      </trkpt>
      <trkpt lat="48.23068" lon="6.91799">
        <ele>494</ele>
        <time>2015-09-02T14:06:03Z</time>
      </trkpt>
      <trkpt lat="48.23064" lon="6.91795">
        <ele>494</ele>
        <time>2015-09-02T14:06:08Z</time>
      </trkpt>
      <trkpt lat="48.2306" lon="6.91791">
        <ele>493</ele>
        <time>2015-09-02T14:06:14Z</time>
      </trkpt>
      <trkpt lat="48.23055" lon="6.91785">
        <ele>493</ele>
        <time>2015-09-02T14:06:20Z</time>
      </trkpt>
      <trkpt lat="48.2305" lon="6.91782">
        <ele>492</ele>
        <time>2015-09-02T14:06:26Z</time>
      </trkpt>
      <trkpt lat="48.23046" lon="6.91777">
        <ele>492</ele>
        <time>2015-09-02T14:06:32Z</time>
      </trkpt>
      <trkpt lat="48.23041" lon="6.91771">
        <ele>494</ele>
        <time>2015-09-02T14:06:38Z</time>
      </trkpt>
      <trkpt lat="48.23036" lon="6.91769">
        <ele>493</ele>
        <time>2015-09-02T14:06:44Z</time>
      </trkpt>
      <trkpt lat="48.23031" lon="6.91766">
        <ele>494</ele>
        <time>2015-09-02T14:06:50Z</time>
      </trkpt>
      <trkpt lat="48.2302" lon="6.9176">
        <ele>494</ele>
        <time>2015-09-02T14:07:01Z</time>
      </trkpt>
      <trkpt lat="48.23019" lon="6.9176">
        <ele>493</ele>
        <time>2015-09-02T14:07:02Z</time>
      </trkpt>
      <trkpt lat="48.23012" lon="6.91754">
        <ele>495</ele>
        <time>2015-09-02T14:07:08Z</time>
      </trkpt>
      <trkpt lat="48.23004" lon="6.91749">
        <ele>495</ele>
        <time>2015-09-02T14:07:15Z</time>
      </trkpt>
      <trkpt lat="48.22997" lon="6.91746">
        <ele>495</ele>
        <time>2015-09-02T14:07:23Z</time>
      </trkpt>
      <trkpt lat="48.22995" lon="6.91744">
        <ele>495</ele>
        <time>2015-09-02T14:07:26Z</time>
      </trkpt>
      <trkpt lat="48.2299" lon="6.91742">
        <ele>495</ele>
        <time>2015-09-02T14:07:32Z</time>
      </trkpt>
      <trkpt lat="48.22985" lon="6.91743">
        <ele>494</ele>
        <time>2015-09-02T14:07:38Z</time>
      </trkpt>
      <trkpt lat="48.22981" lon="6.91742">
        <ele>494</ele>
        <time>2015-09-02T14:07:44Z</time>
      </trkpt>
      <trkpt lat="48.22975" lon="6.91747">
        <ele>494</ele>
        <time>2015-09-02T14:07:50Z</time>
      </trkpt>
      <trkpt lat="48.22967" lon="6.9175">
        <ele>496</ele>
        <time>2015-09-02T14:07:56Z</time>
      </trkpt>
      <trkpt lat="48.22962" lon="6.91755">
        <ele>496</ele>
        <time>2015-09-02T14:08:05Z</time>
      </trkpt>
      <trkpt lat="48.2296" lon="6.91756">
        <ele>496</ele>
        <time>2015-09-02T14:08:08Z</time>
      </trkpt>
      <trkpt lat="48.22954" lon="6.91764">
        <ele>497</ele>
        <time>2015-09-02T14:08:15Z</time>
      </trkpt>
      <trkpt lat="48.22954" lon="6.91766">
        <ele>497</ele>
        <time>2015-09-02T14:08:20Z</time>
      </trkpt>
      <trkpt lat="48.22953" lon="6.91767">
        <ele>497</ele>
        <time>2015-09-02T14:08:26Z</time>
      </trkpt>
      <trkpt lat="48.2295" lon="6.91774">
        <ele>496</ele>
        <time>2015-09-02T14:08:32Z</time>
      </trkpt>
      <trkpt lat="48.22947" lon="6.91786">
        <ele>494</ele>
        <time>2015-09-02T14:08:42Z</time>
      </trkpt>
      <trkpt lat="48.22945" lon="6.91792">
        <ele>494</ele>
        <time>2015-09-02T14:08:44Z</time>
      </trkpt>
      <trkpt lat="48.22942" lon="6.91801">
        <ele>494</ele>
        <time>2015-09-02T14:08:50Z</time>
      </trkpt>
      <trkpt lat="48.22941" lon="6.91807">
        <ele>493</ele>
        <time>2015-09-02T14:08:56Z</time>
      </trkpt>
      <trkpt lat="48.22935" lon="6.91818">
        <ele>492</ele>
        <time>2015-09-02T14:09:02Z</time>
      </trkpt>
      <trkpt lat="48.22931" lon="6.91829">
        <ele>493</ele>
        <time>2015-09-02T14:09:12Z</time>
      </trkpt>
      <trkpt lat="48.2293" lon="6.91831">
        <ele>491</ele>
        <time>2015-09-02T14:09:14Z</time>
      </trkpt>
      <trkpt lat="48.22928" lon="6.91837">
        <ele>491</ele>
        <time>2015-09-02T14:09:20Z</time>
      </trkpt>
      <trkpt lat="48.22921" lon="6.91853">
        <ele>491</ele>
        <time>2015-09-02T14:09:27Z</time>
      </trkpt>
      <trkpt lat="48.2292" lon="6.91855">
        <ele>489</ele>
        <time>2015-09-02T14:09:33Z</time>
      </trkpt>
      <trkpt lat="48.2291" lon="6.91864">
        <ele>488</ele>
        <time>2015-09-02T14:09:42Z</time>
      </trkpt>
      <trkpt lat="48.22909" lon="6.91865">
        <ele>488</ele>
        <time>2015-09-02T14:09:44Z</time>
      </trkpt>
      <trkpt lat="48.22904" lon="6.91864">
        <ele>488</ele>
        <time>2015-09-02T14:09:50Z</time>
      </trkpt>
      <trkpt lat="48.229" lon="6.91863">
        <ele>487</ele>
        <time>2015-09-02T14:09:56Z</time>
      </trkpt>
      <trkpt lat="48.22894" lon="6.91863">
        <ele>488</ele>
        <time>2015-09-02T14:10:02Z</time>
      </trkpt>
      <trkpt lat="48.22889" lon="6.9186">
        <ele>489</ele>
        <time>2015-09-02T14:10:08Z</time>
      </trkpt>
      <trkpt lat="48.22884" lon="6.91864">
        <ele>487</ele>
        <time>2015-09-02T14:10:14Z</time>
      </trkpt>
      <trkpt lat="48.22877" lon="6.91863">
        <ele>488</ele>
        <time>2015-09-02T14:10:20Z</time>
      </trkpt>
      <trkpt lat="48.22869" lon="6.91863">
        <ele>488</ele>
        <time>2015-09-02T14:10:27Z</time>
      </trkpt>
      <trkpt lat="48.22861" lon="6.91863">
        <ele>490</ele>
        <time>2015-09-02T14:10:37Z</time>
      </trkpt>
      <trkpt lat="48.22857" lon="6.91864">
        <ele>490</ele>
        <time>2015-09-02T14:10:40Z</time>
      </trkpt>
      <trkpt lat="48.22856" lon="6.91865">
        <ele>491</ele>
        <time>2015-09-02T14:10:44Z</time>
      </trkpt>
      <trkpt lat="48.22856" lon="6.91864">
        <ele>492</ele>
        <time>2015-09-02T14:10:50Z</time>
      </trkpt>
      <trkpt lat="48.22856" lon="6.91865">
        <ele>493</ele>
        <time>2015-09-02T14:10:56Z</time>
      </trkpt>
      <trkpt lat="48.22856" lon="6.91865">
        <ele>493</ele>
        <time>2015-09-02T14:11:02Z</time>
      </trkpt>
      <trkpt lat="48.22856" lon="6.91865">
        <ele>493</ele>
        <time>2015-09-02T14:11:09Z</time>
      </trkpt>
      <trkpt lat="48.22856" lon="6.91865">
        <ele>493</ele>
        <time>2015-09-02T14:11:19Z</time>
      </trkpt>
      <trkpt lat="48.22855" lon="6.91865">
        <ele>493</ele>
        <time>2015-09-02T14:11:23Z</time>
      </trkpt>
      <trkpt lat="48.22855" lon="6.91865">
        <ele>493</ele>
        <time>2015-09-02T14:11:29Z</time>
      </trkpt>
      <trkpt lat="48.22855" lon="6.91865">
        <ele>493</ele>
        <time>2015-09-02T14:11:32Z</time>
      </trkpt>
      <trkpt lat="48.22855" lon="6.91865">
        <ele>493</ele>
        <time>2015-09-02T14:11:38Z</time>
      </trkpt>
      <trkpt lat="48.22855" lon="6.91865">
        <ele>493</ele>
        <time>2015-09-02T14:11:44Z</time>
      </trkpt>
      <trkpt lat="48.22855" lon="6.91865">
        <ele>493</ele>
        <time>2015-09-02T14:11:50Z</time>
      </trkpt>
      <trkpt lat="48.22855" lon="6.91865">
        <ele>493</ele>
        <time>2015-09-02T14:12:00Z</time>
      </trkpt>
      <trkpt lat="48.22855" lon="6.91865">
        <ele>493</ele>
        <time>2015-09-02T14:12:02Z</time>
      </trkpt>
      <trkpt lat="48.22855" lon="6.91865">
        <ele>493</ele>
        <time>2015-09-02T14:12:08Z</time>
      </trkpt>
      <trkpt lat="48.22855" lon="6.91865">
        <ele>493</ele>
        <time>2015-09-02T14:12:14Z</time>
      </trkpt>
      <trkpt lat="48.22855" lon="6.91865">
        <ele>493</ele>
        <time>2015-09-02T14:12:20Z</time>
      </trkpt>
      <trkpt lat="48.22852" lon="6.91866">
        <ele>492</ele>
        <time>2015-09-02T14:12:26Z</time>
      </trkpt>
      <trkpt lat="48.22846" lon="6.91866">
        <ele>492</ele>
        <time>2015-09-02T14:12:32Z</time>
      </trkpt>
      <trkpt lat="48.22841" lon="6.91868">
        <ele>495</ele>
        <time>2015-09-02T14:12:38Z</time>
      </trkpt>
      <trkpt lat="48.2284" lon="6.9187">
        <ele>496</ele>
        <time>2015-09-02T14:12:45Z</time>
      </trkpt>
      <trkpt lat="48.22839" lon="6.91872">
        <ele>495</ele>
        <time>2015-09-02T14:12:50Z</time>
      </trkpt>
      <trkpt lat="48.22834" lon="6.9188">
        <ele>494</ele>
        <time>2015-09-02T14:12:56Z</time>
      </trkpt>
      <trkpt lat="48.22829" lon="6.91885">
        <ele>495</ele>
        <time>2015-09-02T14:13:02Z</time>
      </trkpt>
      <trkpt lat="48.22827" lon="6.91891">
        <ele>491</ele>
        <time>2015-09-02T14:13:08Z</time>
      </trkpt>
      <trkpt lat="48.22829" lon="6.91893">
        <ele>488</ele>
        <time>2015-09-02T14:13:14Z</time>
      </trkpt>
      <trkpt lat="48.22829" lon="6.91893">
        <ele>488</ele>
        <time>2015-09-02T14:13:20Z</time>
      </trkpt>
      <trkpt lat="48.2283" lon="6.91893">
        <ele>488</ele>
        <time>2015-09-02T14:13:28Z</time>
      </trkpt>
      <trkpt lat="48.2283" lon="6.91893">
        <ele>488</ele>
        <time>2015-09-02T14:13:32Z</time>
      </trkpt>
      <trkpt lat="48.2283" lon="6.91893">
        <ele>488</ele>
        <time>2015-09-02T14:13:38Z</time>
      </trkpt>
      <trkpt lat="48.2283" lon="6.91893">
        <ele>488</ele>
        <time>2015-09-02T14:13:44Z</time>
      </trkpt>
      <trkpt lat="48.22829" lon="6.91894">
        <ele>487</ele>
        <time>2015-09-02T14:13:50Z</time>
      </trkpt>
      <trkpt lat="48.22828" lon="6.91895">
        <ele>487</ele>
        <time>2015-09-02T14:13:56Z</time>
      </trkpt>
      <trkpt lat="48.22827" lon="6.91893">
        <ele>489</ele>
        <time>2015-09-02T14:14:06Z</time>
      </trkpt>
      <trkpt lat="48.22827" lon="6.91893">
        <ele>490</ele>
        <time>2015-09-02T14:14:08Z</time>
      </trkpt>
      <trkpt lat="48.22826" lon="6.91893">
        <ele>490</ele>
        <time>2015-09-02T14:14:14Z</time>
      </trkpt>
      <trkpt lat="48.22824" lon="6.91893">
        <ele>488</ele>
        <time>2015-09-02T14:14:20Z</time>
      </trkpt>
      <trkpt lat="48.22823" lon="6.91895">
        <ele>489</ele>
        <time>2015-09-02T14:14:26Z</time>
      </trkpt>
      <trkpt lat="48.22822" lon="6.91897">
        <ele>489</ele>
        <time>2015-09-02T14:14:32Z</time>
      </trkpt>
      <trkpt lat="48.22821" lon="6.91898">
        <ele>489</ele>
        <time>2015-09-02T14:14:38Z</time>
      </trkpt>
      <trkpt lat="48.22811" lon="6.91905">
        <ele>491</ele>
        <time>2015-09-02T14:14:44Z</time>
      </trkpt>
      <trkpt lat="48.22809" lon="6.91909">
        <ele>492</ele>
        <time>2015-09-02T14:14:50Z</time>
      </trkpt>
      <trkpt lat="48.22802" lon="6.91913">
        <ele>491</ele>
        <time>2015-09-02T14:14:56Z</time>
      </trkpt>
      <trkpt lat="48.22796" lon="6.9192">
        <ele>489</ele>
        <time>2015-09-02T14:15:04Z</time>
      </trkpt>
      <trkpt lat="48.22796" lon="6.91921">
        <ele>490</ele>
        <time>2015-09-02T14:15:08Z</time>
      </trkpt>
      <trkpt lat="48.2279" lon="6.91927">
        <ele>490</ele>
        <time>2015-09-02T14:15:19Z</time>
      </trkpt>
      <trkpt lat="48.22789" lon="6.91929">
        <ele>491</ele>
        <time>2015-09-02T14:15:22Z</time>
      </trkpt>
      <trkpt lat="48.22787" lon="6.91931">
        <ele>491</ele>
        <time>2015-09-02T14:15:27Z</time>
      </trkpt>
      <trkpt lat="48.22777" lon="6.91948">
        <ele>490</ele>
        <time>2015-09-02T14:15:37Z</time>
      </trkpt>
      <trkpt lat="48.22774" lon="6.9195">
        <ele>491</ele>
        <time>2015-09-02T14:15:39Z</time>
      </trkpt>
      <trkpt lat="48.22757" lon="6.9197">
        <ele>499</ele>
        <time>2015-09-02T14:15:48Z</time>
      </trkpt>
      <trkpt lat="48.22754" lon="6.91973">
        <ele>501</ele>
        <time>2015-09-02T14:15:50Z</time>
      </trkpt>
      <trkpt lat="48.22746" lon="6.91983">
        <ele>498</ele>
        <time>2015-09-02T14:15:59Z</time>
      </trkpt>
      <trkpt lat="48.22744" lon="6.91988">
        <ele>497</ele>
        <time>2015-09-02T14:16:02Z</time>
      </trkpt>
      <trkpt lat="48.22737" lon="6.91996">
        <ele>495</ele>
        <time>2015-09-02T14:16:10Z</time>
      </trkpt>
      <trkpt lat="48.22728" lon="6.92006">
        <ele>496</ele>
        <time>2015-09-02T14:16:17Z</time>
      </trkpt>
      <trkpt lat="48.22724" lon="6.92009">
        <ele>497</ele>
        <time>2015-09-02T14:16:25Z</time>
      </trkpt>
      <trkpt lat="48.22723" lon="6.9201">
        <ele>498</ele>
        <time>2015-09-02T14:16:26Z</time>
      </trkpt>
      <trkpt lat="48.22719" lon="6.92018">
        <ele>494</ele>
        <time>2015-09-02T14:16:32Z</time>
      </trkpt>
      <trkpt lat="48.22715" lon="6.92028">
        <ele>496</ele>
        <time>2015-09-02T14:16:43Z</time>
      </trkpt>
      <trkpt lat="48.22714" lon="6.9203">
        <ele>495</ele>
        <time>2015-09-02T14:16:44Z</time>
      </trkpt>
      <trkpt lat="48.22704" lon="6.92048">
        <ele>495</ele>
        <time>2015-09-02T14:16:55Z</time>
      </trkpt>
      <trkpt lat="48.22704" lon="6.92048">
        <ele>495</ele>
        <time>2015-09-02T14:16:56Z</time>
      </trkpt>
      <trkpt lat="48.22701" lon="6.92053">
        <ele>497</ele>
        <time>2015-09-02T14:17:03Z</time>
      </trkpt>
      <trkpt lat="48.22697" lon="6.9206">
        <ele>498</ele>
        <time>2015-09-02T14:17:12Z</time>
      </trkpt>
      <trkpt lat="48.22697" lon="6.9206">
        <ele>498</ele>
        <time>2015-09-02T14:17:14Z</time>
      </trkpt>
      <trkpt lat="48.22691" lon="6.92069">
        <ele>500</ele>
        <time>2015-09-02T14:17:22Z</time>
      </trkpt>
      <trkpt lat="48.22689" lon="6.92075">
        <ele>498</ele>
        <time>2015-09-02T14:17:26Z</time>
      </trkpt>
      <trkpt lat="48.22688" lon="6.92077">
        <ele>500</ele>
        <time>2015-09-02T14:17:32Z</time>
      </trkpt>
      <trkpt lat="48.22685" lon="6.92084">
        <ele>501</ele>
        <time>2015-09-02T14:17:38Z</time>
      </trkpt>
      <trkpt lat="48.22682" lon="6.92093">
        <ele>500</ele>
        <time>2015-09-02T14:17:46Z</time>
      </trkpt>
      <trkpt lat="48.22682" lon="6.92094">
        <ele>501</ele>
        <time>2015-09-02T14:17:50Z</time>
      </trkpt>
      <trkpt lat="48.2268" lon="6.92101">
        <ele>499</ele>
        <time>2015-09-02T14:17:56Z</time>
      </trkpt>
      <trkpt lat="48.22671" lon="6.92121">
        <ele>498</ele>
        <time>2015-09-02T14:18:07Z</time>
      </trkpt>
      <trkpt lat="48.22669" lon="6.92124">
        <ele>498</ele>
        <time>2015-09-02T14:18:10Z</time>
      </trkpt>
      <trkpt lat="48.22668" lon="6.92125">
        <ele>499</ele>
        <time>2015-09-02T14:18:14Z</time>
      </trkpt>
      <trkpt lat="48.22666" lon="6.92127">
        <ele>499</ele>
        <time>2015-09-02T14:18:20Z</time>
      </trkpt>
      <trkpt lat="48.22659" lon="6.92141">
        <ele>505</ele>
        <time>2015-09-02T14:18:29Z</time>
      </trkpt>
      <trkpt lat="48.22657" lon="6.92144">
        <ele>505</ele>
        <time>2015-09-02T14:18:32Z</time>
      </trkpt>
      <trkpt lat="48.22653" lon="6.92148">
        <ele>507</ele>
        <time>2015-09-02T14:18:39Z</time>
      </trkpt>
      <trkpt lat="48.2265" lon="6.92152">
        <ele>510</ele>
        <time>2015-09-02T14:18:44Z</time>
      </trkpt>
      <trkpt lat="48.22644" lon="6.92159">
        <ele>512</ele>
        <time>2015-09-02T14:18:50Z</time>
      </trkpt>
      <trkpt lat="48.2264" lon="6.92165">
        <ele>509</ele>
        <time>2015-09-02T14:18:56Z</time>
      </trkpt>
      <trkpt lat="48.22638" lon="6.92166">
        <ele>510</ele>
        <time>2015-09-02T14:19:02Z</time>
      </trkpt>
      <trkpt lat="48.2263" lon="6.9218">
        <ele>510</ele>
        <time>2015-09-02T14:19:13Z</time>
      </trkpt>
      <trkpt lat="48.22628" lon="6.92184">
        <ele>511</ele>
        <time>2015-09-02T14:19:17Z</time>
      </trkpt>
      <trkpt lat="48.22627" lon="6.92186">
        <ele>511</ele>
        <time>2015-09-02T14:19:20Z</time>
      </trkpt>
      <trkpt lat="48.22627" lon="6.92187">
        <ele>511</ele>
        <time>2015-09-02T14:19:26Z</time>
      </trkpt>
      <trkpt lat="48.22625" lon="6.92187">
        <ele>510</ele>
        <time>2015-09-02T14:19:32Z</time>
      </trkpt>
      <trkpt lat="48.22623" lon="6.92192">
        <ele>512</ele>
        <time>2015-09-02T14:19:38Z</time>
      </trkpt>
      <trkpt lat="48.22623" lon="6.92195">
        <ele>512</ele>
        <time>2015-09-02T14:19:44Z</time>
      </trkpt>
      <trkpt lat="48.22624" lon="6.92195">
        <ele>513</ele>
        <time>2015-09-02T14:19:50Z</time>
      </trkpt>
      <trkpt lat="48.22624" lon="6.92195">
        <ele>513</ele>
        <time>2015-09-02T14:19:56Z</time>
      </trkpt>
      <trkpt lat="48.22624" lon="6.92195">
        <ele>513</ele>
        <time>2015-09-02T14:20:02Z</time>
      </trkpt>
      <trkpt lat="48.22622" lon="6.92197">
        <ele>513</ele>
        <time>2015-09-02T14:20:13Z</time>
      </trkpt>
      <trkpt lat="48.22621" lon="6.92201">
        <ele>513</ele>
        <time>2015-09-02T14:20:14Z</time>
      </trkpt>
      <trkpt lat="48.22624" lon="6.92211">
        <ele>503</ele>
        <time>2015-09-02T14:20:24Z</time>
      </trkpt>
      <trkpt lat="48.22624" lon="6.92212">
        <ele>503</ele>
        <time>2015-09-02T14:20:27Z</time>
      </trkpt>
      <trkpt lat="48.22624" lon="6.92215">
        <ele>505</ele>
        <time>2015-09-02T14:20:33Z</time>
      </trkpt>
      <trkpt lat="48.22624" lon="6.92216">
        <ele>505</ele>
        <time>2015-09-02T14:20:38Z</time>
      </trkpt>
      <trkpt lat="48.22624" lon="6.92215">
        <ele>506</ele>
        <time>2015-09-02T14:20:44Z</time>
      </trkpt>
      <trkpt lat="48.22618" lon="6.92226">
        <ele>506</ele>
        <time>2015-09-02T14:20:50Z</time>
      </trkpt>
      <trkpt lat="48.2261" lon="6.92241">
        <ele>497</ele>
        <time>2015-09-02T14:20:59Z</time>
      </trkpt>
      <trkpt lat="48.22605" lon="6.92248">
        <ele>499</ele>
        <time>2015-09-02T14:21:04Z</time>
      </trkpt>
      <trkpt lat="48.22599" lon="6.92266">
        <ele>496</ele>
        <time>2015-09-02T14:21:13Z</time>
      </trkpt>
      <trkpt lat="48.22594" lon="6.92276">
        <ele>495</ele>
        <time>2015-09-02T14:21:19Z</time>
      </trkpt>
      <trkpt lat="48.22591" lon="6.92279">
        <ele>498</ele>
        <time>2015-09-02T14:21:23Z</time>
      </trkpt>
      <trkpt lat="48.22587" lon="6.92285">
        <ele>496</ele>
        <time>2015-09-02T14:21:27Z</time>
      </trkpt>
      <trkpt lat="48.22579" lon="6.9229">
        <ele>500</ele>
        <time>2015-09-02T14:21:33Z</time>
      </trkpt>
      <trkpt lat="48.22575" lon="6.92296">
        <ele>499</ele>
        <time>2015-09-02T14:21:38Z</time>
      </trkpt>
      <trkpt lat="48.2257" lon="6.923">
        <ele>498</ele>
        <time>2015-09-02T14:21:45Z</time>
      </trkpt>
      <trkpt lat="48.22566" lon="6.923">
        <ele>500</ele>
        <time>2015-09-02T14:21:51Z</time>
      </trkpt>
      <trkpt lat="48.22561" lon="6.92303">
        <ele>502</ele>
        <time>2015-09-02T14:21:56Z</time>
      </trkpt>
      <trkpt lat="48.22553" lon="6.92304">
        <ele>505</ele>
        <time>2015-09-02T14:22:02Z</time>
      </trkpt>
      <trkpt lat="48.2254" lon="6.92313">
        <ele>505</ele>
        <time>2015-09-02T14:22:12Z</time>
      </trkpt>
      <trkpt lat="48.2253" lon="6.92314">
        <ele>504</ele>
        <time>2015-09-02T14:22:16Z</time>
      </trkpt>
      <trkpt lat="48.22526" lon="6.92318">
        <ele>506</ele>
        <time>2015-09-02T14:22:24Z</time>
      </trkpt>
      <trkpt lat="48.22526" lon="6.92321">
        <ele>505</ele>
        <time>2015-09-02T14:22:26Z</time>
      </trkpt>
      <trkpt lat="48.22522" lon="6.92322">
        <ele>507</ele>
        <time>2015-09-02T14:22:32Z</time>
      </trkpt>
      <trkpt lat="48.22513" lon="6.92328">
        <ele>504</ele>
        <time>2015-09-02T14:22:41Z</time>
      </trkpt>
      <trkpt lat="48.22512" lon="6.9233">
        <ele>501</ele>
        <time>2015-09-02T14:22:44Z</time>
      </trkpt>
      <trkpt lat="48.22506" lon="6.92334">
        <ele>500</ele>
        <time>2015-09-02T14:22:52Z</time>
      </trkpt>
      <trkpt lat="48.22504" lon="6.92333">
        <ele>497</ele>
        <time>2015-09-02T14:22:56Z</time>
      </trkpt>
      <trkpt lat="48.22498" lon="6.92334">
        <ele>497</ele>
        <time>2015-09-02T14:23:02Z</time>
      </trkpt>
      <trkpt lat="48.22493" lon="6.92331">
        <ele>497</ele>
        <time>2015-09-02T14:23:08Z</time>
      </trkpt>
      <trkpt lat="48.22488" lon="6.92333">
        <ele>496</ele>
        <time>2015-09-02T14:23:14Z</time>
      </trkpt>
      <trkpt lat="48.22486" lon="6.92327">
        <ele>495</ele>
        <time>2015-09-02T14:23:21Z</time>
      </trkpt>
      <trkpt lat="48.22483" lon="6.92323">
        <ele>495</ele>
        <time>2015-09-02T14:23:26Z</time>
      </trkpt>
      <trkpt lat="48.2248" lon="6.92317">
        <ele>495</ele>
        <time>2015-09-02T14:23:32Z</time>
      </trkpt>
      <trkpt lat="48.22476" lon="6.92311">
        <ele>496</ele>
        <time>2015-09-02T14:23:38Z</time>
      </trkpt>
      <trkpt lat="48.22476" lon="6.92304">
        <ele>496</ele>
        <time>2015-09-02T14:23:44Z</time>
      </trkpt>
      <trkpt lat="48.22476" lon="6.92289">
        <ele>495</ele>
        <time>2015-09-02T14:23:55Z</time>
      </trkpt>
      <trkpt lat="48.22476" lon="6.92287">
        <ele>495</ele>
        <time>2015-09-02T14:23:56Z</time>
      </trkpt>
      <trkpt lat="48.22478" lon="6.92277">
        <ele>494</ele>
        <time>2015-09-02T14:24:02Z</time>
      </trkpt>
      <trkpt lat="48.22478" lon="6.92266">
        <ele>495</ele>
        <time>2015-09-02T14:24:08Z</time>
      </trkpt>
      <trkpt lat="48.22476" lon="6.92253">
        <ele>497</ele>
        <time>2015-09-02T14:24:14Z</time>
      </trkpt>
      <trkpt lat="48.22472" lon="6.92238">
        <ele>500</ele>
        <time>2015-09-02T14:24:22Z</time>
      </trkpt>
      <trkpt lat="48.22468" lon="6.92229">
        <ele>502</ele>
        <time>2015-09-02T14:24:29Z</time>
      </trkpt>
      <trkpt lat="48.22468" lon="6.92226">
        <ele>502</ele>
        <time>2015-09-02T14:24:32Z</time>
      </trkpt>
      <trkpt lat="48.22464" lon="6.92218">
        <ele>502</ele>
        <time>2015-09-02T14:24:39Z</time>
      </trkpt>
      <trkpt lat="48.22463" lon="6.92217">
        <ele>500</ele>
        <time>2015-09-02T14:24:44Z</time>
      </trkpt>
      <trkpt lat="48.2246" lon="6.92204">
        <ele>501</ele>
        <time>2015-09-02T14:24:51Z</time>
      </trkpt>
      <trkpt lat="48.22454" lon="6.92188">
        <ele>502</ele>
        <time>2015-09-02T14:25:00Z</time>
      </trkpt>
      <trkpt lat="48.22447" lon="6.92182">
        <ele>504</ele>
        <time>2015-09-02T14:25:06Z</time>
      </trkpt>
      <trkpt lat="48.22446" lon="6.9218">
        <ele>505</ele>
        <time>2015-09-02T14:25:08Z</time>
      </trkpt>
      <trkpt lat="48.22445" lon="6.92175">
        <ele>504</ele>
        <time>2015-09-02T14:25:14Z</time>
      </trkpt>
      <trkpt lat="48.22445" lon="6.92169">
        <ele>501</ele>
        <time>2015-09-02T14:25:20Z</time>
      </trkpt>
      <trkpt lat="48.22444" lon="6.92166">
        <ele>501</ele>
        <time>2015-09-02T14:25:26Z</time>
      </trkpt>
      <trkpt lat="48.22443" lon="6.92162">
        <ele>500</ele>
        <time>2015-09-02T14:25:32Z</time>
      </trkpt>
      <trkpt lat="48.22441" lon="6.92149">
        <ele>501</ele>
        <time>2015-09-02T14:25:40Z</time>
      </trkpt>
      <trkpt lat="48.22441" lon="6.92145">
        <ele>499</ele>
        <time>2015-09-02T14:25:44Z</time>
      </trkpt>
      <trkpt lat="48.22438" lon="6.92136">
        <ele>497</ele>
        <time>2015-09-02T14:25:50Z</time>
      </trkpt>
      <trkpt lat="48.22434" lon="6.92128">
        <ele>497</ele>
        <time>2015-09-02T14:25:59Z</time>
      </trkpt>
      <trkpt lat="48.22431" lon="6.92123">
        <ele>499</ele>
        <time>2015-09-02T14:26:02Z</time>
      </trkpt>
      <trkpt lat="48.22434" lon="6.92111">
        <ele>500</ele>
        <time>2015-09-02T14:26:09Z</time>
      </trkpt>
      <trkpt lat="48.22427" lon="6.92101">
        <ele>501</ele>
        <time>2015-09-02T14:26:14Z</time>
      </trkpt>
      <trkpt lat="48.22425" lon="6.92096">
        <ele>498</ele>
        <time>2015-09-02T14:26:20Z</time>
      </trkpt>
      <trkpt lat="48.22419" lon="6.92083">
        <ele>493</ele>
        <time>2015-09-02T14:26:30Z</time>
      </trkpt>
      <trkpt lat="48.22418" lon="6.92083">
        <ele>492</ele>
        <time>2015-09-02T14:26:32Z</time>
      </trkpt>
      <trkpt lat="48.2242" lon="6.92081">
        <ele>488</ele>
        <time>2015-09-02T14:26:38Z</time>
      </trkpt>
      <trkpt lat="48.22419" lon="6.92074">
        <ele>487</ele>
        <time>2015-09-02T14:26:44Z</time>
      </trkpt>
      <trkpt lat="48.22415" lon="6.92067">
        <ele>490</ele>
        <time>2015-09-02T14:26:50Z</time>
      </trkpt>
      <trkpt lat="48.22414" lon="6.92063">
        <ele>489</ele>
        <time>2015-09-02T14:26:56Z</time>
      </trkpt>
      <trkpt lat="48.22415" lon="6.92059">
        <ele>487</ele>
        <time>2015-09-02T14:27:04Z</time>
      </trkpt>
      <trkpt lat="48.22412" lon="6.92052">
        <ele>489</ele>
        <time>2015-09-02T14:27:08Z</time>
      </trkpt>
      <trkpt lat="48.2241" lon="6.9205">
        <ele>493</ele>
        <time>2015-09-02T14:27:14Z</time>
      </trkpt>
      <trkpt lat="48.22409" lon="6.92047">
        <ele>496</ele>
        <time>2015-09-02T14:27:21Z</time>
      </trkpt>
      <trkpt lat="48.22408" lon="6.92046">
        <ele>496</ele>
        <time>2015-09-02T14:27:26Z</time>
      </trkpt>
      <trkpt lat="48.22408" lon="6.92046">
        <ele>496</ele>
        <time>2015-09-02T14:27:36Z</time>
      </trkpt>
      <trkpt lat="48.22408" lon="6.92046">
        <ele>496</ele>
        <time>2015-09-02T14:27:38Z</time>
      </trkpt>
      <trkpt lat="48.22408" lon="6.92046">
        <ele>496</ele>
        <time>2015-09-02T14:27:44Z</time>
      </trkpt>
      <trkpt lat="48.22408" lon="6.92046">
        <ele>496</ele>
        <time>2015-09-02T14:27:50Z</time>
      </trkpt>
      <trkpt lat="48.22409" lon="6.92047">
        <ele>495</ele>
        <time>2015-09-02T14:27:56Z</time>
      </trkpt>
      <trkpt lat="48.22409" lon="6.92047">
        <ele>495</ele>
        <time>2015-09-02T14:28:03Z</time>
      </trkpt>
      <trkpt lat="48.22409" lon="6.92047">
        <ele>495</ele>
        <time>2015-09-02T14:28:08Z</time>
      </trkpt>
      <trkpt lat="48.22409" lon="6.92047">
        <ele>495</ele>
        <time>2015-09-02T14:28:14Z</time>
      </trkpt>
      <trkpt lat="48.22409" lon="6.92048">
        <ele>495</ele>
        <time>2015-09-02T14:28:20Z</time>
      </trkpt>
      <trkpt lat="48.22409" lon="6.92048">
        <ele>495</ele>
        <time>2015-09-02T14:28:26Z</time>
      </trkpt>
      <trkpt lat="48.22409" lon="6.92047">
        <ele>495</ele>
        <time>2015-09-02T14:28:35Z</time>
      </trkpt>
      <trkpt lat="48.22409" lon="6.92047">
        <ele>495</ele>
        <time>2015-09-02T14:28:38Z</time>
      </trkpt>
      <trkpt lat="48.22407" lon="6.9204">
        <ele>493</ele>
        <time>2015-09-02T14:28:44Z</time>
      </trkpt>
      <trkpt lat="48.22404" lon="6.92026">
        <ele>485</ele>
        <time>2015-09-02T14:28:50Z</time>
      </trkpt>
      <trkpt lat="48.22402" lon="6.92019">
        <ele>483</ele>
        <time>2015-09-02T14:28:56Z</time>
      </trkpt>
      <trkpt lat="48.22396" lon="6.92006">
        <ele>483</ele>
        <time>2015-09-02T14:29:03Z</time>
      </trkpt>
      <trkpt lat="48.22394" lon="6.91998">
        <ele>484</ele>
        <time>2015-09-02T14:29:09Z</time>
      </trkpt>
      <trkpt lat="48.22393" lon="6.91991">
        <ele>485</ele>
        <time>2015-09-02T14:29:14Z</time>
      </trkpt>
      <trkpt lat="48.2239" lon="6.91982">
        <ele>455</ele>
        <time>2015-09-02T14:29:20Z</time>
      </trkpt>
      <trkpt lat="48.22384" lon="6.91973">
        <ele>478</ele>
        <time>2015-09-02T14:29:26Z</time>
      </trkpt>
      <trkpt lat="48.22382" lon="6.91964">
        <ele>484</ele>
        <time>2015-09-02T14:29:32Z</time>
      </trkpt>
      <trkpt lat="48.22381" lon="6.9196">
        <ele>484</ele>
        <time>2015-09-02T14:29:38Z</time>
      </trkpt>
      <trkpt lat="48.22372" lon="6.91942">
        <ele>485</ele>
        <time>2015-09-02T14:29:49Z</time>
      </trkpt>
      <trkpt lat="48.22372" lon="6.91941">
        <ele>487</ele>
        <time>2015-09-02T14:29:50Z</time>
      </trkpt>
      <trkpt lat="48.2237" lon="6.91928">
        <ele>485</ele>
        <time>2015-09-02T14:29:58Z</time>
      </trkpt>
      <trkpt lat="48.22369" lon="6.91925">
        <ele>486</ele>
        <time>2015-09-02T14:30:02Z</time>
      </trkpt>
      <trkpt lat="48.22365" lon="6.91919">
        <ele>487</ele>
        <time>2015-09-02T14:30:08Z</time>
      </trkpt>
      <trkpt lat="48.22364" lon="6.91909">
        <ele>485</ele>
        <time>2015-09-02T14:30:14Z</time>
      </trkpt>
      <trkpt lat="48.2236" lon="6.91904">
        <ele>484</ele>
        <time>2015-09-02T14:30:21Z</time>
      </trkpt>
      <trkpt lat="48.22355" lon="6.91895">
        <ele>485</ele>
        <time>2015-09-02T14:30:29Z</time>
      </trkpt>
      <trkpt lat="48.22353" lon="6.91893">
        <ele>485</ele>
        <time>2015-09-02T14:30:32Z</time>
      </trkpt>
      <trkpt lat="48.22352" lon="6.91887">
        <ele>485</ele>
        <time>2015-09-02T14:30:38Z</time>
      </trkpt>
      <trkpt lat="48.2235" lon="6.91883">
        <ele>486</ele>
        <time>2015-09-02T14:30:47Z</time>
      </trkpt>
      <trkpt lat="48.22348" lon="6.9188">
        <ele>487</ele>
        <time>2015-09-02T14:30:50Z</time>
      </trkpt>
      <trkpt lat="48.22347" lon="6.91871">
        <ele>486</ele>
        <time>2015-09-02T14:30:56Z</time>
      </trkpt>
      <trkpt lat="48.22345" lon="6.91868">
        <ele>486</ele>
        <time>2015-09-02T14:31:02Z</time>
      </trkpt>
      <trkpt lat="48.22344" lon="6.91861">
        <ele>486</ele>
        <time>2015-09-02T14:31:08Z</time>
      </trkpt>
      <trkpt lat="48.22341" lon="6.91851">
        <ele>483</ele>
        <time>2015-09-02T14:31:16Z</time>
      </trkpt>
      <trkpt lat="48.2234" lon="6.91848">
        <ele>483</ele>
        <time>2015-09-02T14:31:20Z</time>
      </trkpt>
      <trkpt lat="48.22333" lon="6.91837">
        <ele>484</ele>
        <time>2015-09-02T14:31:30Z</time>
      </trkpt>
      <trkpt lat="48.22333" lon="6.91834">
        <ele>484</ele>
        <time>2015-09-02T14:31:32Z</time>
      </trkpt>
      <trkpt lat="48.22327" lon="6.91822">
        <ele>486</ele>
        <time>2015-09-02T14:31:38Z</time>
      </trkpt>
      <trkpt lat="48.22323" lon="6.91814">
        <ele>487</ele>
        <time>2015-09-02T14:31:44Z</time>
      </trkpt>
      <trkpt lat="48.22321" lon="6.91806">
        <ele>484</ele>
        <time>2015-09-02T14:31:50Z</time>
      </trkpt>
      <trkpt lat="48.22318" lon="6.91798">
        <ele>484</ele>
        <time>2015-09-02T14:31:56Z</time>
      </trkpt>
      <trkpt lat="48.22316" lon="6.91789">
        <ele>483</ele>
        <time>2015-09-02T14:32:02Z</time>
      </trkpt>
      <trkpt lat="48.22314" lon="6.91781">
        <ele>483</ele>
        <time>2015-09-02T14:32:08Z</time>
      </trkpt>
      <trkpt lat="48.22312" lon="6.91772">
        <ele>485</ele>
        <time>2015-09-02T14:32:14Z</time>
      </trkpt>
      <trkpt lat="48.22312" lon="6.91767">
        <ele>483</ele>
        <time>2015-09-02T14:32:20Z</time>
      </trkpt>
      <trkpt lat="48.2231" lon="6.91758">
        <ele>482</ele>
        <time>2015-09-02T14:32:26Z</time>
      </trkpt>
      <trkpt lat="48.22306" lon="6.91748">
        <ele>483</ele>
        <time>2015-09-02T14:32:33Z</time>
      </trkpt>
      <trkpt lat="48.22305" lon="6.91743">
        <ele>482</ele>
        <time>2015-09-02T14:32:38Z</time>
      </trkpt>
      <trkpt lat="48.22304" lon="6.91738">
        <ele>480</ele>
        <time>2015-09-02T14:32:44Z</time>
      </trkpt>
      <trkpt lat="48.22303" lon="6.91729">
        <ele>479</ele>
        <time>2015-09-02T14:32:50Z</time>
      </trkpt>
      <trkpt lat="48.22301" lon="6.9172">
        <ele>481</ele>
        <time>2015-09-02T14:32:56Z</time>
      </trkpt>
      <trkpt lat="48.22298" lon="6.91711">
        <ele>481</ele>
        <time>2015-09-02T14:33:02Z</time>
      </trkpt>
      <trkpt lat="48.22297" lon="6.91704">
        <ele>482</ele>
        <time>2015-09-02T14:33:08Z</time>
      </trkpt>
      <trkpt lat="48.22295" lon="6.91695">
        <ele>483</ele>
        <time>2015-09-02T14:33:16Z</time>
      </trkpt>
      <trkpt lat="48.22294" lon="6.91688">
        <ele>481</ele>
        <time>2015-09-02T14:33:20Z</time>
      </trkpt>
      <trkpt lat="48.22293" lon="6.91674">
        <ele>481</ele>
        <time>2015-09-02T14:33:30Z</time>
      </trkpt>
      <trkpt lat="48.22291" lon="6.91671">
        <ele>481</ele>
        <time>2015-09-02T14:33:32Z</time>
      </trkpt>
      <trkpt lat="48.22287" lon="6.9166">
        <ele>483</ele>
        <time>2015-09-02T14:33:38Z</time>
      </trkpt>
      <trkpt lat="48.22286" lon="6.91654">
        <ele>483</ele>
        <time>2015-09-02T14:33:44Z</time>
      </trkpt>
      <trkpt lat="48.22286" lon="6.91647">
        <ele>481</ele>
        <time>2015-09-02T14:33:50Z</time>
      </trkpt>
      <trkpt lat="48.22284" lon="6.91638">
        <ele>481</ele>
        <time>2015-09-02T14:33:58Z</time>
      </trkpt>
      <trkpt lat="48.22281" lon="6.91634">
        <ele>481</ele>
        <time>2015-09-02T14:34:02Z</time>
      </trkpt>
      <trkpt lat="48.22277" lon="6.91624">
        <ele>481</ele>
        <time>2015-09-02T14:34:08Z</time>
      </trkpt>
      <trkpt lat="48.22278" lon="6.91617">
        <ele>480</ele>
        <time>2015-09-02T14:34:14Z</time>
      </trkpt>
      <trkpt lat="48.22273" lon="6.91606">
        <ele>480</ele>
        <time>2015-09-02T14:34:22Z</time>
      </trkpt>
      <trkpt lat="48.22273" lon="6.91595">
        <ele>476</ele>
        <time>2015-09-02T14:34:28Z</time>
      </trkpt>
      <trkpt lat="48.22273" lon="6.91589">
        <ele>473</ele>
        <time>2015-09-02T14:34:32Z</time>
      </trkpt>
      <trkpt lat="48.22271" lon="6.91579">
        <ele>473</ele>
        <time>2015-09-02T14:34:38Z</time>
      </trkpt>
      <trkpt lat="48.22268" lon="6.91571">
        <ele>474</ele>
        <time>2015-09-02T14:34:44Z</time>
      </trkpt>
      <trkpt lat="48.22267" lon="6.91554">
        <ele>470</ele>
        <time>2015-09-02T14:34:55Z</time>
      </trkpt>
      <trkpt lat="48.22266" lon="6.91552">
        <ele>470</ele>
        <time>2015-09-02T14:34:56Z</time>
      </trkpt>
      <trkpt lat="48.22266" lon="6.91541">
        <ele>470</ele>
        <time>2015-09-02T14:35:02Z</time>
      </trkpt>
      <trkpt lat="48.22267" lon="6.91534">
        <ele>468</ele>
        <time>2015-09-02T14:35:08Z</time>
      </trkpt>
      <trkpt lat="48.22265" lon="6.91526">
        <ele>468</ele>
        <time>2015-09-02T14:35:14Z</time>
      </trkpt>
      <trkpt lat="48.2226" lon="6.91506">
        <ele>471</ele>
        <time>2015-09-02T14:35:25Z</time>
      </trkpt>
      <trkpt lat="48.2226" lon="6.91505">
        <ele>472</ele>
        <time>2015-09-02T14:35:26Z</time>
      </trkpt>
      <trkpt lat="48.22256" lon="6.9149">
        <ele>472</ele>
        <time>2015-09-02T14:35:36Z</time>
      </trkpt>
      <trkpt lat="48.22257" lon="6.91488">
        <ele>472</ele>
        <time>2015-09-02T14:35:38Z</time>
      </trkpt>
      <trkpt lat="48.22255" lon="6.9148">
        <ele>469</ele>
        <time>2015-09-02T14:35:44Z</time>
      </trkpt>
      <trkpt lat="48.22255" lon="6.9147">
        <ele>468</ele>
        <time>2015-09-02T14:35:50Z</time>
      </trkpt>
      <trkpt lat="48.22252" lon="6.91459">
        <ele>469</ele>
        <time>2015-09-02T14:35:56Z</time>
      </trkpt>
      <trkpt lat="48.22254" lon="6.91451">
        <ele>470</ele>
        <time>2015-09-02T14:36:02Z</time>
      </trkpt>
      <trkpt lat="48.2225" lon="6.91442">
        <ele>471</ele>
        <time>2015-09-02T14:36:08Z</time>
      </trkpt>
      <trkpt lat="48.22247" lon="6.91434">
        <ele>469</ele>
        <time>2015-09-02T14:36:14Z</time>
      </trkpt>
      <trkpt lat="48.22237" lon="6.91418">
        <ele>465</ele>
        <time>2015-09-02T14:36:25Z</time>
      </trkpt>
      <trkpt lat="48.22237" lon="6.91416">
        <ele>466</ele>
        <time>2015-09-02T14:36:26Z</time>
      </trkpt>
      <trkpt lat="48.22234" lon="6.91407">
        <ele>465</ele>
        <time>2015-09-02T14:36:32Z</time>
      </trkpt>
      <trkpt lat="48.2223" lon="6.91402">
        <ele>464</ele>
        <time>2015-09-02T14:36:39Z</time>
      </trkpt>
      <trkpt lat="48.22221" lon="6.91393">
        <ele>465</ele>
        <time>2015-09-02T14:36:48Z</time>
      </trkpt>
      <trkpt lat="48.22217" lon="6.91388">
        <ele>463</ele>
        <time>2015-09-02T14:36:51Z</time>
      </trkpt>
      <trkpt lat="48.22215" lon="6.91385">
        <ele>465</ele>
        <time>2015-09-02T14:36:56Z</time>
      </trkpt>
      <trkpt lat="48.2221" lon="6.91384">
        <ele>466</ele>
        <time>2015-09-02T14:37:02Z</time>
      </trkpt>
      <trkpt lat="48.22205" lon="6.91381">
        <ele>468</ele>
        <time>2015-09-02T14:37:08Z</time>
      </trkpt>
      <trkpt lat="48.22197" lon="6.9138">
        <ele>471</ele>
        <time>2015-09-02T14:37:14Z</time>
      </trkpt>
      <trkpt lat="48.2219" lon="6.9138">
        <ele>473</ele>
        <time>2015-09-02T14:37:20Z</time>
      </trkpt>
      <trkpt lat="48.22184" lon="6.91381">
        <ele>471</ele>
        <time>2015-09-02T14:37:26Z</time>
      </trkpt>
      <trkpt lat="48.22177" lon="6.91382">
        <ele>468</ele>
        <time>2015-09-02T14:37:32Z</time>
      </trkpt>
      <trkpt lat="48.2217" lon="6.91384">
        <ele>470</ele>
        <time>2015-09-02T14:37:38Z</time>
      </trkpt>
      <trkpt lat="48.22165" lon="6.91385">
        <ele>467</ele>
        <time>2015-09-02T14:37:44Z</time>
      </trkpt>
      <trkpt lat="48.22161" lon="6.91384">
        <ele>470</ele>
        <time>2015-09-02T14:37:50Z</time>
      </trkpt>
      <trkpt lat="48.2215" lon="6.91383">
        <ele>463</ele>
        <time>2015-09-02T14:38:00Z</time>
      </trkpt>
      <trkpt lat="48.22148" lon="6.91383">
        <ele>461</ele>
        <time>2015-09-02T14:38:02Z</time>
      </trkpt>
      <trkpt lat="48.22142" lon="6.91378">
        <ele>462</ele>
        <time>2015-09-02T14:38:08Z</time>
      </trkpt>
      <trkpt lat="48.22134" lon="6.91376">
        <ele>462</ele>
        <time>2015-09-02T14:38:14Z</time>
      </trkpt>
      <trkpt lat="48.22127" lon="6.91375">
        <ele>462</ele>
        <time>2015-09-02T14:38:20Z</time>
      </trkpt>
      <trkpt lat="48.22125" lon="6.91371">
        <ele>464</ele>
        <time>2015-09-02T14:38:26Z</time>
      </trkpt>
      <trkpt lat="48.22121" lon="6.91366">
        <ele>468</ele>
        <time>2015-09-02T14:38:32Z</time>
      </trkpt>
      <trkpt lat="48.22117" lon="6.91354">
        <ele>466</ele>
        <time>2015-09-02T14:38:38Z</time>
      </trkpt>
      <trkpt lat="48.22116" lon="6.91344">
        <ele>465</ele>
        <time>2015-09-02T14:38:44Z</time>
      </trkpt>
      <trkpt lat="48.22111" lon="6.91337">
        <ele>466</ele>
        <time>2015-09-02T14:38:50Z</time>
      </trkpt>
      <trkpt lat="48.2211" lon="6.91332">
        <ele>468</ele>
        <time>2015-09-02T14:38:56Z</time>
      </trkpt>
      <trkpt lat="48.22108" lon="6.91328">
        <ele>471</ele>
        <time>2015-09-02T14:39:02Z</time>
      </trkpt>
      <trkpt lat="48.22103" lon="6.9132">
        <ele>470</ele>
        <time>2015-09-02T14:39:08Z</time>
      </trkpt>
      <trkpt lat="48.22101" lon="6.91312">
        <ele>469</ele>
        <time>2015-09-02T14:39:14Z</time>
      </trkpt>
      <trkpt lat="48.22102" lon="6.91302">
        <ele>472</ele>
        <time>2015-09-02T14:39:20Z</time>
      </trkpt>
      <trkpt lat="48.22095" lon="6.91294">
        <ele>470</ele>
        <time>2015-09-02T14:39:26Z</time>
      </trkpt>
      <trkpt lat="48.2209" lon="6.91288">
        <ele>469</ele>
        <time>2015-09-02T14:39:32Z</time>
      </trkpt>
      <trkpt lat="48.22089" lon="6.91281">
        <ele>471</ele>
        <time>2015-09-02T14:39:38Z</time>
      </trkpt>
      <trkpt lat="48.22085" lon="6.91273">
        <ele>471</ele>
        <time>2015-09-02T14:39:44Z</time>
      </trkpt>
      <trkpt lat="48.22081" lon="6.91268">
        <ele>469</ele>
        <time>2015-09-02T14:39:50Z</time>
      </trkpt>
      <trkpt lat="48.22079" lon="6.91264">
        <ele>470</ele>
        <time>2015-09-02T14:39:58Z</time>
      </trkpt>
      <trkpt lat="48.22077" lon="6.91259">
        <ele>472</ele>
        <time>2015-09-02T14:40:02Z</time>
      </trkpt>
      <trkpt lat="48.22072" lon="6.91252">
        <ele>477</ele>
        <time>2015-09-02T14:40:09Z</time>
      </trkpt>
      <trkpt lat="48.22071" lon="6.91249">
        <ele>480</ele>
        <time>2015-09-02T14:40:14Z</time>
      </trkpt>
      <trkpt lat="48.22068" lon="6.91241">
        <ele>481</ele>
        <time>2015-09-02T14:40:20Z</time>
      </trkpt>
      <trkpt lat="48.22065" lon="6.91232">
        <ele>482</ele>
        <time>2015-09-02T14:40:26Z</time>
      </trkpt>
      <trkpt lat="48.2206" lon="6.91222">
        <ele>479</ele>
        <time>2015-09-02T14:40:32Z</time>
      </trkpt>
      <trkpt lat="48.2206" lon="6.91214">
        <ele>481</ele>
        <time>2015-09-02T14:40:38Z</time>
      </trkpt>
      <trkpt lat="48.22058" lon="6.91207">
        <ele>479</ele>
        <time>2015-09-02T14:40:44Z</time>
      </trkpt>
      <trkpt lat="48.22055" lon="6.91201">
        <ele>482</ele>
        <time>2015-09-02T14:40:50Z</time>
      </trkpt>
      <trkpt lat="48.22049" lon="6.91197">
        <ele>482</ele>
        <time>2015-09-02T14:40:56Z</time>
      </trkpt>
      <trkpt lat="48.22045" lon="6.91189">
        <ele>482</ele>
        <time>2015-09-02T14:41:02Z</time>
      </trkpt>
      <trkpt lat="48.22041" lon="6.91182">
        <ele>481</ele>
        <time>2015-09-02T14:41:09Z</time>
      </trkpt>
      <trkpt lat="48.22041" lon="6.91174">
        <ele>484</ele>
        <time>2015-09-02T14:41:14Z</time>
      </trkpt>
      <trkpt lat="48.22041" lon="6.91167">
        <ele>482</ele>
        <time>2015-09-02T14:41:20Z</time>
      </trkpt>
      <trkpt lat="48.22035" lon="6.91159">
        <ele>484</ele>
        <time>2015-09-02T14:41:26Z</time>
      </trkpt>
      <trkpt lat="48.22033" lon="6.91151">
        <ele>483</ele>
        <time>2015-09-02T14:41:32Z</time>
      </trkpt>
      <trkpt lat="48.22032" lon="6.91144">
        <ele>483</ele>
        <time>2015-09-02T14:41:38Z</time>
      </trkpt>
      <trkpt lat="48.2203" lon="6.9114">
        <ele>484</ele>
        <time>2015-09-02T14:41:44Z</time>
      </trkpt>
      <trkpt lat="48.22028" lon="6.91133">
        <ele>483</ele>
        <time>2015-09-02T14:41:50Z</time>
      </trkpt>
      <trkpt lat="48.22023" lon="6.91117">
        <ele>483</ele>
        <time>2015-09-02T14:42:01Z</time>
      </trkpt>
      <trkpt lat="48.22023" lon="6.91115">
        <ele>483</ele>
        <time>2015-09-02T14:42:02Z</time>
      </trkpt>
      <trkpt lat="48.22021" lon="6.9111">
        <ele>485</ele>
        <time>2015-09-02T14:42:08Z</time>
      </trkpt>
      <trkpt lat="48.22017" lon="6.91102">
        <ele>488</ele>
        <time>2015-09-02T14:42:14Z</time>
      </trkpt>
      <trkpt lat="48.22016" lon="6.91092">
        <ele>484</ele>
        <time>2015-09-02T14:42:20Z</time>
      </trkpt>
      <trkpt lat="48.22011" lon="6.91083">
        <ele>490</ele>
        <time>2015-09-02T14:42:26Z</time>
      </trkpt>
      <trkpt lat="48.22012" lon="6.91083">
        <ele>488</ele>
        <time>2015-09-02T14:42:36Z</time>
      </trkpt>
      <trkpt lat="48.22008" lon="6.91089">
        <ele>488</ele>
        <time>2015-09-02T14:42:40Z</time>
      </trkpt>
      <trkpt lat="48.22007" lon="6.91096">
        <ele>486</ele>
        <time>2015-09-02T14:42:44Z</time>
      </trkpt>
      <trkpt lat="48.22007" lon="6.91105">
        <ele>484</ele>
        <time>2015-09-02T14:42:50Z</time>
      </trkpt>
      <trkpt lat="48.22003" lon="6.91117">
        <ele>485</ele>
        <time>2015-09-02T14:42:59Z</time>
      </trkpt>
      <trkpt lat="48.22" lon="6.91125">
        <ele>482</ele>
        <time>2015-09-02T14:43:04Z</time>
      </trkpt>
      <trkpt lat="48.21998" lon="6.91131">
        <ele>480</ele>
        <time>2015-09-02T14:43:08Z</time>
      </trkpt>
      <trkpt lat="48.21999" lon="6.91141">
        <ele>478</ele>
        <time>2015-09-02T14:43:14Z</time>
      </trkpt>
      <trkpt lat="48.21995" lon="6.9115">
        <ele>477</ele>
        <time>2015-09-02T14:43:20Z</time>
      </trkpt>
      <trkpt lat="48.21995" lon="6.91158">
        <ele>478</ele>
        <time>2015-09-02T14:43:26Z</time>
      </trkpt>
      <trkpt lat="48.21993" lon="6.91169">
        <ele>476</ele>
        <time>2015-09-02T14:43:32Z</time>
      </trkpt>
      <trkpt lat="48.21992" lon="6.91176">
        <ele>476</ele>
        <time>2015-09-02T14:43:38Z</time>
      </trkpt>
      <trkpt lat="48.21991" lon="6.91182">
        <ele>477</ele>
        <time>2015-09-02T14:43:44Z</time>
      </trkpt>
      <trkpt lat="48.21986" lon="6.91189">
        <ele>476</ele>
        <time>2015-09-02T14:43:50Z</time>
      </trkpt>
      <trkpt lat="48.21984" lon="6.91199">
        <ele>477</ele>
        <time>2015-09-02T14:43:56Z</time>
      </trkpt>
      <trkpt lat="48.21981" lon="6.91204">
        <ele>479</ele>
        <time>2015-09-02T14:44:02Z</time>
      </trkpt>
      <trkpt lat="48.21974" lon="6.91209">
        <ele>480</ele>
        <time>2015-09-02T14:44:10Z</time>
      </trkpt>
      <trkpt lat="48.21966" lon="6.91212">
        <ele>480</ele>
        <time>2015-09-02T14:44:14Z</time>
      </trkpt>
      <trkpt lat="48.21961" lon="6.91217">
        <ele>478</ele>
        <time>2015-09-02T14:44:20Z</time>
      </trkpt>
      <trkpt lat="48.21955" lon="6.91221">
        <ele>475</ele>
        <time>2015-09-02T14:44:26Z</time>
      </trkpt>
      <trkpt lat="48.2195" lon="6.91226">
        <ele>468</ele>
        <time>2015-09-02T14:44:32Z</time>
      </trkpt>
      <trkpt lat="48.21947" lon="6.91232">
        <ele>469</ele>
        <time>2015-09-02T14:44:38Z</time>
      </trkpt>
      <trkpt lat="48.21945" lon="6.91239">
        <ele>467</ele>
        <time>2015-09-02T14:44:45Z</time>
      </trkpt>
      <trkpt lat="48.21945" lon="6.91246">
        <ele>469</ele>
        <time>2015-09-02T14:44:50Z</time>
      </trkpt>
      <trkpt lat="48.21943" lon="6.91256">
        <ele>468</ele>
        <time>2015-09-02T14:44:59Z</time>
      </trkpt>
      <trkpt lat="48.21942" lon="6.9126">
        <ele>467</ele>
        <time>2015-09-02T14:45:02Z</time>
      </trkpt>
      <trkpt lat="48.21941" lon="6.9127">
        <ele>465</ele>
        <time>2015-09-02T14:45:08Z</time>
      </trkpt>
      <trkpt lat="48.21939" lon="6.91279">
        <ele>464</ele>
        <time>2015-09-02T14:45:14Z</time>
      </trkpt>
      <trkpt lat="48.21935" lon="6.9129">
        <ele>465</ele>
        <time>2015-09-02T14:45:20Z</time>
      </trkpt>
      <trkpt lat="48.21931" lon="6.913">
        <ele>466</ele>
        <time>2015-09-02T14:45:27Z</time>
      </trkpt>
      <trkpt lat="48.21933" lon="6.91307">
        <ele>469</ele>
        <time>2015-09-02T14:45:32Z</time>
      </trkpt>
      <trkpt lat="48.2193" lon="6.91314">
        <ele>468</ele>
        <time>2015-09-02T14:45:38Z</time>
      </trkpt>
      <trkpt lat="48.21925" lon="6.91319">
        <ele>469</ele>
        <time>2015-09-02T14:45:44Z</time>
      </trkpt>
      <trkpt lat="48.21919" lon="6.91324">
        <ele>473</ele>
        <time>2015-09-02T14:45:50Z</time>
      </trkpt>
      <trkpt lat="48.21915" lon="6.9133">
        <ele>474</ele>
        <time>2015-09-02T14:45:56Z</time>
      </trkpt>
      <trkpt lat="48.21908" lon="6.91337">
        <ele>470</ele>
        <time>2015-09-02T14:46:06Z</time>
      </trkpt>
      <trkpt lat="48.21901" lon="6.91344">
        <ele>467</ele>
        <time>2015-09-02T14:46:13Z</time>
      </trkpt>
      <trkpt lat="48.21901" lon="6.91344">
        <ele>466</ele>
        <time>2015-09-02T14:46:14Z</time>
      </trkpt>
      <trkpt lat="48.21895" lon="6.91347">
        <ele>465</ele>
        <time>2015-09-02T14:46:20Z</time>
      </trkpt>
      <trkpt lat="48.21888" lon="6.91352">
        <ele>466</ele>
        <time>2015-09-02T14:46:31Z</time>
      </trkpt>
      <trkpt lat="48.21887" lon="6.91353">
        <ele>466</ele>
        <time>2015-09-02T14:46:33Z</time>
      </trkpt>
      <trkpt lat="48.21881" lon="6.91353">
        <ele>468</ele>
        <time>2015-09-02T14:46:38Z</time>
      </trkpt>
      <trkpt lat="48.21865" lon="6.91358">
        <ele>468</ele>
        <time>2015-09-02T14:46:49Z</time>
      </trkpt>
      <trkpt lat="48.21864" lon="6.91358">
        <ele>467</ele>
        <time>2015-09-02T14:46:50Z</time>
      </trkpt>
      <trkpt lat="48.21859" lon="6.91359">
        <ele>467</ele>
        <time>2015-09-02T14:46:56Z</time>
      </trkpt>
      <trkpt lat="48.2185" lon="6.91363">
        <ele>466</ele>
        <time>2015-09-02T14:47:07Z</time>
      </trkpt>
      <trkpt lat="48.21848" lon="6.91365">
        <ele>464</ele>
        <time>2015-09-02T14:47:08Z</time>
      </trkpt>
      <trkpt lat="48.21844" lon="6.91368">
        <ele>464</ele>
        <time>2015-09-02T14:47:14Z</time>
      </trkpt>
      <trkpt lat="48.2184" lon="6.91371">
        <ele>465</ele>
        <time>2015-09-02T14:47:20Z</time>
      </trkpt>
      <trkpt lat="48.21834" lon="6.91378">
        <ele>464</ele>
        <time>2015-09-02T14:47:31Z</time>
      </trkpt>
      <trkpt lat="48.21833" lon="6.91377">
        <ele>463</ele>
        <time>2015-09-02T14:47:32Z</time>
      </trkpt>
      <trkpt lat="48.21829" lon="6.91376">
        <ele>465</ele>
        <time>2015-09-02T14:47:38Z</time>
      </trkpt>
      <trkpt lat="48.21823" lon="6.9138">
        <ele>467</ele>
        <time>2015-09-02T14:47:44Z</time>
      </trkpt>
      <trkpt lat="48.21816" lon="6.91381">
        <ele>469</ele>
        <time>2015-09-02T14:47:50Z</time>
      </trkpt>
      <trkpt lat="48.21809" lon="6.91387">
        <ele>468</ele>
        <time>2015-09-02T14:47:58Z</time>
      </trkpt>
      <trkpt lat="48.21805" lon="6.91391">
        <ele>469</ele>
        <time>2015-09-02T14:48:02Z</time>
      </trkpt>
      <trkpt lat="48.21801" lon="6.914">
        <ele>467</ele>
        <time>2015-09-02T14:48:08Z</time>
      </trkpt>
      <trkpt lat="48.21798" lon="6.91402">
        <ele>468</ele>
        <time>2015-09-02T14:48:14Z</time>
      </trkpt>
      <trkpt lat="48.21794" lon="6.91406">
        <ele>467</ele>
        <time>2015-09-02T14:48:20Z</time>
      </trkpt>
      <trkpt lat="48.21793" lon="6.91408">
        <ele>465</ele>
        <time>2015-09-02T14:48:26Z</time>
      </trkpt>
      <trkpt lat="48.2179" lon="6.91417">
        <ele>465</ele>
        <time>2015-09-02T14:48:32Z</time>
      </trkpt>
      <trkpt lat="48.21777" lon="6.91429">
        <ele>462</ele>
        <time>2015-09-02T14:48:41Z</time>
      </trkpt>
      <trkpt lat="48.21774" lon="6.9143">
        <ele>463</ele>
        <time>2015-09-02T14:48:44Z</time>
      </trkpt>
      <trkpt lat="48.2177" lon="6.91442">
        <ele>460</ele>
        <time>2015-09-02T14:48:50Z</time>
      </trkpt>
      <trkpt lat="48.21767" lon="6.91447">
        <ele>458</ele>
        <time>2015-09-02T14:48:56Z</time>
      </trkpt>
      <trkpt lat="48.21762" lon="6.91453">
        <ele>460</ele>
        <time>2015-09-02T14:49:02Z</time>
      </trkpt>
      <trkpt lat="48.21757" lon="6.91458">
        <ele>462</ele>
        <time>2015-09-02T14:49:08Z</time>
      </trkpt>
      <trkpt lat="48.21754" lon="6.91465">
        <ele>461</ele>
        <time>2015-09-02T14:49:14Z</time>
      </trkpt>
      <trkpt lat="48.2175" lon="6.91473">
        <ele>465</ele>
        <time>2015-09-02T14:49:20Z</time>
      </trkpt>
      <trkpt lat="48.2175" lon="6.91478">
        <ele>462</ele>
        <time>2015-09-02T14:49:26Z</time>
      </trkpt>
      <trkpt lat="48.21744" lon="6.91484">
        <ele>460</ele>
        <time>2015-09-02T14:49:32Z</time>
      </trkpt>
      <trkpt lat="48.21741" lon="6.91493">
        <ele>462</ele>
        <time>2015-09-02T14:49:38Z</time>
      </trkpt>
      <trkpt lat="48.21737" lon="6.91498">
        <ele>464</ele>
        <time>2015-09-02T14:49:44Z</time>
      </trkpt>
      <trkpt lat="48.21731" lon="6.91505">
        <ele>465</ele>
        <time>2015-09-02T14:49:50Z</time>
      </trkpt>
      <trkpt lat="48.21728" lon="6.91511">
        <ele>464</ele>
        <time>2015-09-02T14:49:56Z</time>
      </trkpt>
      <trkpt lat="48.21718" lon="6.91526">
        <ele>460</ele>
        <time>2015-09-02T14:50:05Z</time>
      </trkpt>
      <trkpt lat="48.21716" lon="6.91531">
        <ele>458</ele>
        <time>2015-09-02T14:50:08Z</time>
      </trkpt>
      <trkpt lat="48.21713" lon="6.91538">
        <ele>455</ele>
        <time>2015-09-02T14:50:14Z</time>
      </trkpt>
      <trkpt lat="48.2171" lon="6.91546">
        <ele>454</ele>
        <time>2015-09-02T14:50:20Z</time>
      </trkpt>
      <trkpt lat="48.21707" lon="6.91557">
        <ele>456</ele>
        <time>2015-09-02T14:50:26Z</time>
      </trkpt>
      <trkpt lat="48.21705" lon="6.91568">
        <ele>457</ele>
        <time>2015-09-02T14:50:32Z</time>
      </trkpt>
      <trkpt lat="48.21699" lon="6.91584">
        <ele>458</ele>
        <time>2015-09-02T14:50:43Z</time>
      </trkpt>
      <trkpt lat="48.21699" lon="6.91588">
        <ele>449</ele>
        <time>2015-09-02T14:50:45Z</time>
      </trkpt>
      <trkpt lat="48.21695" lon="6.91595">
        <ele>456</ele>
        <time>2015-09-02T14:50:50Z</time>
      </trkpt>
      <trkpt lat="48.21691" lon="6.916">
        <ele>462</ele>
        <time>2015-09-02T14:50:56Z</time>
      </trkpt>
      <trkpt lat="48.21687" lon="6.91608">
        <ele>462</ele>
        <time>2015-09-02T14:51:02Z</time>
      </trkpt>
      <trkpt lat="48.21685" lon="6.91619">
        <ele>460</ele>
        <time>2015-09-02T14:51:09Z</time>
      </trkpt>
      <trkpt lat="48.21685" lon="6.91627">
        <ele>460</ele>
        <time>2015-09-02T14:51:14Z</time>
      </trkpt>
      <trkpt lat="48.21682" lon="6.91637">
        <ele>458</ele>
        <time>2015-09-02T14:51:20Z</time>
      </trkpt>
      <trkpt lat="48.21684" lon="6.91647">
        <ele>457</ele>
        <time>2015-09-02T14:51:26Z</time>
      </trkpt>
      <trkpt lat="48.21678" lon="6.91654">
        <ele>455</ele>
        <time>2015-09-02T14:51:37Z</time>
      </trkpt>
      <trkpt lat="48.21678" lon="6.91654">
        <ele>455</ele>
        <time>2015-09-02T14:51:38Z</time>
      </trkpt>
      <trkpt lat="48.21678" lon="6.91656">
        <ele>455</ele>
        <time>2015-09-02T14:51:44Z</time>
      </trkpt>
      <trkpt lat="48.21678" lon="6.91664">
        <ele>456</ele>
        <time>2015-09-02T14:51:50Z</time>
      </trkpt>
      <trkpt lat="48.21679" lon="6.91678">
        <ele>459</ele>
        <time>2015-09-02T14:51:56Z</time>
      </trkpt>
      <trkpt lat="48.21679" lon="6.9169">
        <ele>459</ele>
        <time>2015-09-02T14:52:02Z</time>
      </trkpt>
      <trkpt lat="48.21681" lon="6.917">
        <ele>459</ele>
        <time>2015-09-02T14:52:08Z</time>
      </trkpt>
      <trkpt lat="48.21682" lon="6.91711">
        <ele>458</ele>
        <time>2015-09-02T14:52:14Z</time>
      </trkpt>
      <trkpt lat="48.21685" lon="6.91723">
        <ele>455</ele>
        <time>2015-09-02T14:52:20Z</time>
      </trkpt>
      <trkpt lat="48.21683" lon="6.91735">
        <ele>453</ele>
        <time>2015-09-02T14:52:26Z</time>
      </trkpt>
      <trkpt lat="48.2168" lon="6.91743">
        <ele>453</ele>
        <time>2015-09-02T14:52:32Z</time>
      </trkpt>
      <trkpt lat="48.21677" lon="6.91749">
        <ele>451</ele>
        <time>2015-09-02T14:52:38Z</time>
      </trkpt>
      <trkpt lat="48.21678" lon="6.91753">
        <ele>450</ele>
        <time>2015-09-02T14:52:44Z</time>
      </trkpt>
      <trkpt lat="48.21674" lon="6.91758">
        <ele>451</ele>
        <time>2015-09-02T14:52:50Z</time>
      </trkpt>
      <trkpt lat="48.21673" lon="6.91767">
        <ele>450</ele>
        <time>2015-09-02T14:52:56Z</time>
      </trkpt>
      <trkpt lat="48.21668" lon="6.9177">
        <ele>453</ele>
        <time>2015-09-02T14:53:02Z</time>
      </trkpt>
      <trkpt lat="48.21666" lon="6.91778">
        <ele>453</ele>
        <time>2015-09-02T14:53:10Z</time>
      </trkpt>
      <trkpt lat="48.21664" lon="6.91782">
        <ele>452</ele>
        <time>2015-09-02T14:53:14Z</time>
      </trkpt>
      <trkpt lat="48.21666" lon="6.91788">
        <ele>450</ele>
        <time>2015-09-02T14:53:20Z</time>
      </trkpt>
      <trkpt lat="48.21663" lon="6.91794">
        <ele>453</ele>
        <time>2015-09-02T14:53:26Z</time>
      </trkpt>
      <trkpt lat="48.21663" lon="6.91804">
        <ele>449</ele>
        <time>2015-09-02T14:53:36Z</time>
      </trkpt>
      <trkpt lat="48.21661" lon="6.91806">
        <ele>449</ele>
        <time>2015-09-02T14:53:38Z</time>
      </trkpt>
      <trkpt lat="48.21658" lon="6.91805">
        <ele>446</ele>
        <time>2015-09-02T14:53:44Z</time>
      </trkpt>
      <trkpt lat="48.21657" lon="6.91804">
        <ele>446</ele>
        <time>2015-09-02T14:53:54Z</time>
      </trkpt>
      <trkpt lat="48.21656" lon="6.91805">
        <ele>447</ele>
        <time>2015-09-02T14:54:00Z</time>
      </trkpt>
      <trkpt lat="48.21656" lon="6.91805">
        <ele>447</ele>
        <time>2015-09-02T14:54:02Z</time>
      </trkpt>
      <trkpt lat="48.21653" lon="6.91808">
        <ele>448</ele>
        <time>2015-09-02T14:54:08Z</time>
      </trkpt>
      <trkpt lat="48.21648" lon="6.91817">
        <ele>446</ele>
        <time>2015-09-02T14:54:14Z</time>
      </trkpt>
      <trkpt lat="48.21641" lon="6.9182">
        <ele>445</ele>
        <time>2015-09-02T14:54:23Z</time>
      </trkpt>
      <trkpt lat="48.21641" lon="6.9182">
        <ele>446</ele>
        <time>2015-09-02T14:54:26Z</time>
      </trkpt>
      <trkpt lat="48.21636" lon="6.91821">
        <ele>444</ele>
        <time>2015-09-02T14:54:32Z</time>
      </trkpt>
      <trkpt lat="48.21624" lon="6.91825">
        <ele>442</ele>
        <time>2015-09-02T14:54:38Z</time>
      </trkpt>
      <trkpt lat="48.21615" lon="6.9183">
        <ele>438</ele>
        <time>2015-09-02T14:54:46Z</time>
      </trkpt>
      <trkpt lat="48.21609" lon="6.91828">
        <ele>439</ele>
        <time>2015-09-02T14:54:50Z</time>
      </trkpt>
      <trkpt lat="48.21601" lon="6.91832">
        <ele>439</ele>
        <time>2015-09-02T14:54:56Z</time>
      </trkpt>
      <trkpt lat="48.21596" lon="6.91835">
        <ele>441</ele>
        <time>2015-09-02T14:55:02Z</time>
      </trkpt>
      <trkpt lat="48.21595" lon="6.91839">
        <ele>445</ele>
        <time>2015-09-02T14:55:08Z</time>
      </trkpt>
      <trkpt lat="48.21591" lon="6.91846">
        <ele>443</ele>
        <time>2015-09-02T14:55:14Z</time>
      </trkpt>
      <trkpt lat="48.21586" lon="6.91859">
        <ele>447</ele>
        <time>2015-09-02T14:55:25Z</time>
      </trkpt>
      <trkpt lat="48.21581" lon="6.91864">
        <ele>449</ele>
        <time>2015-09-02T14:55:31Z</time>
      </trkpt>
      <trkpt lat="48.21579" lon="6.91864">
        <ele>447</ele>
        <time>2015-09-02T14:55:32Z</time>
      </trkpt>
      <trkpt lat="48.21572" lon="6.91875">
        <ele>445</ele>
        <time>2015-09-02T14:55:42Z</time>
      </trkpt>
      <trkpt lat="48.21569" lon="6.91875">
        <ele>445</ele>
        <time>2015-09-02T14:55:44Z</time>
      </trkpt>
      <trkpt lat="48.21565" lon="6.91876">
        <ele>446</ele>
        <time>2015-09-02T14:55:54Z</time>
      </trkpt>
      <trkpt lat="48.21561" lon="6.91881">
        <ele>443</ele>
        <time>2015-09-02T14:56:00Z</time>
      </trkpt>
      <trkpt lat="48.21558" lon="6.91882">
        <ele>443</ele>
        <time>2015-09-02T14:56:02Z</time>
      </trkpt>
      <trkpt lat="48.2155" lon="6.91886">
        <ele>442</ele>
        <time>2015-09-02T14:56:08Z</time>
      </trkpt>
      <trkpt lat="48.21543" lon="6.91888">
        <ele>440</ele>
        <time>2015-09-02T14:56:14Z</time>
      </trkpt>
      <trkpt lat="48.21539" lon="6.91893">
        <ele>438</ele>
        <time>2015-09-02T14:56:20Z</time>
      </trkpt>
      <trkpt lat="48.21536" lon="6.91902">
        <ele>439</ele>
        <time>2015-09-02T14:56:28Z</time>
      </trkpt>
      <trkpt lat="48.21538" lon="6.91913">
        <ele>437</ele>
        <time>2015-09-02T14:56:35Z</time>
      </trkpt>
      <trkpt lat="48.21539" lon="6.91919">
        <ele>437</ele>
        <time>2015-09-02T14:56:38Z</time>
      </trkpt>
      <trkpt lat="48.21544" lon="6.91926">
        <ele>440</ele>
        <time>2015-09-02T14:56:44Z</time>
      </trkpt>
      <trkpt lat="48.21544" lon="6.91931">
        <ele>439</ele>
        <time>2015-09-02T14:56:50Z</time>
      </trkpt>
      <trkpt lat="48.2155" lon="6.91944">
        <ele>440</ele>
        <time>2015-09-02T14:56:59Z</time>
      </trkpt>
      <trkpt lat="48.2155" lon="6.91953">
        <ele>443</ele>
        <time>2015-09-02T14:57:06Z</time>
      </trkpt>
      <trkpt lat="48.21551" lon="6.91957">
        <ele>441</ele>
        <time>2015-09-02T14:57:08Z</time>
      </trkpt>
      <trkpt lat="48.21553" lon="6.91966">
        <ele>441</ele>
        <time>2015-09-02T14:57:14Z</time>
      </trkpt>
      <trkpt lat="48.21559" lon="6.91978">
        <ele>441</ele>
        <time>2015-09-02T14:57:24Z</time>
      </trkpt>
      <trkpt lat="48.21563" lon="6.91979">
        <ele>442</ele>
        <time>2015-09-02T14:57:26Z</time>
      </trkpt>
      <trkpt lat="48.21564" lon="6.91989">
        <ele>440</ele>
        <time>2015-09-02T14:57:32Z</time>
      </trkpt>
      <trkpt lat="48.21566" lon="6.91997">
        <ele>441</ele>
        <time>2015-09-02T14:57:38Z</time>
      </trkpt>
      <trkpt lat="48.21565" lon="6.9201">
        <ele>439</ele>
        <time>2015-09-02T14:57:45Z</time>
      </trkpt>
      <trkpt lat="48.21561" lon="6.92023">
        <ele>436</ele>
        <time>2015-09-02T14:57:53Z</time>
      </trkpt>
      <trkpt lat="48.2156" lon="6.92028">
        <ele>433</ele>
        <time>2015-09-02T14:57:56Z</time>
      </trkpt>
      <trkpt lat="48.21559" lon="6.92035">
        <ele>431</ele>
        <time>2015-09-02T14:58:02Z</time>
      </trkpt>
      <trkpt lat="48.21558" lon="6.92045">
        <ele>432</ele>
        <time>2015-09-02T14:58:08Z</time>
      </trkpt>
      <trkpt lat="48.21551" lon="6.92059">
        <ele>431</ele>
        <time>2015-09-02T14:58:18Z</time>
      </trkpt>
      <trkpt lat="48.21548" lon="6.92066">
        <ele>429</ele>
        <time>2015-09-02T14:58:22Z</time>
      </trkpt>
      <trkpt lat="48.21545" lon="6.92076">
        <ele>429</ele>
        <time>2015-09-02T14:58:28Z</time>
      </trkpt>
      <trkpt lat="48.21543" lon="6.92081">
        <ele>429</ele>
        <time>2015-09-02T14:58:32Z</time>
      </trkpt>
      <trkpt lat="48.21542" lon="6.92089">
        <ele>431</ele>
        <time>2015-09-02T14:58:38Z</time>
      </trkpt>
      <trkpt lat="48.21539" lon="6.92097">
        <ele>433</ele>
        <time>2015-09-02T14:58:44Z</time>
      </trkpt>
      <trkpt lat="48.21542" lon="6.92108">
        <ele>438</ele>
        <time>2015-09-02T14:58:51Z</time>
      </trkpt>
      <trkpt lat="48.21543" lon="6.92115">
        <ele>437</ele>
        <time>2015-09-02T14:58:56Z</time>
      </trkpt>
      <trkpt lat="48.21538" lon="6.92125">
        <ele>439</ele>
        <time>2015-09-02T14:59:02Z</time>
      </trkpt>
      <trkpt lat="48.21538" lon="6.92132">
        <ele>440</ele>
        <time>2015-09-02T14:59:08Z</time>
      </trkpt>
      <trkpt lat="48.21541" lon="6.92137">
        <ele>440</ele>
        <time>2015-09-02T14:59:14Z</time>
      </trkpt>
      <trkpt lat="48.21557" lon="6.92135">
        <ele>438</ele>
        <time>2015-09-02T14:59:24Z</time>
      </trkpt>
      <trkpt lat="48.21549" lon="6.92148">
        <ele>436</ele>
        <time>2015-09-02T14:59:29Z</time>
      </trkpt>
      <trkpt lat="48.21553" lon="6.92155">
        <ele>438</ele>
        <time>2015-09-02T14:59:35Z</time>
      </trkpt>
      <trkpt lat="48.21549" lon="6.92153">
        <ele>434</ele>
        <time>2015-09-02T14:59:43Z</time>
      </trkpt>
      <trkpt lat="48.21551" lon="6.92154">
        <ele>435</ele>
        <time>2015-09-02T14:59:48Z</time>
      </trkpt>
      <trkpt lat="48.21551" lon="6.92154">
        <ele>436</ele>
        <time>2015-09-02T14:59:50Z</time>
      </trkpt>
      <trkpt lat="48.21551" lon="6.92155">
        <ele>436</ele>
        <time>2015-09-02T14:59:56Z</time>
      </trkpt>
      <trkpt lat="48.21549" lon="6.92162">
        <ele>438</ele>
        <time>2015-09-02T15:00:02Z</time>
      </trkpt>
      <trkpt lat="48.2155" lon="6.92165">
        <ele>438</ele>
        <time>2015-09-02T15:00:08Z</time>
      </trkpt>
      <trkpt lat="48.21549" lon="6.92167">
        <ele>438</ele>
        <time>2015-09-02T15:00:14Z</time>
      </trkpt>
      <trkpt lat="48.21549" lon="6.92167">
        <ele>438</ele>
        <time>2015-09-02T15:00:20Z</time>
      </trkpt>
      <trkpt lat="48.21549" lon="6.92167">
        <ele>438</ele>
        <time>2015-09-02T15:00:26Z</time>
      </trkpt>
      <trkpt lat="48.21549" lon="6.92167">
        <ele>438</ele>
        <time>2015-09-02T15:00:32Z</time>
      </trkpt>
      <trkpt lat="48.21549" lon="6.92167">
        <ele>438</ele>
        <time>2015-09-02T15:00:38Z</time>
      </trkpt>
      <trkpt lat="48.21549" lon="6.92167">
        <ele>439</ele>
        <time>2015-09-02T15:00:44Z</time>
      </trkpt>
      <trkpt lat="48.21549" lon="6.92167">
        <ele>439</ele>
        <time>2015-09-02T15:00:50Z</time>
      </trkpt>
      <trkpt lat="48.21549" lon="6.92167">
        <ele>439</ele>
        <time>2015-09-02T15:00:56Z</time>
      </trkpt>
      <trkpt lat="48.21548" lon="6.92168">
        <ele>440</ele>
        <time>2015-09-02T15:01:06Z</time>
      </trkpt>
      <trkpt lat="48.21545" lon="6.92169">
        <ele>442</ele>
        <time>2015-09-02T15:01:08Z</time>
      </trkpt>
      <trkpt lat="48.21545" lon="6.92169">
        <ele>441</ele>
        <time>2015-09-02T15:01:14Z</time>
      </trkpt>
      <trkpt lat="48.21544" lon="6.92169">
        <ele>442</ele>
        <time>2015-09-02T15:01:20Z</time>
      </trkpt>
      <trkpt lat="48.21544" lon="6.92169">
        <ele>441</ele>
        <time>2015-09-02T15:01:27Z</time>
      </trkpt>
      <trkpt lat="48.21544" lon="6.92169">
        <ele>441</ele>
        <time>2015-09-02T15:01:32Z</time>
      </trkpt>
      <trkpt lat="48.21543" lon="6.92168">
        <ele>444</ele>
        <time>2015-09-02T15:01:38Z</time>
      </trkpt>
      <trkpt lat="48.21543" lon="6.92167">
        <ele>442</ele>
        <time>2015-09-02T15:01:44Z</time>
      </trkpt>
      <trkpt lat="48.21543" lon="6.92167">
        <ele>442</ele>
        <time>2015-09-02T15:01:50Z</time>
      </trkpt>
      <trkpt lat="48.21543" lon="6.92166">
        <ele>440</ele>
        <time>2015-09-02T15:01:56Z</time>
      </trkpt>
      <trkpt lat="48.21544" lon="6.92167">
        <ele>439</ele>
        <time>2015-09-02T15:02:02Z</time>
      </trkpt>
      <trkpt lat="48.21544" lon="6.92167">
        <ele>440</ele>
        <time>2015-09-02T15:02:10Z</time>
      </trkpt>
      <trkpt lat="48.21544" lon="6.92166">
        <ele>438</ele>
        <time>2015-09-02T15:02:14Z</time>
      </trkpt>
      <trkpt lat="48.21544" lon="6.92166">
        <ele>437</ele>
        <time>2015-09-02T15:02:20Z</time>
      </trkpt>
      <trkpt lat="48.21546" lon="6.92165">
        <ele>435</ele>
        <time>2015-09-02T15:02:26Z</time>
      </trkpt>
      <trkpt lat="48.21546" lon="6.92165">
        <ele>435</ele>
        <time>2015-09-02T15:02:32Z</time>
      </trkpt>
      <trkpt lat="48.21546" lon="6.92165">
        <ele>435</ele>
        <time>2015-09-02T15:02:38Z</time>
      </trkpt>
      <trkpt lat="48.21546" lon="6.92165">
        <ele>435</ele>
        <time>2015-09-02T15:02:49Z</time>
      </trkpt>
      <trkpt lat="48.21546" lon="6.92165">
        <ele>435</ele>
        <time>2015-09-02T15:02:54Z</time>
      </trkpt>
      <trkpt lat="48.21546" lon="6.92165">
        <ele>435</ele>
        <time>2015-09-02T15:02:56Z</time>
      </trkpt>
      <trkpt lat="48.21546" lon="6.92165">
        <ele>435</ele>
        <time>2015-09-02T15:03:02Z</time>
      </trkpt>
      <trkpt lat="48.21546" lon="6.92165">
        <ele>435</ele>
        <time>2015-09-02T15:03:08Z</time>
      </trkpt>
      <trkpt lat="48.21546" lon="6.92165">
        <ele>435</ele>
        <time>2015-09-02T15:03:14Z</time>
      </trkpt>
      <trkpt lat="48.21546" lon="6.92165">
        <ele>435</ele>
        <time>2015-09-02T15:03:22Z</time>
      </trkpt>
      <trkpt lat="48.21546" lon="6.92165">
        <ele>435</ele>
        <time>2015-09-02T15:03:26Z</time>
      </trkpt>
      <trkpt lat="48.21546" lon="6.92165">
        <ele>435</ele>
        <time>2015-09-02T15:03:34Z</time>
      </trkpt>
      <trkpt lat="48.21547" lon="6.92165">
        <ele>435</ele>
        <time>2015-09-02T15:03:39Z</time>
      </trkpt>
      <trkpt lat="48.21546" lon="6.92165">
        <ele>435</ele>
        <time>2015-09-02T15:03:46Z</time>
      </trkpt>
      <trkpt lat="48.21546" lon="6.92165">
        <ele>435</ele>
        <time>2015-09-02T15:03:50Z</time>
      </trkpt>
      <trkpt lat="48.21546" lon="6.92165">
        <ele>435</ele>
        <time>2015-09-02T15:03:56Z</time>
      </trkpt>
      <trkpt lat="48.21546" lon="6.92165">
        <ele>435</ele>
        <time>2015-09-02T15:04:02Z</time>
      </trkpt>
      <trkpt lat="48.21547" lon="6.92165">
        <ele>435</ele>
        <time>2015-09-02T15:04:08Z</time>
      </trkpt>
      <trkpt lat="48.21547" lon="6.92165">
        <ele>435</ele>
        <time>2015-09-02T15:04:14Z</time>
      </trkpt>
      <trkpt lat="48.21547" lon="6.92166">
        <ele>435</ele>
        <time>2015-09-02T15:04:20Z</time>
      </trkpt>
      <trkpt lat="48.21547" lon="6.92166">
        <ele>435</ele>
        <time>2015-09-02T15:04:26Z</time>
      </trkpt>
      <trkpt lat="48.21547" lon="6.92166">
        <ele>435</ele>
        <time>2015-09-02T15:04:32Z</time>
      </trkpt>
      <trkpt lat="48.21547" lon="6.92166">
        <ele>435</ele>
        <time>2015-09-02T15:04:39Z</time>
      </trkpt>
      <trkpt lat="48.21547" lon="6.92166">
        <ele>435</ele>
        <time>2015-09-02T15:04:44Z</time>
      </trkpt>
      <trkpt lat="48.21547" lon="6.92166">
        <ele>435</ele>
        <time>2015-09-02T15:04:50Z</time>
      </trkpt>
      <trkpt lat="48.21547" lon="6.92166">
        <ele>435</ele>
        <time>2015-09-02T15:04:56Z</time>
      </trkpt>
      <trkpt lat="48.21547" lon="6.92166">
        <ele>435</ele>
        <time>2015-09-02T15:05:02Z</time>
      </trkpt>
      <trkpt lat="48.21547" lon="6.92166">
        <ele>435</ele>
        <time>2015-09-02T15:05:08Z</time>
      </trkpt>
      <trkpt lat="48.21547" lon="6.92166">
        <ele>435</ele>
        <time>2015-09-02T15:05:16Z</time>
      </trkpt>
      <trkpt lat="48.21546" lon="6.92166">
        <ele>431</ele>
        <time>2015-09-02T15:05:22Z</time>
      </trkpt>
      <trkpt lat="48.21545" lon="6.92167">
        <ele>432</ele>
        <time>2015-09-02T15:05:26Z</time>
      </trkpt>
      <trkpt lat="48.21546" lon="6.92168">
        <ele>429</ele>
        <time>2015-09-02T15:05:32Z</time>
      </trkpt>
      <trkpt lat="48.21547" lon="6.92169">
        <ele>429</ele>
        <time>2015-09-02T15:05:38Z</time>
      </trkpt>
      <trkpt lat="48.21547" lon="6.92169">
        <ele>429</ele>
        <time>2015-09-02T15:05:44Z</time>
      </trkpt>
      <trkpt lat="48.21547" lon="6.92169">
        <ele>430</ele>
        <time>2015-09-02T15:05:50Z</time>
      </trkpt>
      <trkpt lat="48.21547" lon="6.92169">
        <ele>430</ele>
        <time>2015-09-02T15:06:00Z</time>
      </trkpt>
      <trkpt lat="48.21547" lon="6.92169">
        <ele>430</ele>
        <time>2015-09-02T15:06:02Z</time>
      </trkpt>
      <trkpt lat="48.21547" lon="6.92169">
        <ele>429</ele>
        <time>2015-09-02T15:06:08Z</time>
      </trkpt>
      <trkpt lat="48.21548" lon="6.92175">
        <ele>432</ele>
        <time>2015-09-02T15:06:14Z</time>
      </trkpt>
      <trkpt lat="48.21546" lon="6.92187">
        <ele>427</ele>
        <time>2015-09-02T15:06:20Z</time>
      </trkpt>
      <trkpt lat="48.21547" lon="6.92194">
        <ele>429</ele>
        <time>2015-09-02T15:06:26Z</time>
      </trkpt>
      <trkpt lat="48.21548" lon="6.92204">
        <ele>429</ele>
        <time>2015-09-02T15:06:32Z</time>
      </trkpt>
      <trkpt lat="48.21546" lon="6.92214">
        <ele>429</ele>
        <time>2015-09-02T15:06:38Z</time>
      </trkpt>
      <trkpt lat="48.21544" lon="6.92223">
        <ele>432</ele>
        <time>2015-09-02T15:06:44Z</time>
      </trkpt>
      <trkpt lat="48.21545" lon="6.9223">
        <ele>433</ele>
        <time>2015-09-02T15:06:50Z</time>
      </trkpt>
      <trkpt lat="48.21546" lon="6.92246">
        <ele>429</ele>
        <time>2015-09-02T15:07:01Z</time>
      </trkpt>
      <trkpt lat="48.21547" lon="6.92248">
        <ele>430</ele>
        <time>2015-09-02T15:07:02Z</time>
      </trkpt>
      <trkpt lat="48.2155" lon="6.92258">
        <ele>431</ele>
        <time>2015-09-02T15:07:08Z</time>
      </trkpt>
      <trkpt lat="48.21553" lon="6.92265">
        <ele>431</ele>
        <time>2015-09-02T15:07:14Z</time>
      </trkpt>
      <trkpt lat="48.21555" lon="6.92281">
        <ele>432</ele>
        <time>2015-09-02T15:07:24Z</time>
      </trkpt>
      <trkpt lat="48.21555" lon="6.92285">
        <ele>432</ele>
        <time>2015-09-02T15:07:26Z</time>
      </trkpt>
      <trkpt lat="48.21561" lon="6.92301">
        <ele>430</ele>
        <time>2015-09-02T15:07:37Z</time>
      </trkpt>
      <trkpt lat="48.21562" lon="6.92302">
        <ele>430</ele>
        <time>2015-09-02T15:07:38Z</time>
      </trkpt>
      <trkpt lat="48.21566" lon="6.92312">
        <ele>434</ele>
        <time>2015-09-02T15:07:44Z</time>
      </trkpt>
      <trkpt lat="48.21568" lon="6.92321">
        <ele>432</ele>
        <time>2015-09-02T15:07:50Z</time>
      </trkpt>
      <trkpt lat="48.21573" lon="6.92336">
        <ele>435</ele>
        <time>2015-09-02T15:08:01Z</time>
      </trkpt>
      <trkpt lat="48.21573" lon="6.92338">
        <ele>435</ele>
        <time>2015-09-02T15:08:02Z</time>
      </trkpt>
      <trkpt lat="48.21576" lon="6.92347">
        <ele>433</ele>
        <time>2015-09-02T15:08:08Z</time>
      </trkpt>
      <trkpt lat="48.2158" lon="6.92357">
        <ele>433</ele>
        <time>2015-09-02T15:08:14Z</time>
      </trkpt>
      <trkpt lat="48.21581" lon="6.92367">
        <ele>431</ele>
        <time>2015-09-02T15:08:20Z</time>
      </trkpt>
      <trkpt lat="48.21582" lon="6.92376">
        <ele>431</ele>
        <time>2015-09-02T15:08:26Z</time>
      </trkpt>
      <trkpt lat="48.21587" lon="6.92384">
        <ele>434</ele>
        <time>2015-09-02T15:08:34Z</time>
      </trkpt>
      <trkpt lat="48.21587" lon="6.92392">
        <ele>434</ele>
        <time>2015-09-02T15:08:38Z</time>
      </trkpt>
      <trkpt lat="48.21588" lon="6.92403">
        <ele>435</ele>
        <time>2015-09-02T15:08:44Z</time>
      </trkpt>
      <trkpt lat="48.2159" lon="6.9242">
        <ele>437</ele>
        <time>2015-09-02T15:08:55Z</time>
      </trkpt>
      <trkpt lat="48.2159" lon="6.92421">
        <ele>437</ele>
        <time>2015-09-02T15:08:56Z</time>
      </trkpt>
      <trkpt lat="48.21591" lon="6.92429">
        <ele>431</ele>
        <time>2015-09-02T15:09:02Z</time>
      </trkpt>
      <trkpt lat="48.21596" lon="6.92438">
        <ele>432</ele>
        <time>2015-09-02T15:09:08Z</time>
      </trkpt>
      <trkpt lat="48.21598" lon="6.92447">
        <ele>433</ele>
        <time>2015-09-02T15:09:14Z</time>
      </trkpt>
      <trkpt lat="48.21595" lon="6.92459">
        <ele>433</ele>
        <time>2015-09-02T15:09:21Z</time>
      </trkpt>
      <trkpt lat="48.21596" lon="6.92469">
        <ele>435</ele>
        <time>2015-09-02T15:09:27Z</time>
      </trkpt>
      <trkpt lat="48.216" lon="6.92481">
        <ele>434</ele>
        <time>2015-09-02T15:09:37Z</time>
      </trkpt>
      <trkpt lat="48.216" lon="6.92483">
        <ele>434</ele>
        <time>2015-09-02T15:09:38Z</time>
      </trkpt>
      <trkpt lat="48.216" lon="6.92493">
        <ele>431</ele>
        <time>2015-09-02T15:09:44Z</time>
      </trkpt>
      <trkpt lat="48.216" lon="6.92503">
        <ele>429</ele>
        <time>2015-09-02T15:09:50Z</time>
      </trkpt>
      <trkpt lat="48.21602" lon="6.92512">
        <ele>428</ele>
        <time>2015-09-02T15:09:56Z</time>
      </trkpt>
      <trkpt lat="48.21603" lon="6.92522">
        <ele>428</ele>
        <time>2015-09-02T15:10:02Z</time>
      </trkpt>
      <trkpt lat="48.21606" lon="6.92535">
        <ele>429</ele>
        <time>2015-09-02T15:10:11Z</time>
      </trkpt>
      <trkpt lat="48.21607" lon="6.92541">
        <ele>429</ele>
        <time>2015-09-02T15:10:14Z</time>
      </trkpt>
      <trkpt lat="48.21609" lon="6.92549">
        <ele>430</ele>
        <time>2015-09-02T15:10:20Z</time>
      </trkpt>
      <trkpt lat="48.21614" lon="6.92555">
        <ele>431</ele>
        <time>2015-09-02T15:10:26Z</time>
      </trkpt>
      <trkpt lat="48.21618" lon="6.92561">
        <ele>430</ele>
        <time>2015-09-02T15:10:32Z</time>
      </trkpt>
      <trkpt lat="48.21618" lon="6.92565">
        <ele>429</ele>
        <time>2015-09-02T15:10:39Z</time>
      </trkpt>
      <trkpt lat="48.21619" lon="6.92565">
        <ele>429</ele>
        <time>2015-09-02T15:10:44Z</time>
      </trkpt>
      <trkpt lat="48.21619" lon="6.92564">
        <ele>429</ele>
        <time>2015-09-02T15:10:50Z</time>
      </trkpt>
      <trkpt lat="48.21618" lon="6.92564">
        <ele>429</ele>
        <time>2015-09-02T15:10:56Z</time>
      </trkpt>
      <trkpt lat="48.21621" lon="6.92563">
        <ele>427</ele>
        <time>2015-09-02T15:11:02Z</time>
      </trkpt>
      <trkpt lat="48.21619" lon="6.92562">
        <ele>428</ele>
        <time>2015-09-02T15:11:13Z</time>
      </trkpt>
      <trkpt lat="48.21619" lon="6.92562">
        <ele>428</ele>
        <time>2015-09-02T15:11:15Z</time>
      </trkpt>
      <trkpt lat="48.21619" lon="6.92562">
        <ele>428</ele>
        <time>2015-09-02T15:11:20Z</time>
      </trkpt>
      <trkpt lat="48.21619" lon="6.92562">
        <ele>428</ele>
        <time>2015-09-02T15:11:26Z</time>
      </trkpt>
      <trkpt lat="48.21619" lon="6.92562">
        <ele>428</ele>
        <time>2015-09-02T15:11:33Z</time>
      </trkpt>
      <trkpt lat="48.21621" lon="6.9256">
        <ele>429</ele>
        <time>2015-09-02T15:11:40Z</time>
      </trkpt>
      <trkpt lat="48.21623" lon="6.92561">
        <ele>429</ele>
        <time>2015-09-02T15:11:48Z</time>
      </trkpt>
      <trkpt lat="48.21623" lon="6.92563">
        <ele>429</ele>
        <time>2015-09-02T15:11:51Z</time>
      </trkpt>
      <trkpt lat="48.21626" lon="6.92569">
        <ele>428</ele>
        <time>2015-09-02T15:11:56Z</time>
      </trkpt>
      <trkpt lat="48.21631" lon="6.92578">
        <ele>429</ele>
        <time>2015-09-02T15:12:02Z</time>
      </trkpt>
      <trkpt lat="48.21634" lon="6.92588">
        <ele>430</ele>
        <time>2015-09-02T15:12:08Z</time>
      </trkpt>
      <trkpt lat="48.21637" lon="6.92594">
        <ele>430</ele>
        <time>2015-09-02T15:12:14Z</time>
      </trkpt>
      <trkpt lat="48.2164" lon="6.92603">
        <ele>428</ele>
        <time>2015-09-02T15:12:20Z</time>
      </trkpt>
      <trkpt lat="48.21643" lon="6.9261">
        <ele>426</ele>
        <time>2015-09-02T15:12:26Z</time>
      </trkpt>
      <trkpt lat="48.21645" lon="6.9262">
        <ele>425</ele>
        <time>2015-09-02T15:12:32Z</time>
      </trkpt>
      <trkpt lat="48.21649" lon="6.92631">
        <ele>428</ele>
        <time>2015-09-02T15:12:39Z</time>
      </trkpt>
      <trkpt lat="48.21651" lon="6.92639">
        <ele>428</ele>
        <time>2015-09-02T15:12:44Z</time>
      </trkpt>
      <trkpt lat="48.21653" lon="6.92649">
        <ele>428</ele>
        <time>2015-09-02T15:12:50Z</time>
      </trkpt>
      <trkpt lat="48.21655" lon="6.92659">
        <ele>429</ele>
        <time>2015-09-02T15:12:56Z</time>
      </trkpt>
      <trkpt lat="48.21657" lon="6.92669">
        <ele>430</ele>
        <time>2015-09-02T15:13:02Z</time>
      </trkpt>
      <trkpt lat="48.21661" lon="6.92675">
        <ele>428</ele>
        <time>2015-09-02T15:13:08Z</time>
      </trkpt>
      <trkpt lat="48.21663" lon="6.92686">
        <ele>429</ele>
        <time>2015-09-02T15:13:15Z</time>
      </trkpt>
      <trkpt lat="48.21666" lon="6.92693">
        <ele>430</ele>
        <time>2015-09-02T15:13:20Z</time>
      </trkpt>
      <trkpt lat="48.21665" lon="6.9271">
        <ele>429</ele>
        <time>2015-09-02T15:13:30Z</time>
      </trkpt>
      <trkpt lat="48.21667" lon="6.92714">
        <ele>430</ele>
        <time>2015-09-02T15:13:32Z</time>
      </trkpt>
      <trkpt lat="48.21667" lon="6.92725">
        <ele>431</ele>
        <time>2015-09-02T15:13:38Z</time>
      </trkpt>
      <trkpt lat="48.21668" lon="6.92732">
        <ele>428</ele>
        <time>2015-09-02T15:13:44Z</time>
      </trkpt>
      <trkpt lat="48.21669" lon="6.9274">
        <ele>426</ele>
        <time>2015-09-02T15:13:50Z</time>
      </trkpt>
      <trkpt lat="48.21671" lon="6.92747">
        <ele>425</ele>
        <time>2015-09-02T15:13:56Z</time>
      </trkpt>
      <trkpt lat="48.21675" lon="6.92748">
        <ele>426</ele>
        <time>2015-09-02T15:14:02Z</time>
      </trkpt>
      <trkpt lat="48.21675" lon="6.92749">
        <ele>426</ele>
        <time>2015-09-02T15:14:08Z</time>
      </trkpt>
      <trkpt lat="48.21674" lon="6.92747">
        <ele>425</ele>
        <time>2015-09-02T15:14:14Z</time>
      </trkpt>
      <trkpt lat="48.21674" lon="6.92747">
        <ele>424</ele>
        <time>2015-09-02T15:14:22Z</time>
      </trkpt>
      <trkpt lat="48.21674" lon="6.92748">
        <ele>425</ele>
        <time>2015-09-02T15:14:26Z</time>
      </trkpt>
    </trkseg>
  </trk>
</gpx>